<?xml version="1.0" encoding="UTF-8" standalone="no" ?>
<gpx xmlns="http://www.topografix.com/GPX/1/1" xmlns:xsi="http://www.w3.org/2001/XMLSchema-instance" xsi:schemaLocation="http://www.topografix.com/GPX/1/1 http://www.topografix.com/GPX/1/1/gpx.xsd" version="1.1" creator="VisuGPX - https://www.visugpx.com">
  <metadata>
    <name>Balade de 9km à Gorges </name>
  </metadata>
  <trk>
    <name><![CDATA[Balade de 9km à Gorges _1]]></name>
    <trkseg>
      <trkpt lat="49.2542" lon="-1.38899">
        <ele>2.4</ele>
        <time>2022-02-02T13:49:00Z</time>
      </trkpt>
      <trkpt lat="49.25418" lon="-1.38907">
        <ele>6.5</ele>
        <time>2022-02-02T13:49:59Z</time>
      </trkpt>
      <trkpt lat="49.25417" lon="-1.38914">
        <ele>6.4</ele>
        <time>2022-02-02T13:50:07Z</time>
      </trkpt>
      <trkpt lat="49.25415" lon="-1.38922">
        <ele>6.2</ele>
        <time>2022-02-02T13:50:12Z</time>
      </trkpt>
      <trkpt lat="49.25414" lon="-1.38929">
        <ele>6.2</ele>
        <time>2022-02-02T13:50:16Z</time>
      </trkpt>
      <trkpt lat="49.25412" lon="-1.38937">
        <ele>6.4</ele>
        <time>2022-02-02T13:50:20Z</time>
      </trkpt>
      <trkpt lat="49.25411" lon="-1.38945">
        <ele>6.9</ele>
        <time>2022-02-02T13:50:25Z</time>
      </trkpt>
      <trkpt lat="49.25411" lon="-1.38953">
        <ele>7.3</ele>
        <time>2022-02-02T13:50:29Z</time>
      </trkpt>
      <trkpt lat="49.25409" lon="-1.38961">
        <ele>7.8</ele>
        <time>2022-02-02T13:50:33Z</time>
      </trkpt>
      <trkpt lat="49.25409" lon="-1.38968">
        <ele>8.3</ele>
        <time>2022-02-02T13:50:37Z</time>
      </trkpt>
      <trkpt lat="49.25408" lon="-1.38977">
        <ele>8.4</ele>
        <time>2022-02-02T13:50:42Z</time>
      </trkpt>
      <trkpt lat="49.25408" lon="-1.38985">
        <ele>7.9</ele>
        <time>2022-02-02T13:50:46Z</time>
      </trkpt>
      <trkpt lat="49.25407" lon="-1.38992">
        <ele>7.8</ele>
        <time>2022-02-02T13:50:49Z</time>
      </trkpt>
      <trkpt lat="49.25407" lon="-1.39001">
        <ele>8.4</ele>
        <time>2022-02-02T13:50:54Z</time>
      </trkpt>
      <trkpt lat="49.25407" lon="-1.39009">
        <ele>8.7</ele>
        <time>2022-02-02T13:51:00Z</time>
      </trkpt>
      <trkpt lat="49.25407" lon="-1.39018">
        <ele>8.6</ele>
        <time>2022-02-02T13:51:04Z</time>
      </trkpt>
      <trkpt lat="49.25409" lon="-1.39025">
        <ele>8.6</ele>
        <time>2022-02-02T13:51:08Z</time>
      </trkpt>
      <trkpt lat="49.25414" lon="-1.39023">
        <ele>8.5</ele>
        <time>2022-02-02T13:51:13Z</time>
      </trkpt>
      <trkpt lat="49.2542" lon="-1.39023">
        <ele>8.3</ele>
        <time>2022-02-02T13:51:17Z</time>
      </trkpt>
      <trkpt lat="49.25425" lon="-1.39023">
        <ele>8.3</ele>
        <time>2022-02-02T13:51:22Z</time>
      </trkpt>
      <trkpt lat="49.25429" lon="-1.39025">
        <ele>8.5</ele>
        <time>2022-02-02T13:51:26Z</time>
      </trkpt>
      <trkpt lat="49.25435" lon="-1.39027">
        <ele>8.7</ele>
        <time>2022-02-02T13:51:31Z</time>
      </trkpt>
      <trkpt lat="49.2544" lon="-1.39028">
        <ele>9.3</ele>
        <time>2022-02-02T13:51:37Z</time>
      </trkpt>
      <trkpt lat="49.25445" lon="-1.39028">
        <ele>9.9</ele>
        <time>2022-02-02T13:51:42Z</time>
      </trkpt>
      <trkpt lat="49.2545" lon="-1.39029">
        <ele>11.3</ele>
        <time>2022-02-02T13:52:03Z</time>
      </trkpt>
      <trkpt lat="49.25455" lon="-1.3903">
        <ele>11.2</ele>
        <time>2022-02-02T13:52:08Z</time>
      </trkpt>
      <trkpt lat="49.2546" lon="-1.3903">
        <ele>10.9</ele>
        <time>2022-02-02T13:52:13Z</time>
      </trkpt>
      <trkpt lat="49.25465" lon="-1.39031">
        <ele>12.1</ele>
        <time>2022-02-02T13:52:24Z</time>
      </trkpt>
      <trkpt lat="49.25471" lon="-1.39033">
        <ele>12.2</ele>
        <time>2022-02-02T13:52:29Z</time>
      </trkpt>
      <trkpt lat="49.25475" lon="-1.39034">
        <ele>12.4</ele>
        <time>2022-02-02T13:52:32Z</time>
      </trkpt>
      <trkpt lat="49.2548" lon="-1.39034">
        <ele>12.8</ele>
        <time>2022-02-02T13:52:37Z</time>
      </trkpt>
      <trkpt lat="49.25485" lon="-1.39036">
        <ele>12.8</ele>
        <time>2022-02-02T13:52:41Z</time>
      </trkpt>
      <trkpt lat="49.2549" lon="-1.39036">
        <ele>12.9</ele>
        <time>2022-02-02T13:52:46Z</time>
      </trkpt>
      <trkpt lat="49.25495" lon="-1.39035">
        <ele>12.9</ele>
        <time>2022-02-02T13:52:50Z</time>
      </trkpt>
      <trkpt lat="49.255" lon="-1.39034">
        <ele>12.8</ele>
        <time>2022-02-02T13:52:55Z</time>
      </trkpt>
      <trkpt lat="49.25506" lon="-1.39035">
        <ele>12.4</ele>
        <time>2022-02-02T13:53:00Z</time>
      </trkpt>
      <trkpt lat="49.25512" lon="-1.39038">
        <ele>11.4</ele>
        <time>2022-02-02T13:53:05Z</time>
      </trkpt>
      <trkpt lat="49.25517" lon="-1.39038">
        <ele>10.7</ele>
        <time>2022-02-02T13:53:12Z</time>
      </trkpt>
      <trkpt lat="49.25522" lon="-1.39038">
        <ele>9.3</ele>
        <time>2022-02-02T13:53:20Z</time>
      </trkpt>
      <trkpt lat="49.25527" lon="-1.39039">
        <ele>9.6</ele>
        <time>2022-02-02T13:53:24Z</time>
      </trkpt>
      <trkpt lat="49.25533" lon="-1.39038">
        <ele>10.3</ele>
        <time>2022-02-02T13:53:28Z</time>
      </trkpt>
      <trkpt lat="49.25537" lon="-1.39041">
        <ele>11.2</ele>
        <time>2022-02-02T13:53:37Z</time>
      </trkpt>
      <trkpt lat="49.25543" lon="-1.39039">
        <ele>11.8</ele>
        <time>2022-02-02T13:53:56Z</time>
      </trkpt>
      <trkpt lat="49.25548" lon="-1.3904">
        <ele>12.3</ele>
        <time>2022-02-02T13:54:00Z</time>
      </trkpt>
      <trkpt lat="49.25552" lon="-1.39038">
        <ele>12.6</ele>
        <time>2022-02-02T13:54:03Z</time>
      </trkpt>
      <trkpt lat="49.25558" lon="-1.39037">
        <ele>13</ele>
        <time>2022-02-02T13:54:08Z</time>
      </trkpt>
      <trkpt lat="49.25562" lon="-1.39041">
        <ele>13</ele>
        <time>2022-02-02T13:54:14Z</time>
      </trkpt>
      <trkpt lat="49.25567" lon="-1.39041">
        <ele>12.9</ele>
        <time>2022-02-02T13:54:18Z</time>
      </trkpt>
      <trkpt lat="49.25572" lon="-1.39042">
        <ele>12.6</ele>
        <time>2022-02-02T13:54:22Z</time>
      </trkpt>
      <trkpt lat="49.25576" lon="-1.39041">
        <ele>12.3</ele>
        <time>2022-02-02T13:54:25Z</time>
      </trkpt>
      <trkpt lat="49.25582" lon="-1.3904">
        <ele>11.9</ele>
        <time>2022-02-02T13:54:29Z</time>
      </trkpt>
      <trkpt lat="49.25587" lon="-1.3904">
        <ele>11.9</ele>
        <time>2022-02-02T13:54:32Z</time>
      </trkpt>
      <trkpt lat="49.25592" lon="-1.39041">
        <ele>11.8</ele>
        <time>2022-02-02T13:54:36Z</time>
      </trkpt>
      <trkpt lat="49.25598" lon="-1.39042">
        <ele>11.5</ele>
        <time>2022-02-02T13:54:41Z</time>
      </trkpt>
      <trkpt lat="49.25603" lon="-1.39043">
        <ele>11.7</ele>
        <time>2022-02-02T13:54:45Z</time>
      </trkpt>
      <trkpt lat="49.25608" lon="-1.39045">
        <ele>11.6</ele>
        <time>2022-02-02T13:54:49Z</time>
      </trkpt>
      <trkpt lat="49.25613" lon="-1.39044">
        <ele>11.4</ele>
        <time>2022-02-02T13:54:53Z</time>
      </trkpt>
      <trkpt lat="49.25618" lon="-1.39045">
        <ele>11.3</ele>
        <time>2022-02-02T13:54:56Z</time>
      </trkpt>
      <trkpt lat="49.25623" lon="-1.39042">
        <ele>11.7</ele>
        <time>2022-02-02T13:55:03Z</time>
      </trkpt>
      <trkpt lat="49.25628" lon="-1.39039">
        <ele>12.2</ele>
        <time>2022-02-02T13:55:08Z</time>
      </trkpt>
      <trkpt lat="49.25633" lon="-1.39038">
        <ele>12.4</ele>
        <time>2022-02-02T13:55:11Z</time>
      </trkpt>
      <trkpt lat="49.25638" lon="-1.39038">
        <ele>12.7</ele>
        <time>2022-02-02T13:55:16Z</time>
      </trkpt>
      <trkpt lat="49.25641" lon="-1.39032">
        <ele>12.9</ele>
        <time>2022-02-02T13:55:21Z</time>
      </trkpt>
      <trkpt lat="49.25645" lon="-1.39026">
        <ele>13.2</ele>
        <time>2022-02-02T13:55:27Z</time>
      </trkpt>
      <trkpt lat="49.25648" lon="-1.39019">
        <ele>13.3</ele>
        <time>2022-02-02T13:55:31Z</time>
      </trkpt>
      <trkpt lat="49.25652" lon="-1.39015">
        <ele>12.8</ele>
        <time>2022-02-02T13:55:36Z</time>
      </trkpt>
      <trkpt lat="49.25656" lon="-1.39011">
        <ele>12.2</ele>
        <time>2022-02-02T13:55:44Z</time>
      </trkpt>
      <trkpt lat="49.2566" lon="-1.39007">
        <ele>12.3</ele>
        <time>2022-02-02T13:55:50Z</time>
      </trkpt>
      <trkpt lat="49.25664" lon="-1.39004">
        <ele>12.4</ele>
        <time>2022-02-02T13:55:59Z</time>
      </trkpt>
      <trkpt lat="49.25668" lon="-1.39">
        <ele>12.2</ele>
        <time>2022-02-02T13:56:03Z</time>
      </trkpt>
      <trkpt lat="49.25674" lon="-1.38994">
        <ele>12</ele>
        <time>2022-02-02T13:56:06Z</time>
      </trkpt>
      <trkpt lat="49.25678" lon="-1.38992">
        <ele>11.8</ele>
        <time>2022-02-02T13:56:10Z</time>
      </trkpt>
      <trkpt lat="49.25683" lon="-1.38988">
        <ele>11.7</ele>
        <time>2022-02-02T13:56:15Z</time>
      </trkpt>
      <trkpt lat="49.25687" lon="-1.38984">
        <ele>12.4</ele>
        <time>2022-02-02T13:56:20Z</time>
      </trkpt>
      <trkpt lat="49.25692" lon="-1.3898">
        <ele>12.9</ele>
        <time>2022-02-02T13:56:24Z</time>
      </trkpt>
      <trkpt lat="49.25697" lon="-1.38978">
        <ele>13.1</ele>
        <time>2022-02-02T13:56:27Z</time>
      </trkpt>
      <trkpt lat="49.25702" lon="-1.38974">
        <ele>13.3</ele>
        <time>2022-02-02T13:56:32Z</time>
      </trkpt>
      <trkpt lat="49.25706" lon="-1.3897">
        <ele>13.3</ele>
        <time>2022-02-02T13:56:36Z</time>
      </trkpt>
      <trkpt lat="49.2571" lon="-1.38965">
        <ele>13.3</ele>
        <time>2022-02-02T13:56:41Z</time>
      </trkpt>
      <trkpt lat="49.25713" lon="-1.38959">
        <ele>13.5</ele>
        <time>2022-02-02T13:56:53Z</time>
      </trkpt>
      <trkpt lat="49.25717" lon="-1.38954">
        <ele>13.5</ele>
        <time>2022-02-02T13:56:58Z</time>
      </trkpt>
      <trkpt lat="49.2572" lon="-1.3895">
        <ele>13.6</ele>
        <time>2022-02-02T13:57:02Z</time>
      </trkpt>
      <trkpt lat="49.25723" lon="-1.38945">
        <ele>13.6</ele>
        <time>2022-02-02T13:57:05Z</time>
      </trkpt>
      <trkpt lat="49.25726" lon="-1.38939">
        <ele>13.4</ele>
        <time>2022-02-02T13:57:09Z</time>
      </trkpt>
      <trkpt lat="49.25729" lon="-1.38934">
        <ele>12.8</ele>
        <time>2022-02-02T13:57:14Z</time>
      </trkpt>
      <trkpt lat="49.25733" lon="-1.38929">
        <ele>12.6</ele>
        <time>2022-02-02T13:57:27Z</time>
      </trkpt>
      <trkpt lat="49.25738" lon="-1.38925">
        <ele>12.9</ele>
        <time>2022-02-02T13:57:32Z</time>
      </trkpt>
      <trkpt lat="49.25742" lon="-1.38918">
        <ele>12.9</ele>
        <time>2022-02-02T13:57:42Z</time>
      </trkpt>
      <trkpt lat="49.25746" lon="-1.38914">
        <ele>12.7</ele>
        <time>2022-02-02T13:57:46Z</time>
      </trkpt>
      <trkpt lat="49.25749" lon="-1.3891">
        <ele>12.6</ele>
        <time>2022-02-02T13:57:49Z</time>
      </trkpt>
      <trkpt lat="49.25754" lon="-1.38904">
        <ele>12.8</ele>
        <time>2022-02-02T13:57:53Z</time>
      </trkpt>
      <trkpt lat="49.25759" lon="-1.38898">
        <ele>13</ele>
        <time>2022-02-02T13:57:58Z</time>
      </trkpt>
      <trkpt lat="49.25762" lon="-1.38893">
        <ele>12.9</ele>
        <time>2022-02-02T13:58:02Z</time>
      </trkpt>
      <trkpt lat="49.25766" lon="-1.38888">
        <ele>12.9</ele>
        <time>2022-02-02T13:58:06Z</time>
      </trkpt>
      <trkpt lat="49.2577" lon="-1.38882">
        <ele>13</ele>
        <time>2022-02-02T13:58:11Z</time>
      </trkpt>
      <trkpt lat="49.25773" lon="-1.38876">
        <ele>12.8</ele>
        <time>2022-02-02T13:58:15Z</time>
      </trkpt>
      <trkpt lat="49.25777" lon="-1.3887">
        <ele>12.3</ele>
        <time>2022-02-02T13:58:20Z</time>
      </trkpt>
      <trkpt lat="49.25781" lon="-1.38867">
        <ele>12.3</ele>
        <time>2022-02-02T13:58:23Z</time>
      </trkpt>
      <trkpt lat="49.25786" lon="-1.38861">
        <ele>12.6</ele>
        <time>2022-02-02T13:58:28Z</time>
      </trkpt>
      <trkpt lat="49.2579" lon="-1.38856">
        <ele>12.7</ele>
        <time>2022-02-02T13:58:33Z</time>
      </trkpt>
      <trkpt lat="49.25795" lon="-1.38851">
        <ele>13.1</ele>
        <time>2022-02-02T13:58:37Z</time>
      </trkpt>
      <trkpt lat="49.25798" lon="-1.38847">
        <ele>13.8</ele>
        <time>2022-02-02T13:58:42Z</time>
      </trkpt>
      <trkpt lat="49.25802" lon="-1.38842">
        <ele>13.4</ele>
        <time>2022-02-02T13:58:48Z</time>
      </trkpt>
      <trkpt lat="49.25805" lon="-1.38836">
        <ele>12.8</ele>
        <time>2022-02-02T13:58:53Z</time>
      </trkpt>
      <trkpt lat="49.25809" lon="-1.38831">
        <ele>12.5</ele>
        <time>2022-02-02T13:59:03Z</time>
      </trkpt>
      <trkpt lat="49.25813" lon="-1.38825">
        <ele>12.4</ele>
        <time>2022-02-02T13:59:08Z</time>
      </trkpt>
      <trkpt lat="49.25817" lon="-1.38822">
        <ele>13.1</ele>
        <time>2022-02-02T13:59:24Z</time>
      </trkpt>
      <trkpt lat="49.2582" lon="-1.38816">
        <ele>13.1</ele>
        <time>2022-02-02T13:59:28Z</time>
      </trkpt>
      <trkpt lat="49.25823" lon="-1.38811">
        <ele>12.8</ele>
        <time>2022-02-02T13:59:32Z</time>
      </trkpt>
      <trkpt lat="49.25826" lon="-1.38803">
        <ele>13</ele>
        <time>2022-02-02T14:00:23Z</time>
      </trkpt>
      <trkpt lat="49.2583" lon="-1.38799">
        <ele>13.1</ele>
        <time>2022-02-02T14:00:27Z</time>
      </trkpt>
      <trkpt lat="49.25834" lon="-1.38795">
        <ele>13.2</ele>
        <time>2022-02-02T14:00:31Z</time>
      </trkpt>
      <trkpt lat="49.25838" lon="-1.38791">
        <ele>13.3</ele>
        <time>2022-02-02T14:00:34Z</time>
      </trkpt>
      <trkpt lat="49.25842" lon="-1.38784">
        <ele>13.4</ele>
        <time>2022-02-02T14:00:38Z</time>
      </trkpt>
      <trkpt lat="49.25846" lon="-1.38778">
        <ele>13.8</ele>
        <time>2022-02-02T14:00:43Z</time>
      </trkpt>
      <trkpt lat="49.25852" lon="-1.38776">
        <ele>13.8</ele>
        <time>2022-02-02T14:00:48Z</time>
      </trkpt>
      <trkpt lat="49.25857" lon="-1.38779">
        <ele>13.6</ele>
        <time>2022-02-02T14:00:53Z</time>
      </trkpt>
      <trkpt lat="49.25861" lon="-1.38783">
        <ele>13.6</ele>
        <time>2022-02-02T14:00:59Z</time>
      </trkpt>
      <trkpt lat="49.25864" lon="-1.3879">
        <ele>13.4</ele>
        <time>2022-02-02T14:01:07Z</time>
      </trkpt>
      <trkpt lat="49.25868" lon="-1.38795">
        <ele>13.7</ele>
        <time>2022-02-02T14:01:11Z</time>
      </trkpt>
      <trkpt lat="49.25873" lon="-1.38799">
        <ele>13.9</ele>
        <time>2022-02-02T14:01:14Z</time>
      </trkpt>
      <trkpt lat="49.25878" lon="-1.38802">
        <ele>14.6</ele>
        <time>2022-02-02T14:01:18Z</time>
      </trkpt>
      <trkpt lat="49.25883" lon="-1.38806">
        <ele>15.1</ele>
        <time>2022-02-02T14:01:22Z</time>
      </trkpt>
      <trkpt lat="49.25886" lon="-1.3881">
        <ele>15.1</ele>
        <time>2022-02-02T14:01:25Z</time>
      </trkpt>
      <trkpt lat="49.25891" lon="-1.38815">
        <ele>14.6</ele>
        <time>2022-02-02T14:01:29Z</time>
      </trkpt>
      <trkpt lat="49.25892" lon="-1.38823">
        <ele>14</ele>
        <time>2022-02-02T14:01:34Z</time>
      </trkpt>
      <trkpt lat="49.25889" lon="-1.38828">
        <ele>14.9</ele>
        <time>2022-02-02T14:02:30Z</time>
      </trkpt>
      <trkpt lat="49.25892" lon="-1.38836">
        <ele>14.8</ele>
        <time>2022-02-02T14:02:34Z</time>
      </trkpt>
      <trkpt lat="49.25895" lon="-1.38841">
        <ele>14.7</ele>
        <time>2022-02-02T14:02:39Z</time>
      </trkpt>
      <trkpt lat="49.25898" lon="-1.38847">
        <ele>14.5</ele>
        <time>2022-02-02T14:02:42Z</time>
      </trkpt>
      <trkpt lat="49.25901" lon="-1.38852">
        <ele>14.1</ele>
        <time>2022-02-02T14:02:45Z</time>
      </trkpt>
      <trkpt lat="49.25906" lon="-1.3886">
        <ele>13.5</ele>
        <time>2022-02-02T14:02:50Z</time>
      </trkpt>
      <trkpt lat="49.25909" lon="-1.38866">
        <ele>12.7</ele>
        <time>2022-02-02T14:02:56Z</time>
      </trkpt>
      <trkpt lat="49.25911" lon="-1.38873">
        <ele>12.6</ele>
        <time>2022-02-02T14:03:00Z</time>
      </trkpt>
      <trkpt lat="49.25914" lon="-1.38879">
        <ele>12.5</ele>
        <time>2022-02-02T14:03:07Z</time>
      </trkpt>
      <trkpt lat="49.25915" lon="-1.38887">
        <ele>13.9</ele>
        <time>2022-02-02T14:03:30Z</time>
      </trkpt>
      <trkpt lat="49.25917" lon="-1.38893">
        <ele>13.9</ele>
        <time>2022-02-02T14:03:48Z</time>
      </trkpt>
      <trkpt lat="49.2592" lon="-1.389">
        <ele>13.8</ele>
        <time>2022-02-02T14:04:01Z</time>
      </trkpt>
      <trkpt lat="49.25922" lon="-1.38908">
        <ele>13.8</ele>
        <time>2022-02-02T14:04:04Z</time>
      </trkpt>
      <trkpt lat="49.25924" lon="-1.38915">
        <ele>13.8</ele>
        <time>2022-02-02T14:04:08Z</time>
      </trkpt>
      <trkpt lat="49.25926" lon="-1.38922">
        <ele>13.8</ele>
        <time>2022-02-02T14:04:12Z</time>
      </trkpt>
      <trkpt lat="49.25929" lon="-1.38929">
        <ele>13.6</ele>
        <time>2022-02-02T14:04:16Z</time>
      </trkpt>
      <trkpt lat="49.25931" lon="-1.38936">
        <ele>13.3</ele>
        <time>2022-02-02T14:04:20Z</time>
      </trkpt>
      <trkpt lat="49.25933" lon="-1.38943">
        <ele>13.3</ele>
        <time>2022-02-02T14:04:23Z</time>
      </trkpt>
      <trkpt lat="49.25936" lon="-1.3895">
        <ele>13.5</ele>
        <time>2022-02-02T14:04:27Z</time>
      </trkpt>
      <trkpt lat="49.25938" lon="-1.38958">
        <ele>13.8</ele>
        <time>2022-02-02T14:04:31Z</time>
      </trkpt>
      <trkpt lat="49.25942" lon="-1.38963">
        <ele>14.3</ele>
        <time>2022-02-02T14:04:37Z</time>
      </trkpt>
      <trkpt lat="49.25944" lon="-1.3897">
        <ele>14.4</ele>
        <time>2022-02-02T14:04:41Z</time>
      </trkpt>
      <trkpt lat="49.25947" lon="-1.38975">
        <ele>14.3</ele>
        <time>2022-02-02T14:04:45Z</time>
      </trkpt>
      <trkpt lat="49.25951" lon="-1.38982">
        <ele>14</ele>
        <time>2022-02-02T14:04:49Z</time>
      </trkpt>
      <trkpt lat="49.25953" lon="-1.38989">
        <ele>13.8</ele>
        <time>2022-02-02T14:04:52Z</time>
      </trkpt>
      <trkpt lat="49.25955" lon="-1.38997">
        <ele>13.3</ele>
        <time>2022-02-02T14:04:56Z</time>
      </trkpt>
      <trkpt lat="49.25958" lon="-1.39006">
        <ele>12.7</ele>
        <time>2022-02-02T14:05:01Z</time>
      </trkpt>
      <trkpt lat="49.25961" lon="-1.39015">
        <ele>12.4</ele>
        <time>2022-02-02T14:05:06Z</time>
      </trkpt>
      <trkpt lat="49.25963" lon="-1.39022">
        <ele>11.8</ele>
        <time>2022-02-02T14:05:10Z</time>
      </trkpt>
      <trkpt lat="49.25965" lon="-1.39029">
        <ele>11.5</ele>
        <time>2022-02-02T14:05:15Z</time>
      </trkpt>
      <trkpt lat="49.25968" lon="-1.39035">
        <ele>11.5</ele>
        <time>2022-02-02T14:05:19Z</time>
      </trkpt>
      <trkpt lat="49.25971" lon="-1.39041">
        <ele>11.4</ele>
        <time>2022-02-02T14:05:23Z</time>
      </trkpt>
      <trkpt lat="49.25974" lon="-1.39048">
        <ele>11.4</ele>
        <time>2022-02-02T14:05:27Z</time>
      </trkpt>
      <trkpt lat="49.25976" lon="-1.39056">
        <ele>11.2</ele>
        <time>2022-02-02T14:05:31Z</time>
      </trkpt>
      <trkpt lat="49.25978" lon="-1.39062">
        <ele>10.9</ele>
        <time>2022-02-02T14:05:35Z</time>
      </trkpt>
      <trkpt lat="49.2598" lon="-1.3907">
        <ele>9.7</ele>
        <time>2022-02-02T14:05:44Z</time>
      </trkpt>
      <trkpt lat="49.25983" lon="-1.39077">
        <ele>8.6</ele>
        <time>2022-02-02T14:05:48Z</time>
      </trkpt>
      <trkpt lat="49.25986" lon="-1.39085">
        <ele>8.1</ele>
        <time>2022-02-02T14:05:51Z</time>
      </trkpt>
      <trkpt lat="49.25988" lon="-1.39093">
        <ele>7.8</ele>
        <time>2022-02-02T14:05:55Z</time>
      </trkpt>
      <trkpt lat="49.25991" lon="-1.39101">
        <ele>7.8</ele>
        <time>2022-02-02T14:05:58Z</time>
      </trkpt>
      <trkpt lat="49.25994" lon="-1.39107">
        <ele>8</ele>
        <time>2022-02-02T14:06:02Z</time>
      </trkpt>
      <trkpt lat="49.25998" lon="-1.39113">
        <ele>8.1</ele>
        <time>2022-02-02T14:06:07Z</time>
      </trkpt>
      <trkpt lat="49.25999" lon="-1.39119">
        <ele>7.9</ele>
        <time>2022-02-02T14:06:11Z</time>
      </trkpt>
      <trkpt lat="49.26" lon="-1.39128">
        <ele>7.7</ele>
        <time>2022-02-02T14:06:16Z</time>
      </trkpt>
      <trkpt lat="49.26001" lon="-1.39136">
        <ele>7.7</ele>
        <time>2022-02-02T14:06:20Z</time>
      </trkpt>
      <trkpt lat="49.26003" lon="-1.39143">
        <ele>7.8</ele>
        <time>2022-02-02T14:06:25Z</time>
      </trkpt>
      <trkpt lat="49.26004" lon="-1.39152">
        <ele>7.8</ele>
        <time>2022-02-02T14:06:29Z</time>
      </trkpt>
      <trkpt lat="49.26005" lon="-1.39159">
        <ele>7.9</ele>
        <time>2022-02-02T14:06:32Z</time>
      </trkpt>
      <trkpt lat="49.26006" lon="-1.39167">
        <ele>7.9</ele>
        <time>2022-02-02T14:06:35Z</time>
      </trkpt>
      <trkpt lat="49.26007" lon="-1.39174">
        <ele>8</ele>
        <time>2022-02-02T14:06:38Z</time>
      </trkpt>
      <trkpt lat="49.2601" lon="-1.39184">
        <ele>8</ele>
        <time>2022-02-02T14:06:42Z</time>
      </trkpt>
      <trkpt lat="49.26012" lon="-1.39191">
        <ele>8.3</ele>
        <time>2022-02-02T14:06:46Z</time>
      </trkpt>
      <trkpt lat="49.26014" lon="-1.39198">
        <ele>8.2</ele>
        <time>2022-02-02T14:06:50Z</time>
      </trkpt>
      <trkpt lat="49.26016" lon="-1.39206">
        <ele>7.8</ele>
        <time>2022-02-02T14:06:54Z</time>
      </trkpt>
      <trkpt lat="49.26017" lon="-1.39213">
        <ele>7.7</ele>
        <time>2022-02-02T14:06:57Z</time>
      </trkpt>
      <trkpt lat="49.26017" lon="-1.39221">
        <ele>7.6</ele>
        <time>2022-02-02T14:07:01Z</time>
      </trkpt>
      <trkpt lat="49.26019" lon="-1.39229">
        <ele>7.5</ele>
        <time>2022-02-02T14:07:05Z</time>
      </trkpt>
      <trkpt lat="49.2602" lon="-1.39237">
        <ele>7.5</ele>
        <time>2022-02-02T14:07:09Z</time>
      </trkpt>
      <trkpt lat="49.26021" lon="-1.39245">
        <ele>7.6</ele>
        <time>2022-02-02T14:07:12Z</time>
      </trkpt>
      <trkpt lat="49.26022" lon="-1.39255">
        <ele>7.7</ele>
        <time>2022-02-02T14:07:17Z</time>
      </trkpt>
      <trkpt lat="49.26023" lon="-1.39262">
        <ele>7.6</ele>
        <time>2022-02-02T14:07:21Z</time>
      </trkpt>
      <trkpt lat="49.26023" lon="-1.3927">
        <ele>7.6</ele>
        <time>2022-02-02T14:07:25Z</time>
      </trkpt>
      <trkpt lat="49.26025" lon="-1.39278">
        <ele>7.9</ele>
        <time>2022-02-02T14:07:30Z</time>
      </trkpt>
      <trkpt lat="49.26026" lon="-1.39285">
        <ele>8</ele>
        <time>2022-02-02T14:07:33Z</time>
      </trkpt>
      <trkpt lat="49.26027" lon="-1.39292">
        <ele>8</ele>
        <time>2022-02-02T14:07:36Z</time>
      </trkpt>
      <trkpt lat="49.26029" lon="-1.39298">
        <ele>7.9</ele>
        <time>2022-02-02T14:07:41Z</time>
      </trkpt>
      <trkpt lat="49.26031" lon="-1.39306">
        <ele>8</ele>
        <time>2022-02-02T14:07:45Z</time>
      </trkpt>
      <trkpt lat="49.26031" lon="-1.39313">
        <ele>8.1</ele>
        <time>2022-02-02T14:07:48Z</time>
      </trkpt>
      <trkpt lat="49.26033" lon="-1.39319">
        <ele>8.1</ele>
        <time>2022-02-02T14:07:51Z</time>
      </trkpt>
      <trkpt lat="49.26035" lon="-1.39327">
        <ele>8.1</ele>
        <time>2022-02-02T14:07:54Z</time>
      </trkpt>
      <trkpt lat="49.26037" lon="-1.39335">
        <ele>8</ele>
        <time>2022-02-02T14:07:57Z</time>
      </trkpt>
      <trkpt lat="49.26038" lon="-1.39343">
        <ele>8</ele>
        <time>2022-02-02T14:08:01Z</time>
      </trkpt>
      <trkpt lat="49.2604" lon="-1.39351">
        <ele>8</ele>
        <time>2022-02-02T14:08:05Z</time>
      </trkpt>
      <trkpt lat="49.26041" lon="-1.39359">
        <ele>7.9</ele>
        <time>2022-02-02T14:08:08Z</time>
      </trkpt>
      <trkpt lat="49.26043" lon="-1.39367">
        <ele>7.7</ele>
        <time>2022-02-02T14:08:12Z</time>
      </trkpt>
      <trkpt lat="49.26045" lon="-1.39376">
        <ele>7.9</ele>
        <time>2022-02-02T14:08:16Z</time>
      </trkpt>
      <trkpt lat="49.26046" lon="-1.39384">
        <ele>8.2</ele>
        <time>2022-02-02T14:08:19Z</time>
      </trkpt>
      <trkpt lat="49.26047" lon="-1.39394">
        <ele>8.4</ele>
        <time>2022-02-02T14:08:22Z</time>
      </trkpt>
      <trkpt lat="49.26049" lon="-1.39403">
        <ele>8.4</ele>
        <time>2022-02-02T14:08:25Z</time>
      </trkpt>
      <trkpt lat="49.2605" lon="-1.39411">
        <ele>8.4</ele>
        <time>2022-02-02T14:08:28Z</time>
      </trkpt>
      <trkpt lat="49.26052" lon="-1.39417">
        <ele>8.4</ele>
        <time>2022-02-02T14:08:32Z</time>
      </trkpt>
      <trkpt lat="49.26053" lon="-1.39425">
        <ele>8.4</ele>
        <time>2022-02-02T14:08:36Z</time>
      </trkpt>
      <trkpt lat="49.26055" lon="-1.39432">
        <ele>8.3</ele>
        <time>2022-02-02T14:08:40Z</time>
      </trkpt>
      <trkpt lat="49.26057" lon="-1.39438">
        <ele>8.1</ele>
        <time>2022-02-02T14:08:43Z</time>
      </trkpt>
      <trkpt lat="49.26059" lon="-1.39446">
        <ele>7.8</ele>
        <time>2022-02-02T14:08:47Z</time>
      </trkpt>
      <trkpt lat="49.2606" lon="-1.39453">
        <ele>7.7</ele>
        <time>2022-02-02T14:08:51Z</time>
      </trkpt>
      <trkpt lat="49.26062" lon="-1.3946">
        <ele>7.6</ele>
        <time>2022-02-02T14:08:54Z</time>
      </trkpt>
      <trkpt lat="49.26064" lon="-1.39468">
        <ele>7.6</ele>
        <time>2022-02-02T14:08:58Z</time>
      </trkpt>
      <trkpt lat="49.26066" lon="-1.39476">
        <ele>7.6</ele>
        <time>2022-02-02T14:09:02Z</time>
      </trkpt>
      <trkpt lat="49.26068" lon="-1.39484">
        <ele>7.6</ele>
        <time>2022-02-02T14:09:06Z</time>
      </trkpt>
      <trkpt lat="49.2607" lon="-1.39491">
        <ele>7.7</ele>
        <time>2022-02-02T14:09:09Z</time>
      </trkpt>
      <trkpt lat="49.26072" lon="-1.39498">
        <ele>7.9</ele>
        <time>2022-02-02T14:09:12Z</time>
      </trkpt>
      <trkpt lat="49.26075" lon="-1.39505">
        <ele>8.3</ele>
        <time>2022-02-02T14:09:16Z</time>
      </trkpt>
      <trkpt lat="49.26077" lon="-1.39513">
        <ele>8.6</ele>
        <time>2022-02-02T14:09:19Z</time>
      </trkpt>
      <trkpt lat="49.26078" lon="-1.39521">
        <ele>8.5</ele>
        <time>2022-02-02T14:09:22Z</time>
      </trkpt>
      <trkpt lat="49.26082" lon="-1.39524">
        <ele>8</ele>
        <time>2022-02-02T14:09:33Z</time>
      </trkpt>
      <trkpt lat="49.26085" lon="-1.39531">
        <ele>7.7</ele>
        <time>2022-02-02T14:09:37Z</time>
      </trkpt>
      <trkpt lat="49.26088" lon="-1.39538">
        <ele>7.6</ele>
        <time>2022-02-02T14:09:40Z</time>
      </trkpt>
      <trkpt lat="49.26089" lon="-1.39545">
        <ele>7.3</ele>
        <time>2022-02-02T14:09:42Z</time>
      </trkpt>
      <trkpt lat="49.26091" lon="-1.39553">
        <ele>6.9</ele>
        <time>2022-02-02T14:09:46Z</time>
      </trkpt>
      <trkpt lat="49.26094" lon="-1.39558">
        <ele>7.6</ele>
        <time>2022-02-02T14:09:53Z</time>
      </trkpt>
      <trkpt lat="49.26096" lon="-1.39565">
        <ele>8</ele>
        <time>2022-02-02T14:09:57Z</time>
      </trkpt>
      <trkpt lat="49.26097" lon="-1.39572">
        <ele>7.9</ele>
        <time>2022-02-02T14:10:01Z</time>
      </trkpt>
      <trkpt lat="49.26098" lon="-1.39579">
        <ele>7.7</ele>
        <time>2022-02-02T14:10:05Z</time>
      </trkpt>
      <trkpt lat="49.26099" lon="-1.39587">
        <ele>7.6</ele>
        <time>2022-02-02T14:10:12Z</time>
      </trkpt>
      <trkpt lat="49.26102" lon="-1.39594">
        <ele>7.7</ele>
        <time>2022-02-02T14:10:15Z</time>
      </trkpt>
      <trkpt lat="49.26103" lon="-1.39603">
        <ele>7.6</ele>
        <time>2022-02-02T14:10:18Z</time>
      </trkpt>
      <trkpt lat="49.26105" lon="-1.3961">
        <ele>7.6</ele>
        <time>2022-02-02T14:10:22Z</time>
      </trkpt>
      <trkpt lat="49.26107" lon="-1.39618">
        <ele>7.8</ele>
        <time>2022-02-02T14:10:26Z</time>
      </trkpt>
      <trkpt lat="49.26111" lon="-1.39622">
        <ele>8</ele>
        <time>2022-02-02T14:10:29Z</time>
      </trkpt>
      <trkpt lat="49.26116" lon="-1.39623">
        <ele>8.3</ele>
        <time>2022-02-02T14:10:33Z</time>
      </trkpt>
      <trkpt lat="49.26118" lon="-1.39614">
        <ele>8.7</ele>
        <time>2022-02-02T14:10:37Z</time>
      </trkpt>
      <trkpt lat="49.2612" lon="-1.39607">
        <ele>9.1</ele>
        <time>2022-02-02T14:10:40Z</time>
      </trkpt>
      <trkpt lat="49.26123" lon="-1.39599">
        <ele>9.3</ele>
        <time>2022-02-02T14:10:43Z</time>
      </trkpt>
      <trkpt lat="49.26126" lon="-1.39593">
        <ele>9.8</ele>
        <time>2022-02-02T14:10:46Z</time>
      </trkpt>
      <trkpt lat="49.26128" lon="-1.39587">
        <ele>10.7</ele>
        <time>2022-02-02T14:10:50Z</time>
      </trkpt>
      <trkpt lat="49.2613" lon="-1.39578">
        <ele>11.3</ele>
        <time>2022-02-02T14:10:54Z</time>
      </trkpt>
      <trkpt lat="49.26132" lon="-1.3957">
        <ele>11.5</ele>
        <time>2022-02-02T14:10:58Z</time>
      </trkpt>
      <trkpt lat="49.26133" lon="-1.3956">
        <ele>11.9</ele>
        <time>2022-02-02T14:11:03Z</time>
      </trkpt>
      <trkpt lat="49.26134" lon="-1.39552">
        <ele>12.3</ele>
        <time>2022-02-02T14:11:08Z</time>
      </trkpt>
      <trkpt lat="49.26134" lon="-1.39542">
        <ele>12.2</ele>
        <time>2022-02-02T14:11:13Z</time>
      </trkpt>
      <trkpt lat="49.26136" lon="-1.39535">
        <ele>11.9</ele>
        <time>2022-02-02T14:11:17Z</time>
      </trkpt>
      <trkpt lat="49.26138" lon="-1.39528">
        <ele>11.5</ele>
        <time>2022-02-02T14:11:21Z</time>
      </trkpt>
      <trkpt lat="49.2614" lon="-1.39521">
        <ele>11.2</ele>
        <time>2022-02-02T14:11:25Z</time>
      </trkpt>
      <trkpt lat="49.26142" lon="-1.39514">
        <ele>10.9</ele>
        <time>2022-02-02T14:11:29Z</time>
      </trkpt>
      <trkpt lat="49.26144" lon="-1.39508">
        <ele>10.6</ele>
        <time>2022-02-02T14:11:33Z</time>
      </trkpt>
      <trkpt lat="49.26147" lon="-1.39501">
        <ele>10.2</ele>
        <time>2022-02-02T14:11:38Z</time>
      </trkpt>
      <trkpt lat="49.26148" lon="-1.39492">
        <ele>9.8</ele>
        <time>2022-02-02T14:11:43Z</time>
      </trkpt>
      <trkpt lat="49.26149" lon="-1.39484">
        <ele>9.4</ele>
        <time>2022-02-02T14:11:47Z</time>
      </trkpt>
      <trkpt lat="49.2615" lon="-1.39477">
        <ele>9</ele>
        <time>2022-02-02T14:11:50Z</time>
      </trkpt>
      <trkpt lat="49.26151" lon="-1.39469">
        <ele>8.8</ele>
        <time>2022-02-02T14:11:54Z</time>
      </trkpt>
      <trkpt lat="49.26153" lon="-1.39462">
        <ele>8.6</ele>
        <time>2022-02-02T14:11:59Z</time>
      </trkpt>
      <trkpt lat="49.26156" lon="-1.39454">
        <ele>8.5</ele>
        <time>2022-02-02T14:12:03Z</time>
      </trkpt>
      <trkpt lat="49.26157" lon="-1.39448">
        <ele>8.3</ele>
        <time>2022-02-02T14:12:07Z</time>
      </trkpt>
      <trkpt lat="49.26159" lon="-1.39439">
        <ele>8.1</ele>
        <time>2022-02-02T14:12:11Z</time>
      </trkpt>
      <trkpt lat="49.26161" lon="-1.39431">
        <ele>8</ele>
        <time>2022-02-02T14:12:15Z</time>
      </trkpt>
      <trkpt lat="49.26161" lon="-1.39424">
        <ele>7.9</ele>
        <time>2022-02-02T14:12:18Z</time>
      </trkpt>
      <trkpt lat="49.26163" lon="-1.39416">
        <ele>7.9</ele>
        <time>2022-02-02T14:12:23Z</time>
      </trkpt>
      <trkpt lat="49.26165" lon="-1.39409">
        <ele>7.8</ele>
        <time>2022-02-02T14:12:27Z</time>
      </trkpt>
      <trkpt lat="49.26167" lon="-1.39401">
        <ele>7.8</ele>
        <time>2022-02-02T14:12:31Z</time>
      </trkpt>
      <trkpt lat="49.26169" lon="-1.39394">
        <ele>7.7</ele>
        <time>2022-02-02T14:12:35Z</time>
      </trkpt>
      <trkpt lat="49.26169" lon="-1.39386">
        <ele>7.7</ele>
        <time>2022-02-02T14:12:39Z</time>
      </trkpt>
      <trkpt lat="49.26171" lon="-1.39379">
        <ele>7.7</ele>
        <time>2022-02-02T14:12:43Z</time>
      </trkpt>
      <trkpt lat="49.26173" lon="-1.39373">
        <ele>7.6</ele>
        <time>2022-02-02T14:12:47Z</time>
      </trkpt>
      <trkpt lat="49.26174" lon="-1.39365">
        <ele>7.2</ele>
        <time>2022-02-02T14:12:57Z</time>
      </trkpt>
      <trkpt lat="49.26173" lon="-1.39357">
        <ele>7.1</ele>
        <time>2022-02-02T14:13:00Z</time>
      </trkpt>
      <trkpt lat="49.26174" lon="-1.39348">
        <ele>7</ele>
        <time>2022-02-02T14:13:04Z</time>
      </trkpt>
      <trkpt lat="49.26173" lon="-1.39341">
        <ele>7.2</ele>
        <time>2022-02-02T14:13:08Z</time>
      </trkpt>
      <trkpt lat="49.26173" lon="-1.39333">
        <ele>7.4</ele>
        <time>2022-02-02T14:13:12Z</time>
      </trkpt>
      <trkpt lat="49.26172" lon="-1.39326">
        <ele>7.6</ele>
        <time>2022-02-02T14:13:15Z</time>
      </trkpt>
      <trkpt lat="49.26171" lon="-1.39319">
        <ele>8</ele>
        <time>2022-02-02T14:13:21Z</time>
      </trkpt>
      <trkpt lat="49.2617" lon="-1.39311">
        <ele>8.1</ele>
        <time>2022-02-02T14:13:26Z</time>
      </trkpt>
      <trkpt lat="49.26169" lon="-1.39303">
        <ele>8.2</ele>
        <time>2022-02-02T14:13:33Z</time>
      </trkpt>
      <trkpt lat="49.26167" lon="-1.39295">
        <ele>8.2</ele>
        <time>2022-02-02T14:13:37Z</time>
      </trkpt>
      <trkpt lat="49.26166" lon="-1.39287">
        <ele>8.3</ele>
        <time>2022-02-02T14:13:41Z</time>
      </trkpt>
      <trkpt lat="49.26164" lon="-1.39278">
        <ele>8.5</ele>
        <time>2022-02-02T14:13:45Z</time>
      </trkpt>
      <trkpt lat="49.26163" lon="-1.39271">
        <ele>8.7</ele>
        <time>2022-02-02T14:13:49Z</time>
      </trkpt>
      <trkpt lat="49.26162" lon="-1.39262">
        <ele>8.7</ele>
        <time>2022-02-02T14:13:54Z</time>
      </trkpt>
      <trkpt lat="49.26162" lon="-1.39254">
        <ele>8.5</ele>
        <time>2022-02-02T14:13:59Z</time>
      </trkpt>
      <trkpt lat="49.26161" lon="-1.39247">
        <ele>8.4</ele>
        <time>2022-02-02T14:14:02Z</time>
      </trkpt>
      <trkpt lat="49.2616" lon="-1.39239">
        <ele>8.1</ele>
        <time>2022-02-02T14:14:06Z</time>
      </trkpt>
      <trkpt lat="49.26159" lon="-1.3923">
        <ele>7.9</ele>
        <time>2022-02-02T14:14:10Z</time>
      </trkpt>
      <trkpt lat="49.26158" lon="-1.39223">
        <ele>7.4</ele>
        <time>2022-02-02T14:14:14Z</time>
      </trkpt>
      <trkpt lat="49.26158" lon="-1.39215">
        <ele>7</ele>
        <time>2022-02-02T14:14:18Z</time>
      </trkpt>
      <trkpt lat="49.26158" lon="-1.39207">
        <ele>7.1</ele>
        <time>2022-02-02T14:14:21Z</time>
      </trkpt>
      <trkpt lat="49.26158" lon="-1.39199">
        <ele>7.1</ele>
        <time>2022-02-02T14:14:25Z</time>
      </trkpt>
      <trkpt lat="49.26158" lon="-1.39191">
        <ele>6.9</ele>
        <time>2022-02-02T14:14:29Z</time>
      </trkpt>
      <trkpt lat="49.26158" lon="-1.39182">
        <ele>6.8</ele>
        <time>2022-02-02T14:14:33Z</time>
      </trkpt>
      <trkpt lat="49.26158" lon="-1.39174">
        <ele>6.9</ele>
        <time>2022-02-02T14:14:37Z</time>
      </trkpt>
      <trkpt lat="49.26159" lon="-1.39166">
        <ele>6.6</ele>
        <time>2022-02-02T14:14:41Z</time>
      </trkpt>
      <trkpt lat="49.26159" lon="-1.39157">
        <ele>6.3</ele>
        <time>2022-02-02T14:14:46Z</time>
      </trkpt>
      <trkpt lat="49.2616" lon="-1.3915">
        <ele>6.3</ele>
        <time>2022-02-02T14:14:50Z</time>
      </trkpt>
      <trkpt lat="49.2616" lon="-1.39141">
        <ele>6.6</ele>
        <time>2022-02-02T14:14:55Z</time>
      </trkpt>
      <trkpt lat="49.2616" lon="-1.39133">
        <ele>6.7</ele>
        <time>2022-02-02T14:14:59Z</time>
      </trkpt>
      <trkpt lat="49.2616" lon="-1.39124">
        <ele>6.8</ele>
        <time>2022-02-02T14:15:03Z</time>
      </trkpt>
      <trkpt lat="49.2616" lon="-1.39117">
        <ele>7.2</ele>
        <time>2022-02-02T14:15:06Z</time>
      </trkpt>
      <trkpt lat="49.2616" lon="-1.3911">
        <ele>7.2</ele>
        <time>2022-02-02T14:15:10Z</time>
      </trkpt>
      <trkpt lat="49.2616" lon="-1.39102">
        <ele>7.2</ele>
        <time>2022-02-02T14:15:14Z</time>
      </trkpt>
      <trkpt lat="49.2616" lon="-1.39093">
        <ele>7.6</ele>
        <time>2022-02-02T14:15:18Z</time>
      </trkpt>
      <trkpt lat="49.26159" lon="-1.39086">
        <ele>7.7</ele>
        <time>2022-02-02T14:15:22Z</time>
      </trkpt>
      <trkpt lat="49.2616" lon="-1.39078">
        <ele>7.2</ele>
        <time>2022-02-02T14:15:26Z</time>
      </trkpt>
      <trkpt lat="49.26161" lon="-1.3907">
        <ele>6.9</ele>
        <time>2022-02-02T14:15:30Z</time>
      </trkpt>
      <trkpt lat="49.26161" lon="-1.39062">
        <ele>6.6</ele>
        <time>2022-02-02T14:15:34Z</time>
      </trkpt>
      <trkpt lat="49.26161" lon="-1.39055">
        <ele>6.5</ele>
        <time>2022-02-02T14:15:38Z</time>
      </trkpt>
      <trkpt lat="49.26161" lon="-1.39047">
        <ele>6.5</ele>
        <time>2022-02-02T14:15:42Z</time>
      </trkpt>
      <trkpt lat="49.26161" lon="-1.39038">
        <ele>6.3</ele>
        <time>2022-02-02T14:15:46Z</time>
      </trkpt>
      <trkpt lat="49.26161" lon="-1.39029">
        <ele>6.2</ele>
        <time>2022-02-02T14:15:51Z</time>
      </trkpt>
      <trkpt lat="49.26161" lon="-1.39021">
        <ele>6.2</ele>
        <time>2022-02-02T14:15:55Z</time>
      </trkpt>
      <trkpt lat="49.26161" lon="-1.39013">
        <ele>6.2</ele>
        <time>2022-02-02T14:15:59Z</time>
      </trkpt>
      <trkpt lat="49.26161" lon="-1.39004">
        <ele>6.3</ele>
        <time>2022-02-02T14:16:03Z</time>
      </trkpt>
      <trkpt lat="49.26161" lon="-1.38997">
        <ele>6.4</ele>
        <time>2022-02-02T14:16:06Z</time>
      </trkpt>
      <trkpt lat="49.2616" lon="-1.3899">
        <ele>6.3</ele>
        <time>2022-02-02T14:16:10Z</time>
      </trkpt>
      <trkpt lat="49.2616" lon="-1.38982">
        <ele>6.5</ele>
        <time>2022-02-02T14:16:14Z</time>
      </trkpt>
      <trkpt lat="49.2616" lon="-1.38974">
        <ele>6.8</ele>
        <time>2022-02-02T14:16:18Z</time>
      </trkpt>
      <trkpt lat="49.26161" lon="-1.38966">
        <ele>7</ele>
        <time>2022-02-02T14:16:22Z</time>
      </trkpt>
      <trkpt lat="49.26162" lon="-1.38958">
        <ele>7.3</ele>
        <time>2022-02-02T14:16:26Z</time>
      </trkpt>
      <trkpt lat="49.26163" lon="-1.38949">
        <ele>8.6</ele>
        <time>2022-02-02T14:16:31Z</time>
      </trkpt>
      <trkpt lat="49.26163" lon="-1.38942">
        <ele>9.2</ele>
        <time>2022-02-02T14:16:35Z</time>
      </trkpt>
      <trkpt lat="49.26164" lon="-1.38934">
        <ele>9.1</ele>
        <time>2022-02-02T14:16:39Z</time>
      </trkpt>
      <trkpt lat="49.26165" lon="-1.38926">
        <ele>8.8</ele>
        <time>2022-02-02T14:16:43Z</time>
      </trkpt>
      <trkpt lat="49.26165" lon="-1.38919">
        <ele>8.5</ele>
        <time>2022-02-02T14:16:47Z</time>
      </trkpt>
      <trkpt lat="49.26166" lon="-1.38911">
        <ele>8.1</ele>
        <time>2022-02-02T14:16:52Z</time>
      </trkpt>
      <trkpt lat="49.26167" lon="-1.38904">
        <ele>7.9</ele>
        <time>2022-02-02T14:16:56Z</time>
      </trkpt>
      <trkpt lat="49.26169" lon="-1.38896">
        <ele>8.1</ele>
        <time>2022-02-02T14:17:00Z</time>
      </trkpt>
      <trkpt lat="49.26171" lon="-1.38888">
        <ele>8.5</ele>
        <time>2022-02-02T14:17:04Z</time>
      </trkpt>
      <trkpt lat="49.26173" lon="-1.38881">
        <ele>8.8</ele>
        <time>2022-02-02T14:17:08Z</time>
      </trkpt>
      <trkpt lat="49.26175" lon="-1.38873">
        <ele>9.1</ele>
        <time>2022-02-02T14:17:12Z</time>
      </trkpt>
      <trkpt lat="49.26176" lon="-1.38865">
        <ele>9.3</ele>
        <time>2022-02-02T14:17:16Z</time>
      </trkpt>
      <trkpt lat="49.26178" lon="-1.38858">
        <ele>9.4</ele>
        <time>2022-02-02T14:17:20Z</time>
      </trkpt>
      <trkpt lat="49.2618" lon="-1.38851">
        <ele>9.5</ele>
        <time>2022-02-02T14:17:24Z</time>
      </trkpt>
      <trkpt lat="49.26182" lon="-1.38844">
        <ele>9.7</ele>
        <time>2022-02-02T14:17:28Z</time>
      </trkpt>
      <trkpt lat="49.26184" lon="-1.38837">
        <ele>10.1</ele>
        <time>2022-02-02T14:17:32Z</time>
      </trkpt>
      <trkpt lat="49.26187" lon="-1.3883">
        <ele>10.4</ele>
        <time>2022-02-02T14:17:36Z</time>
      </trkpt>
      <trkpt lat="49.2619" lon="-1.38824">
        <ele>10.4</ele>
        <time>2022-02-02T14:17:41Z</time>
      </trkpt>
      <trkpt lat="49.26192" lon="-1.38816">
        <ele>10.9</ele>
        <time>2022-02-02T14:17:48Z</time>
      </trkpt>
      <trkpt lat="49.26195" lon="-1.3881">
        <ele>11.1</ele>
        <time>2022-02-02T14:17:54Z</time>
      </trkpt>
      <trkpt lat="49.26197" lon="-1.38804">
        <ele>11.1</ele>
        <time>2022-02-02T14:17:58Z</time>
      </trkpt>
      <trkpt lat="49.26201" lon="-1.38797">
        <ele>10.9</ele>
        <time>2022-02-02T14:18:03Z</time>
      </trkpt>
      <trkpt lat="49.26205" lon="-1.3879">
        <ele>10.8</ele>
        <time>2022-02-02T14:18:07Z</time>
      </trkpt>
      <trkpt lat="49.26207" lon="-1.38783">
        <ele>10.8</ele>
        <time>2022-02-02T14:18:11Z</time>
      </trkpt>
      <trkpt lat="49.26209" lon="-1.38775">
        <ele>11</ele>
        <time>2022-02-02T14:18:15Z</time>
      </trkpt>
      <trkpt lat="49.26211" lon="-1.38768">
        <ele>10.9</ele>
        <time>2022-02-02T14:18:19Z</time>
      </trkpt>
      <trkpt lat="49.26214" lon="-1.38762">
        <ele>10.6</ele>
        <time>2022-02-02T14:18:22Z</time>
      </trkpt>
      <trkpt lat="49.26217" lon="-1.38756">
        <ele>10.3</ele>
        <time>2022-02-02T14:18:25Z</time>
      </trkpt>
      <trkpt lat="49.2622" lon="-1.3875">
        <ele>9.9</ele>
        <time>2022-02-02T14:18:29Z</time>
      </trkpt>
      <trkpt lat="49.26222" lon="-1.38743">
        <ele>9.8</ele>
        <time>2022-02-02T14:18:34Z</time>
      </trkpt>
      <trkpt lat="49.26224" lon="-1.38735">
        <ele>10.5</ele>
        <time>2022-02-02T14:18:44Z</time>
      </trkpt>
      <trkpt lat="49.26227" lon="-1.38728">
        <ele>10.6</ele>
        <time>2022-02-02T14:18:48Z</time>
      </trkpt>
      <trkpt lat="49.26231" lon="-1.38721">
        <ele>10.5</ele>
        <time>2022-02-02T14:18:52Z</time>
      </trkpt>
      <trkpt lat="49.26233" lon="-1.38714">
        <ele>10.4</ele>
        <time>2022-02-02T14:18:56Z</time>
      </trkpt>
      <trkpt lat="49.26235" lon="-1.38707">
        <ele>11</ele>
        <time>2022-02-02T14:19:05Z</time>
      </trkpt>
      <trkpt lat="49.26238" lon="-1.387">
        <ele>11.1</ele>
        <time>2022-02-02T14:19:09Z</time>
      </trkpt>
      <trkpt lat="49.26241" lon="-1.38692">
        <ele>11.1</ele>
        <time>2022-02-02T14:19:13Z</time>
      </trkpt>
      <trkpt lat="49.26243" lon="-1.38683">
        <ele>10.9</ele>
        <time>2022-02-02T14:19:16Z</time>
      </trkpt>
      <trkpt lat="49.26245" lon="-1.38675">
        <ele>10.6</ele>
        <time>2022-02-02T14:19:19Z</time>
      </trkpt>
      <trkpt lat="49.26248" lon="-1.3867">
        <ele>10.5</ele>
        <time>2022-02-02T14:19:23Z</time>
      </trkpt>
      <trkpt lat="49.26251" lon="-1.38663">
        <ele>10.3</ele>
        <time>2022-02-02T14:19:27Z</time>
      </trkpt>
      <trkpt lat="49.26253" lon="-1.38657">
        <ele>10</ele>
        <time>2022-02-02T14:19:31Z</time>
      </trkpt>
      <trkpt lat="49.26255" lon="-1.38649">
        <ele>9.9</ele>
        <time>2022-02-02T14:19:36Z</time>
      </trkpt>
      <trkpt lat="49.26258" lon="-1.38641">
        <ele>9.8</ele>
        <time>2022-02-02T14:19:40Z</time>
      </trkpt>
      <trkpt lat="49.26261" lon="-1.38633">
        <ele>9.8</ele>
        <time>2022-02-02T14:19:44Z</time>
      </trkpt>
      <trkpt lat="49.26264" lon="-1.38625">
        <ele>10</ele>
        <time>2022-02-02T14:19:48Z</time>
      </trkpt>
      <trkpt lat="49.26266" lon="-1.38619">
        <ele>10</ele>
        <time>2022-02-02T14:19:52Z</time>
      </trkpt>
      <trkpt lat="49.26268" lon="-1.38613">
        <ele>10</ele>
        <time>2022-02-02T14:19:56Z</time>
      </trkpt>
      <trkpt lat="49.2627" lon="-1.38605">
        <ele>10</ele>
        <time>2022-02-02T14:20:00Z</time>
      </trkpt>
      <trkpt lat="49.26271" lon="-1.38597">
        <ele>10.1</ele>
        <time>2022-02-02T14:20:05Z</time>
      </trkpt>
      <trkpt lat="49.26273" lon="-1.3859">
        <ele>10.1</ele>
        <time>2022-02-02T14:20:10Z</time>
      </trkpt>
      <trkpt lat="49.26275" lon="-1.38583">
        <ele>10.2</ele>
        <time>2022-02-02T14:20:14Z</time>
      </trkpt>
      <trkpt lat="49.26278" lon="-1.38575">
        <ele>10.2</ele>
        <time>2022-02-02T14:20:18Z</time>
      </trkpt>
      <trkpt lat="49.2628" lon="-1.38568">
        <ele>10.5</ele>
        <time>2022-02-02T14:20:21Z</time>
      </trkpt>
      <trkpt lat="49.26283" lon="-1.38562">
        <ele>10.8</ele>
        <time>2022-02-02T14:20:24Z</time>
      </trkpt>
      <trkpt lat="49.26285" lon="-1.38554">
        <ele>10.9</ele>
        <time>2022-02-02T14:20:28Z</time>
      </trkpt>
      <trkpt lat="49.26287" lon="-1.38547">
        <ele>10.9</ele>
        <time>2022-02-02T14:20:32Z</time>
      </trkpt>
      <trkpt lat="49.26289" lon="-1.38539">
        <ele>11.2</ele>
        <time>2022-02-02T14:20:36Z</time>
      </trkpt>
      <trkpt lat="49.26291" lon="-1.38532">
        <ele>12</ele>
        <time>2022-02-02T14:20:41Z</time>
      </trkpt>
      <trkpt lat="49.26294" lon="-1.38525">
        <ele>12.3</ele>
        <time>2022-02-02T14:20:48Z</time>
      </trkpt>
      <trkpt lat="49.26295" lon="-1.38516">
        <ele>12.2</ele>
        <time>2022-02-02T14:20:52Z</time>
      </trkpt>
      <trkpt lat="49.26296" lon="-1.38509">
        <ele>11.9</ele>
        <time>2022-02-02T14:20:56Z</time>
      </trkpt>
      <trkpt lat="49.26298" lon="-1.38503">
        <ele>11.3</ele>
        <time>2022-02-02T14:21:03Z</time>
      </trkpt>
      <trkpt lat="49.26298" lon="-1.38494">
        <ele>14.4</ele>
        <time>2022-02-02T14:21:21Z</time>
      </trkpt>
      <trkpt lat="49.26301" lon="-1.38487">
        <ele>14.6</ele>
        <time>2022-02-02T14:21:24Z</time>
      </trkpt>
      <trkpt lat="49.26303" lon="-1.38479">
        <ele>15.1</ele>
        <time>2022-02-02T14:21:28Z</time>
      </trkpt>
      <trkpt lat="49.26305" lon="-1.38473">
        <ele>15.2</ele>
        <time>2022-02-02T14:21:31Z</time>
      </trkpt>
      <trkpt lat="49.26306" lon="-1.38465">
        <ele>14.4</ele>
        <time>2022-02-02T14:21:38Z</time>
      </trkpt>
      <trkpt lat="49.26306" lon="-1.38458">
        <ele>14.2</ele>
        <time>2022-02-02T14:21:42Z</time>
      </trkpt>
      <trkpt lat="49.26308" lon="-1.3845">
        <ele>14</ele>
        <time>2022-02-02T14:21:46Z</time>
      </trkpt>
      <trkpt lat="49.26309" lon="-1.38443">
        <ele>13.7</ele>
        <time>2022-02-02T14:21:51Z</time>
      </trkpt>
      <trkpt lat="49.2631" lon="-1.38436">
        <ele>13.5</ele>
        <time>2022-02-02T14:21:55Z</time>
      </trkpt>
      <trkpt lat="49.26311" lon="-1.38427">
        <ele>13.3</ele>
        <time>2022-02-02T14:22:01Z</time>
      </trkpt>
      <trkpt lat="49.26311" lon="-1.3842">
        <ele>13.7</ele>
        <time>2022-02-02T14:22:17Z</time>
      </trkpt>
      <trkpt lat="49.26313" lon="-1.38413">
        <ele>13.8</ele>
        <time>2022-02-02T14:22:23Z</time>
      </trkpt>
      <trkpt lat="49.26314" lon="-1.38406">
        <ele>13.7</ele>
        <time>2022-02-02T14:22:26Z</time>
      </trkpt>
      <trkpt lat="49.26314" lon="-1.38398">
        <ele>13.4</ele>
        <time>2022-02-02T14:22:30Z</time>
      </trkpt>
      <trkpt lat="49.26314" lon="-1.3839">
        <ele>13.5</ele>
        <time>2022-02-02T14:22:35Z</time>
      </trkpt>
      <trkpt lat="49.26316" lon="-1.38384">
        <ele>13.7</ele>
        <time>2022-02-02T14:22:40Z</time>
      </trkpt>
      <trkpt lat="49.26318" lon="-1.38378">
        <ele>13.1</ele>
        <time>2022-02-02T14:22:56Z</time>
      </trkpt>
      <trkpt lat="49.26317" lon="-1.3837">
        <ele>12.9</ele>
        <time>2022-02-02T14:23:46Z</time>
      </trkpt>
      <trkpt lat="49.26317" lon="-1.38362">
        <ele>12.7</ele>
        <time>2022-02-02T14:23:50Z</time>
      </trkpt>
      <trkpt lat="49.26318" lon="-1.38353">
        <ele>12.5</ele>
        <time>2022-02-02T14:23:55Z</time>
      </trkpt>
      <trkpt lat="49.26318" lon="-1.38345">
        <ele>12.5</ele>
        <time>2022-02-02T14:24:00Z</time>
      </trkpt>
      <trkpt lat="49.26319" lon="-1.38337">
        <ele>12.4</ele>
        <time>2022-02-02T14:24:04Z</time>
      </trkpt>
      <trkpt lat="49.26319" lon="-1.3833">
        <ele>12.1</ele>
        <time>2022-02-02T14:24:08Z</time>
      </trkpt>
      <trkpt lat="49.26319" lon="-1.38322">
        <ele>11.9</ele>
        <time>2022-02-02T14:24:12Z</time>
      </trkpt>
      <trkpt lat="49.26319" lon="-1.38314">
        <ele>12</ele>
        <time>2022-02-02T14:24:17Z</time>
      </trkpt>
      <trkpt lat="49.26319" lon="-1.38306">
        <ele>12.1</ele>
        <time>2022-02-02T14:24:21Z</time>
      </trkpt>
      <trkpt lat="49.26319" lon="-1.38298">
        <ele>12.4</ele>
        <time>2022-02-02T14:24:25Z</time>
      </trkpt>
      <trkpt lat="49.26318" lon="-1.3829">
        <ele>12.6</ele>
        <time>2022-02-02T14:24:30Z</time>
      </trkpt>
      <trkpt lat="49.26319" lon="-1.38281">
        <ele>11.8</ele>
        <time>2022-02-02T14:24:46Z</time>
      </trkpt>
      <trkpt lat="49.26318" lon="-1.38274">
        <ele>11.6</ele>
        <time>2022-02-02T14:24:48Z</time>
      </trkpt>
      <trkpt lat="49.26317" lon="-1.38266">
        <ele>11.2</ele>
        <time>2022-02-02T14:24:51Z</time>
      </trkpt>
      <trkpt lat="49.26316" lon="-1.38258">
        <ele>10.7</ele>
        <time>2022-02-02T14:24:54Z</time>
      </trkpt>
      <trkpt lat="49.26318" lon="-1.38249">
        <ele>10</ele>
        <time>2022-02-02T14:24:58Z</time>
      </trkpt>
      <trkpt lat="49.26322" lon="-1.38244">
        <ele>9.4</ele>
        <time>2022-02-02T14:25:02Z</time>
      </trkpt>
      <trkpt lat="49.26327" lon="-1.38245">
        <ele>9.1</ele>
        <time>2022-02-02T14:25:06Z</time>
      </trkpt>
      <trkpt lat="49.26332" lon="-1.38246">
        <ele>9.2</ele>
        <time>2022-02-02T14:25:10Z</time>
      </trkpt>
      <trkpt lat="49.26337" lon="-1.38248">
        <ele>9.2</ele>
        <time>2022-02-02T14:25:14Z</time>
      </trkpt>
      <trkpt lat="49.26342" lon="-1.38251">
        <ele>9.2</ele>
        <time>2022-02-02T14:25:18Z</time>
      </trkpt>
      <trkpt lat="49.26348" lon="-1.38255">
        <ele>9.2</ele>
        <time>2022-02-02T14:25:22Z</time>
      </trkpt>
      <trkpt lat="49.26353" lon="-1.38258">
        <ele>9.2</ele>
        <time>2022-02-02T14:25:26Z</time>
      </trkpt>
      <trkpt lat="49.26358" lon="-1.38261">
        <ele>9.2</ele>
        <time>2022-02-02T14:25:30Z</time>
      </trkpt>
      <trkpt lat="49.26363" lon="-1.38264">
        <ele>9.8</ele>
        <time>2022-02-02T14:25:34Z</time>
      </trkpt>
      <trkpt lat="49.26368" lon="-1.38267">
        <ele>10.1</ele>
        <time>2022-02-02T14:25:38Z</time>
      </trkpt>
      <trkpt lat="49.26372" lon="-1.3827">
        <ele>10.2</ele>
        <time>2022-02-02T14:25:41Z</time>
      </trkpt>
      <trkpt lat="49.26377" lon="-1.38273">
        <ele>10.4</ele>
        <time>2022-02-02T14:25:45Z</time>
      </trkpt>
      <trkpt lat="49.26381" lon="-1.38276">
        <ele>10.5</ele>
        <time>2022-02-02T14:25:48Z</time>
      </trkpt>
      <trkpt lat="49.26386" lon="-1.3828">
        <ele>10.6</ele>
        <time>2022-02-02T14:25:52Z</time>
      </trkpt>
      <trkpt lat="49.2639" lon="-1.38284">
        <ele>10.9</ele>
        <time>2022-02-02T14:25:56Z</time>
      </trkpt>
      <trkpt lat="49.26395" lon="-1.38288">
        <ele>11.1</ele>
        <time>2022-02-02T14:26:00Z</time>
      </trkpt>
      <trkpt lat="49.264" lon="-1.38292">
        <ele>11</ele>
        <time>2022-02-02T14:26:04Z</time>
      </trkpt>
      <trkpt lat="49.26405" lon="-1.38296">
        <ele>10.7</ele>
        <time>2022-02-02T14:26:08Z</time>
      </trkpt>
      <trkpt lat="49.26409" lon="-1.38301">
        <ele>10.3</ele>
        <time>2022-02-02T14:26:13Z</time>
      </trkpt>
      <trkpt lat="49.26413" lon="-1.38306">
        <ele>10.2</ele>
        <time>2022-02-02T14:26:17Z</time>
      </trkpt>
      <trkpt lat="49.26417" lon="-1.38309">
        <ele>10.5</ele>
        <time>2022-02-02T14:26:21Z</time>
      </trkpt>
      <trkpt lat="49.26421" lon="-1.38313">
        <ele>10.7</ele>
        <time>2022-02-02T14:26:25Z</time>
      </trkpt>
      <trkpt lat="49.26426" lon="-1.38317">
        <ele>10.6</ele>
        <time>2022-02-02T14:26:29Z</time>
      </trkpt>
      <trkpt lat="49.2643" lon="-1.38323">
        <ele>10.5</ele>
        <time>2022-02-02T14:26:33Z</time>
      </trkpt>
      <trkpt lat="49.26434" lon="-1.38328">
        <ele>10.9</ele>
        <time>2022-02-02T14:26:37Z</time>
      </trkpt>
      <trkpt lat="49.26436" lon="-1.38334">
        <ele>11</ele>
        <time>2022-02-02T14:26:42Z</time>
      </trkpt>
      <trkpt lat="49.2644" lon="-1.38339">
        <ele>10.5</ele>
        <time>2022-02-02T14:26:47Z</time>
      </trkpt>
      <trkpt lat="49.26444" lon="-1.38343">
        <ele>10.3</ele>
        <time>2022-02-02T14:26:51Z</time>
      </trkpt>
      <trkpt lat="49.26448" lon="-1.38346">
        <ele>9.8</ele>
        <time>2022-02-02T14:26:55Z</time>
      </trkpt>
      <trkpt lat="49.26452" lon="-1.3835">
        <ele>10</ele>
        <time>2022-02-02T14:26:59Z</time>
      </trkpt>
      <trkpt lat="49.26456" lon="-1.38354">
        <ele>10.8</ele>
        <time>2022-02-02T14:27:08Z</time>
      </trkpt>
      <trkpt lat="49.26461" lon="-1.38357">
        <ele>10.6</ele>
        <time>2022-02-02T14:27:12Z</time>
      </trkpt>
      <trkpt lat="49.26466" lon="-1.38361">
        <ele>10.7</ele>
        <time>2022-02-02T14:27:16Z</time>
      </trkpt>
      <trkpt lat="49.26471" lon="-1.38365">
        <ele>10.9</ele>
        <time>2022-02-02T14:27:19Z</time>
      </trkpt>
      <trkpt lat="49.26476" lon="-1.38371">
        <ele>11.2</ele>
        <time>2022-02-02T14:27:24Z</time>
      </trkpt>
      <trkpt lat="49.26481" lon="-1.38375">
        <ele>11.3</ele>
        <time>2022-02-02T14:27:29Z</time>
      </trkpt>
      <trkpt lat="49.26486" lon="-1.38379">
        <ele>11.6</ele>
        <time>2022-02-02T14:27:34Z</time>
      </trkpt>
      <trkpt lat="49.2649" lon="-1.38383">
        <ele>11.6</ele>
        <time>2022-02-02T14:27:39Z</time>
      </trkpt>
      <trkpt lat="49.26494" lon="-1.38385">
        <ele>11.2</ele>
        <time>2022-02-02T14:27:43Z</time>
      </trkpt>
      <trkpt lat="49.26499" lon="-1.38388">
        <ele>11</ele>
        <time>2022-02-02T14:27:47Z</time>
      </trkpt>
      <trkpt lat="49.26504" lon="-1.38391">
        <ele>11.5</ele>
        <time>2022-02-02T14:27:51Z</time>
      </trkpt>
      <trkpt lat="49.2651" lon="-1.38395">
        <ele>11.7</ele>
        <time>2022-02-02T14:27:55Z</time>
      </trkpt>
      <trkpt lat="49.26515" lon="-1.38398">
        <ele>11.7</ele>
        <time>2022-02-02T14:27:59Z</time>
      </trkpt>
      <trkpt lat="49.26519" lon="-1.38401">
        <ele>12.2</ele>
        <time>2022-02-02T14:28:02Z</time>
      </trkpt>
      <trkpt lat="49.26524" lon="-1.38404">
        <ele>12.8</ele>
        <time>2022-02-02T14:28:08Z</time>
      </trkpt>
      <trkpt lat="49.2653" lon="-1.38408">
        <ele>12.5</ele>
        <time>2022-02-02T14:28:12Z</time>
      </trkpt>
      <trkpt lat="49.26534" lon="-1.38411">
        <ele>12.1</ele>
        <time>2022-02-02T14:28:15Z</time>
      </trkpt>
      <trkpt lat="49.26538" lon="-1.38414">
        <ele>11.9</ele>
        <time>2022-02-02T14:28:20Z</time>
      </trkpt>
      <trkpt lat="49.26543" lon="-1.38417">
        <ele>12.3</ele>
        <time>2022-02-02T14:28:24Z</time>
      </trkpt>
      <trkpt lat="49.26548" lon="-1.38419">
        <ele>12.7</ele>
        <time>2022-02-02T14:28:28Z</time>
      </trkpt>
      <trkpt lat="49.26553" lon="-1.38421">
        <ele>12.5</ele>
        <time>2022-02-02T14:28:32Z</time>
      </trkpt>
      <trkpt lat="49.26558" lon="-1.38424">
        <ele>11.7</ele>
        <time>2022-02-02T14:28:36Z</time>
      </trkpt>
      <trkpt lat="49.26563" lon="-1.38427">
        <ele>11.4</ele>
        <time>2022-02-02T14:28:39Z</time>
      </trkpt>
      <trkpt lat="49.26568" lon="-1.38429">
        <ele>11.3</ele>
        <time>2022-02-02T14:28:42Z</time>
      </trkpt>
      <trkpt lat="49.26573" lon="-1.38431">
        <ele>11.2</ele>
        <time>2022-02-02T14:28:45Z</time>
      </trkpt>
      <trkpt lat="49.26577" lon="-1.38434">
        <ele>10.9</ele>
        <time>2022-02-02T14:28:49Z</time>
      </trkpt>
      <trkpt lat="49.26582" lon="-1.38435">
        <ele>10.5</ele>
        <time>2022-02-02T14:28:53Z</time>
      </trkpt>
      <trkpt lat="49.26587" lon="-1.38437">
        <ele>10.2</ele>
        <time>2022-02-02T14:28:57Z</time>
      </trkpt>
      <trkpt lat="49.26591" lon="-1.3844">
        <ele>10</ele>
        <time>2022-02-02T14:29:01Z</time>
      </trkpt>
      <trkpt lat="49.26596" lon="-1.38443">
        <ele>9.1</ele>
        <time>2022-02-02T14:29:07Z</time>
      </trkpt>
      <trkpt lat="49.266" lon="-1.38447">
        <ele>8.1</ele>
        <time>2022-02-02T14:29:36Z</time>
      </trkpt>
      <trkpt lat="49.26596" lon="-1.38444">
        <ele>9.6</ele>
        <time>2022-02-02T14:30:05Z</time>
      </trkpt>
      <trkpt lat="49.26599" lon="-1.38451">
        <ele>8.7</ele>
        <time>2022-02-02T14:30:28Z</time>
      </trkpt>
      <trkpt lat="49.26602" lon="-1.38456">
        <ele>8.6</ele>
        <time>2022-02-02T14:30:30Z</time>
      </trkpt>
      <trkpt lat="49.26607" lon="-1.38458">
        <ele>8.6</ele>
        <time>2022-02-02T14:30:34Z</time>
      </trkpt>
      <trkpt lat="49.26611" lon="-1.38461">
        <ele>8.6</ele>
        <time>2022-02-02T14:30:38Z</time>
      </trkpt>
      <trkpt lat="49.26616" lon="-1.38464">
        <ele>8.6</ele>
        <time>2022-02-02T14:30:42Z</time>
      </trkpt>
      <trkpt lat="49.26621" lon="-1.38467">
        <ele>8.2</ele>
        <time>2022-02-02T14:30:45Z</time>
      </trkpt>
      <trkpt lat="49.26625" lon="-1.3847">
        <ele>8</ele>
        <time>2022-02-02T14:30:49Z</time>
      </trkpt>
      <trkpt lat="49.26629" lon="-1.38474">
        <ele>7.8</ele>
        <time>2022-02-02T14:30:52Z</time>
      </trkpt>
      <trkpt lat="49.26633" lon="-1.38478">
        <ele>7.9</ele>
        <time>2022-02-02T14:31:02Z</time>
      </trkpt>
      <trkpt lat="49.2664" lon="-1.38476">
        <ele>7.6</ele>
        <time>2022-02-02T14:31:06Z</time>
      </trkpt>
      <trkpt lat="49.26643" lon="-1.38473">
        <ele>7.4</ele>
        <time>2022-02-02T14:31:09Z</time>
      </trkpt>
      <trkpt lat="49.26646" lon="-1.38467">
        <ele>7.2</ele>
        <time>2022-02-02T14:31:13Z</time>
      </trkpt>
      <trkpt lat="49.26647" lon="-1.38458">
        <ele>6.8</ele>
        <time>2022-02-02T14:31:17Z</time>
      </trkpt>
      <trkpt lat="49.2665" lon="-1.38452">
        <ele>6.4</ele>
        <time>2022-02-02T14:31:20Z</time>
      </trkpt>
      <trkpt lat="49.26652" lon="-1.38445">
        <ele>6.2</ele>
        <time>2022-02-02T14:31:24Z</time>
      </trkpt>
      <trkpt lat="49.26654" lon="-1.38438">
        <ele>5.6</ele>
        <time>2022-02-02T14:31:32Z</time>
      </trkpt>
      <trkpt lat="49.26656" lon="-1.3843">
        <ele>5.4</ele>
        <time>2022-02-02T14:31:35Z</time>
      </trkpt>
      <trkpt lat="49.26659" lon="-1.38422">
        <ele>5.1</ele>
        <time>2022-02-02T14:31:38Z</time>
      </trkpt>
      <trkpt lat="49.2666" lon="-1.38414">
        <ele>4.7</ele>
        <time>2022-02-02T14:31:42Z</time>
      </trkpt>
      <trkpt lat="49.26662" lon="-1.38406">
        <ele>4.4</ele>
        <time>2022-02-02T14:31:45Z</time>
      </trkpt>
      <trkpt lat="49.26663" lon="-1.38397">
        <ele>4.2</ele>
        <time>2022-02-02T14:31:49Z</time>
      </trkpt>
      <trkpt lat="49.26665" lon="-1.3839">
        <ele>4.2</ele>
        <time>2022-02-02T14:31:53Z</time>
      </trkpt>
      <trkpt lat="49.26666" lon="-1.38382">
        <ele>3.9</ele>
        <time>2022-02-02T14:31:58Z</time>
      </trkpt>
      <trkpt lat="49.26664" lon="-1.38374">
        <ele>3.8</ele>
        <time>2022-02-02T14:32:01Z</time>
      </trkpt>
      <trkpt lat="49.26664" lon="-1.38366">
        <ele>3.7</ele>
        <time>2022-02-02T14:32:04Z</time>
      </trkpt>
      <trkpt lat="49.26664" lon="-1.38358">
        <ele>3.7</ele>
        <time>2022-02-02T14:32:07Z</time>
      </trkpt>
      <trkpt lat="49.26664" lon="-1.38347">
        <ele>4.5</ele>
        <time>2022-02-02T14:32:13Z</time>
      </trkpt>
      <trkpt lat="49.26664" lon="-1.3834">
        <ele>4.9</ele>
        <time>2022-02-02T14:32:18Z</time>
      </trkpt>
      <trkpt lat="49.26666" lon="-1.38333">
        <ele>4.7</ele>
        <time>2022-02-02T14:32:21Z</time>
      </trkpt>
      <trkpt lat="49.26669" lon="-1.38327">
        <ele>4.8</ele>
        <time>2022-02-02T14:32:24Z</time>
      </trkpt>
      <trkpt lat="49.26672" lon="-1.38322">
        <ele>4.9</ele>
        <time>2022-02-02T14:32:28Z</time>
      </trkpt>
      <trkpt lat="49.26673" lon="-1.38315">
        <ele>5</ele>
        <time>2022-02-02T14:32:32Z</time>
      </trkpt>
      <trkpt lat="49.26674" lon="-1.38307">
        <ele>4.9</ele>
        <time>2022-02-02T14:32:37Z</time>
      </trkpt>
      <trkpt lat="49.26675" lon="-1.38299">
        <ele>4.8</ele>
        <time>2022-02-02T14:32:42Z</time>
      </trkpt>
      <trkpt lat="49.26678" lon="-1.38292">
        <ele>5</ele>
        <time>2022-02-02T14:32:46Z</time>
      </trkpt>
      <trkpt lat="49.2668" lon="-1.38286">
        <ele>5.2</ele>
        <time>2022-02-02T14:32:49Z</time>
      </trkpt>
      <trkpt lat="49.26682" lon="-1.38279">
        <ele>5</ele>
        <time>2022-02-02T14:32:52Z</time>
      </trkpt>
      <trkpt lat="49.26684" lon="-1.38271">
        <ele>4.8</ele>
        <time>2022-02-02T14:32:55Z</time>
      </trkpt>
      <trkpt lat="49.26686" lon="-1.38262">
        <ele>4.7</ele>
        <time>2022-02-02T14:32:58Z</time>
      </trkpt>
      <trkpt lat="49.26687" lon="-1.38255">
        <ele>4.9</ele>
        <time>2022-02-02T14:33:02Z</time>
      </trkpt>
      <trkpt lat="49.26691" lon="-1.38249">
        <ele>5</ele>
        <time>2022-02-02T14:33:06Z</time>
      </trkpt>
      <trkpt lat="49.26694" lon="-1.38244">
        <ele>4.9</ele>
        <time>2022-02-02T14:33:10Z</time>
      </trkpt>
      <trkpt lat="49.26698" lon="-1.3824">
        <ele>4.8</ele>
        <time>2022-02-02T14:33:13Z</time>
      </trkpt>
      <trkpt lat="49.26702" lon="-1.38236">
        <ele>4.8</ele>
        <time>2022-02-02T14:33:17Z</time>
      </trkpt>
      <trkpt lat="49.26705" lon="-1.38231">
        <ele>4.7</ele>
        <time>2022-02-02T14:33:20Z</time>
      </trkpt>
      <trkpt lat="49.26708" lon="-1.38226">
        <ele>4.6</ele>
        <time>2022-02-02T14:33:23Z</time>
      </trkpt>
      <trkpt lat="49.26712" lon="-1.38221">
        <ele>4.4</ele>
        <time>2022-02-02T14:33:26Z</time>
      </trkpt>
      <trkpt lat="49.26717" lon="-1.38216">
        <ele>4.2</ele>
        <time>2022-02-02T14:33:30Z</time>
      </trkpt>
      <trkpt lat="49.26721" lon="-1.38209">
        <ele>4.1</ele>
        <time>2022-02-02T14:33:35Z</time>
      </trkpt>
      <trkpt lat="49.26726" lon="-1.38204">
        <ele>4.2</ele>
        <time>2022-02-02T14:33:39Z</time>
      </trkpt>
      <trkpt lat="49.26731" lon="-1.38198">
        <ele>4.2</ele>
        <time>2022-02-02T14:33:44Z</time>
      </trkpt>
      <trkpt lat="49.26732" lon="-1.38191">
        <ele>4.2</ele>
        <time>2022-02-02T14:33:56Z</time>
      </trkpt>
      <trkpt lat="49.26736" lon="-1.38186">
        <ele>4.3</ele>
        <time>2022-02-02T14:34:00Z</time>
      </trkpt>
      <trkpt lat="49.26739" lon="-1.38181">
        <ele>4.2</ele>
        <time>2022-02-02T14:34:03Z</time>
      </trkpt>
      <trkpt lat="49.26743" lon="-1.38174">
        <ele>4</ele>
        <time>2022-02-02T14:34:06Z</time>
      </trkpt>
      <trkpt lat="49.26745" lon="-1.38167">
        <ele>3.9</ele>
        <time>2022-02-02T14:34:10Z</time>
      </trkpt>
      <trkpt lat="49.26748" lon="-1.3816">
        <ele>3.9</ele>
        <time>2022-02-02T14:34:13Z</time>
      </trkpt>
      <trkpt lat="49.26751" lon="-1.38153">
        <ele>3.9</ele>
        <time>2022-02-02T14:34:17Z</time>
      </trkpt>
      <trkpt lat="49.26754" lon="-1.38147">
        <ele>3.7</ele>
        <time>2022-02-02T14:34:20Z</time>
      </trkpt>
      <trkpt lat="49.26756" lon="-1.38139">
        <ele>3.6</ele>
        <time>2022-02-02T14:34:24Z</time>
      </trkpt>
      <trkpt lat="49.2676" lon="-1.38134">
        <ele>3.7</ele>
        <time>2022-02-02T14:34:43Z</time>
      </trkpt>
      <trkpt lat="49.26765" lon="-1.38135">
        <ele>3.9</ele>
        <time>2022-02-02T14:34:45Z</time>
      </trkpt>
      <trkpt lat="49.2677" lon="-1.38136">
        <ele>4</ele>
        <time>2022-02-02T14:34:48Z</time>
      </trkpt>
      <trkpt lat="49.26775" lon="-1.38139">
        <ele>3.9</ele>
        <time>2022-02-02T14:34:51Z</time>
      </trkpt>
      <trkpt lat="49.2678" lon="-1.38141">
        <ele>3.7</ele>
        <time>2022-02-02T14:34:56Z</time>
      </trkpt>
      <trkpt lat="49.26779" lon="-1.38149">
        <ele>2.7</ele>
        <time>2022-02-02T14:35:07Z</time>
      </trkpt>
      <trkpt lat="49.26778" lon="-1.38156">
        <ele>2.2</ele>
        <time>2022-02-02T14:35:13Z</time>
      </trkpt>
      <trkpt lat="49.26778" lon="-1.38164">
        <ele>1.9</ele>
        <time>2022-02-02T14:35:19Z</time>
      </trkpt>
      <trkpt lat="49.26781" lon="-1.38171">
        <ele>1.7</ele>
        <time>2022-02-02T14:35:24Z</time>
      </trkpt>
      <trkpt lat="49.26778" lon="-1.38165">
        <ele>2.9</ele>
        <time>2022-02-02T14:35:55Z</time>
      </trkpt>
      <trkpt lat="49.26776" lon="-1.38158">
        <ele>2.3</ele>
        <time>2022-02-02T14:36:01Z</time>
      </trkpt>
      <trkpt lat="49.26776" lon="-1.3815">
        <ele>2.1</ele>
        <time>2022-02-02T14:36:06Z</time>
      </trkpt>
      <trkpt lat="49.26779" lon="-1.38143">
        <ele>1.9</ele>
        <time>2022-02-02T14:36:10Z</time>
      </trkpt>
      <trkpt lat="49.26785" lon="-1.38142">
        <ele>1.8</ele>
        <time>2022-02-02T14:36:15Z</time>
      </trkpt>
      <trkpt lat="49.26789" lon="-1.38145">
        <ele>1.8</ele>
        <time>2022-02-02T14:36:16Z</time>
      </trkpt>
      <trkpt lat="49.26795" lon="-1.38151">
        <ele>1.8</ele>
        <time>2022-02-02T14:36:19Z</time>
      </trkpt>
      <trkpt lat="49.26798" lon="-1.38157">
        <ele>1.8</ele>
        <time>2022-02-02T14:36:21Z</time>
      </trkpt>
      <trkpt lat="49.26801" lon="-1.38164">
        <ele>1.8</ele>
        <time>2022-02-02T14:36:24Z</time>
      </trkpt>
      <trkpt lat="49.26803" lon="-1.38173">
        <ele>1.8</ele>
        <time>2022-02-02T14:36:27Z</time>
      </trkpt>
      <trkpt lat="49.26803" lon="-1.3818">
        <ele>1.7</ele>
        <time>2022-02-02T14:36:30Z</time>
      </trkpt>
      <trkpt lat="49.26805" lon="-1.38186">
        <ele>1.7</ele>
        <time>2022-02-02T14:36:34Z</time>
      </trkpt>
      <trkpt lat="49.26808" lon="-1.38191">
        <ele>1.6</ele>
        <time>2022-02-02T14:36:38Z</time>
      </trkpt>
      <trkpt lat="49.26812" lon="-1.38196">
        <ele>1.6</ele>
        <time>2022-02-02T14:36:42Z</time>
      </trkpt>
      <trkpt lat="49.26816" lon="-1.38202">
        <ele>1.6</ele>
        <time>2022-02-02T14:36:46Z</time>
      </trkpt>
      <trkpt lat="49.26821" lon="-1.38204">
        <ele>1.6</ele>
        <time>2022-02-02T14:36:49Z</time>
      </trkpt>
      <trkpt lat="49.26826" lon="-1.38207">
        <ele>1.5</ele>
        <time>2022-02-02T14:36:52Z</time>
      </trkpt>
      <trkpt lat="49.26831" lon="-1.38211">
        <ele>1.5</ele>
        <time>2022-02-02T14:36:56Z</time>
      </trkpt>
      <trkpt lat="49.26835" lon="-1.38214">
        <ele>1.5</ele>
        <time>2022-02-02T14:37:00Z</time>
      </trkpt>
      <trkpt lat="49.2684" lon="-1.38219">
        <ele>1.5</ele>
        <time>2022-02-02T14:37:05Z</time>
      </trkpt>
      <trkpt lat="49.26844" lon="-1.38223">
        <ele>1.5</ele>
        <time>2022-02-02T14:37:08Z</time>
      </trkpt>
      <trkpt lat="49.26848" lon="-1.38228">
        <ele>1.6</ele>
        <time>2022-02-02T14:37:12Z</time>
      </trkpt>
      <trkpt lat="49.26853" lon="-1.38233">
        <ele>1.6</ele>
        <time>2022-02-02T14:37:17Z</time>
      </trkpt>
      <trkpt lat="49.26857" lon="-1.38239">
        <ele>1.6</ele>
        <time>2022-02-02T14:37:21Z</time>
      </trkpt>
      <trkpt lat="49.26861" lon="-1.38243">
        <ele>1.8</ele>
        <time>2022-02-02T14:37:25Z</time>
      </trkpt>
      <trkpt lat="49.26866" lon="-1.38247">
        <ele>1.9</ele>
        <time>2022-02-02T14:37:30Z</time>
      </trkpt>
      <trkpt lat="49.26869" lon="-1.38252">
        <ele>2</ele>
        <time>2022-02-02T14:37:35Z</time>
      </trkpt>
      <trkpt lat="49.26865" lon="-1.38256">
        <ele>2</ele>
        <time>2022-02-02T14:38:20Z</time>
      </trkpt>
      <trkpt lat="49.26866" lon="-1.38263">
        <ele>2</ele>
        <time>2022-02-02T14:38:26Z</time>
      </trkpt>
      <trkpt lat="49.26871" lon="-1.38265">
        <ele>2.2</ele>
        <time>2022-02-02T14:38:37Z</time>
      </trkpt>
      <trkpt lat="49.26874" lon="-1.3826">
        <ele>2.3</ele>
        <time>2022-02-02T14:38:43Z</time>
      </trkpt>
      <trkpt lat="49.26875" lon="-1.38253">
        <ele>2.4</ele>
        <time>2022-02-02T14:38:49Z</time>
      </trkpt>
      <trkpt lat="49.26871" lon="-1.3825">
        <ele>2.5</ele>
        <time>2022-02-02T14:38:56Z</time>
      </trkpt>
      <trkpt lat="49.26867" lon="-1.38252">
        <ele>1.8</ele>
        <time>2022-02-02T14:39:30Z</time>
      </trkpt>
      <trkpt lat="49.26868" lon="-1.38244">
        <ele>1.6</ele>
        <time>2022-02-02T14:39:48Z</time>
      </trkpt>
      <trkpt lat="49.26872" lon="-1.38242">
        <ele>1.7</ele>
        <time>2022-02-02T14:39:51Z</time>
      </trkpt>
      <trkpt lat="49.26877" lon="-1.38236">
        <ele>1.9</ele>
        <time>2022-02-02T14:39:55Z</time>
      </trkpt>
      <trkpt lat="49.2688" lon="-1.3823">
        <ele>2.1</ele>
        <time>2022-02-02T14:39:58Z</time>
      </trkpt>
      <trkpt lat="49.26886" lon="-1.38232">
        <ele>1.9</ele>
        <time>2022-02-02T14:40:08Z</time>
      </trkpt>
      <trkpt lat="49.26891" lon="-1.38232">
        <ele>2.7</ele>
        <time>2022-02-02T14:40:15Z</time>
      </trkpt>
      <trkpt lat="49.26893" lon="-1.38226">
        <ele>3</ele>
        <time>2022-02-02T14:40:22Z</time>
      </trkpt>
      <trkpt lat="49.26897" lon="-1.38222">
        <ele>2.6</ele>
        <time>2022-02-02T14:40:28Z</time>
      </trkpt>
      <trkpt lat="49.269" lon="-1.38217">
        <ele>2.4</ele>
        <time>2022-02-02T14:40:32Z</time>
      </trkpt>
      <trkpt lat="49.26903" lon="-1.38211">
        <ele>2</ele>
        <time>2022-02-02T14:40:36Z</time>
      </trkpt>
      <trkpt lat="49.26905" lon="-1.38204">
        <ele>1.3</ele>
        <time>2022-02-02T14:40:47Z</time>
      </trkpt>
      <trkpt lat="49.2691" lon="-1.38196">
        <ele>1</ele>
        <time>2022-02-02T14:40:53Z</time>
      </trkpt>
      <trkpt lat="49.26911" lon="-1.38189">
        <ele>0.9</ele>
        <time>2022-02-02T14:40:56Z</time>
      </trkpt>
      <trkpt lat="49.26912" lon="-1.38182">
        <ele>0.7</ele>
        <time>2022-02-02T14:41:00Z</time>
      </trkpt>
      <trkpt lat="49.26914" lon="-1.38175">
        <ele>0.5</ele>
        <time>2022-02-02T14:41:04Z</time>
      </trkpt>
      <trkpt lat="49.26917" lon="-1.38167">
        <ele>0.2</ele>
        <time>2022-02-02T14:41:09Z</time>
      </trkpt>
      <trkpt lat="49.26919" lon="-1.38161">
        <ele>4</ele>
        <time>2022-02-02T14:41:13Z</time>
      </trkpt>
      <trkpt lat="49.26921" lon="-1.38154">
        <ele>-0.1</ele>
        <time>2022-02-02T14:41:16Z</time>
      </trkpt>
      <trkpt lat="49.26923" lon="-1.38147">
        <ele>-0.2</ele>
        <time>2022-02-02T14:41:21Z</time>
      </trkpt>
      <trkpt lat="49.26919" lon="-1.38142">
        <ele>-0.3</ele>
        <time>2022-02-02T14:41:23Z</time>
      </trkpt>
      <trkpt lat="49.26915" lon="-1.38139">
        <ele>-0.3</ele>
        <time>2022-02-02T14:41:26Z</time>
      </trkpt>
      <trkpt lat="49.26916" lon="-1.38132">
        <ele>-0.2</ele>
        <time>2022-02-02T14:41:36Z</time>
      </trkpt>
      <trkpt lat="49.2692" lon="-1.38127">
        <ele>-0.3</ele>
        <time>2022-02-02T14:41:39Z</time>
      </trkpt>
      <trkpt lat="49.26926" lon="-1.38123">
        <ele>-0.4</ele>
        <time>2022-02-02T14:41:43Z</time>
      </trkpt>
      <trkpt lat="49.26931" lon="-1.38128">
        <ele>-0.3</ele>
        <time>2022-02-02T14:41:46Z</time>
      </trkpt>
      <trkpt lat="49.26935" lon="-1.38127">
        <ele>-0.3</ele>
        <time>2022-02-02T14:41:52Z</time>
      </trkpt>
      <trkpt lat="49.26939" lon="-1.38122">
        <ele>-0.3</ele>
        <time>2022-02-02T14:41:56Z</time>
      </trkpt>
      <trkpt lat="49.26943" lon="-1.38121">
        <ele>-0.3</ele>
        <time>2022-02-02T14:41:59Z</time>
      </trkpt>
      <trkpt lat="49.26949" lon="-1.3812">
        <ele>-0.3</ele>
        <time>2022-02-02T14:42:03Z</time>
      </trkpt>
      <trkpt lat="49.26955" lon="-1.3812">
        <ele>-0.3</ele>
        <time>2022-02-02T14:42:07Z</time>
      </trkpt>
      <trkpt lat="49.26958" lon="-1.38127">
        <ele>-0.3</ele>
        <time>2022-02-02T14:42:11Z</time>
      </trkpt>
      <trkpt lat="49.2696" lon="-1.38134">
        <ele>-0.3</ele>
        <time>2022-02-02T14:42:14Z</time>
      </trkpt>
      <trkpt lat="49.26961" lon="-1.38141">
        <ele>-0.2</ele>
        <time>2022-02-02T14:42:18Z</time>
      </trkpt>
      <trkpt lat="49.2696" lon="-1.38148">
        <ele>0.3</ele>
        <time>2022-02-02T14:42:31Z</time>
      </trkpt>
      <trkpt lat="49.26962" lon="-1.38155">
        <ele>0.3</ele>
        <time>2022-02-02T14:42:36Z</time>
      </trkpt>
      <trkpt lat="49.26965" lon="-1.38161">
        <ele>0.4</ele>
        <time>2022-02-02T14:42:38Z</time>
      </trkpt>
      <trkpt lat="49.26965" lon="-1.38169">
        <ele>0.4</ele>
        <time>2022-02-02T14:42:41Z</time>
      </trkpt>
      <trkpt lat="49.26968" lon="-1.38176">
        <ele>0.3</ele>
        <time>2022-02-02T14:42:45Z</time>
      </trkpt>
      <trkpt lat="49.26971" lon="-1.38182">
        <ele>0.3</ele>
        <time>2022-02-02T14:42:49Z</time>
      </trkpt>
      <trkpt lat="49.26973" lon="-1.3819">
        <ele>0.3</ele>
        <time>2022-02-02T14:42:54Z</time>
      </trkpt>
      <trkpt lat="49.26974" lon="-1.38199">
        <ele>0.3</ele>
        <time>2022-02-02T14:42:59Z</time>
      </trkpt>
      <trkpt lat="49.26976" lon="-1.38207">
        <ele>0.3</ele>
        <time>2022-02-02T14:43:03Z</time>
      </trkpt>
      <trkpt lat="49.26978" lon="-1.38216">
        <ele>0.4</ele>
        <time>2022-02-02T14:43:08Z</time>
      </trkpt>
      <trkpt lat="49.26978" lon="-1.38223">
        <ele>0.3</ele>
        <time>2022-02-02T14:43:12Z</time>
      </trkpt>
      <trkpt lat="49.26979" lon="-1.38231">
        <ele>0.4</ele>
        <time>2022-02-02T14:43:16Z</time>
      </trkpt>
      <trkpt lat="49.26982" lon="-1.38238">
        <ele>0.6</ele>
        <time>2022-02-02T14:43:20Z</time>
      </trkpt>
      <trkpt lat="49.26985" lon="-1.38244">
        <ele>0.8</ele>
        <time>2022-02-02T14:43:24Z</time>
      </trkpt>
      <trkpt lat="49.26986" lon="-1.38253">
        <ele>0.8</ele>
        <time>2022-02-02T14:43:28Z</time>
      </trkpt>
      <trkpt lat="49.26988" lon="-1.38261">
        <ele>0.9</ele>
        <time>2022-02-02T14:43:33Z</time>
      </trkpt>
      <trkpt lat="49.2699" lon="-1.3827">
        <ele>1</ele>
        <time>2022-02-02T14:43:38Z</time>
      </trkpt>
      <trkpt lat="49.26991" lon="-1.38278">
        <ele>0.9</ele>
        <time>2022-02-02T14:43:42Z</time>
      </trkpt>
      <trkpt lat="49.26993" lon="-1.38285">
        <ele>0.7</ele>
        <time>2022-02-02T14:43:46Z</time>
      </trkpt>
      <trkpt lat="49.26995" lon="-1.38292">
        <ele>0.6</ele>
        <time>2022-02-02T14:43:50Z</time>
      </trkpt>
      <trkpt lat="49.26996" lon="-1.38302">
        <ele>0.4</ele>
        <time>2022-02-02T14:43:55Z</time>
      </trkpt>
      <trkpt lat="49.26997" lon="-1.38309">
        <ele>0.1</ele>
        <time>2022-02-02T14:43:59Z</time>
      </trkpt>
      <trkpt lat="49.26999" lon="-1.38318">
        <ele>4</ele>
        <time>2022-02-02T14:44:05Z</time>
      </trkpt>
      <trkpt lat="49.27002" lon="-1.38324">
        <ele>-0.5</ele>
        <time>2022-02-02T14:44:08Z</time>
      </trkpt>
      <trkpt lat="49.27004" lon="-1.3833">
        <ele>-1.2</ele>
        <time>2022-02-02T14:44:12Z</time>
      </trkpt>
      <trkpt lat="49.27005" lon="-1.38339">
        <ele>-1.6</ele>
        <time>2022-02-02T14:44:17Z</time>
      </trkpt>
      <trkpt lat="49.27007" lon="-1.38347">
        <ele>-1.5</ele>
        <time>2022-02-02T14:44:21Z</time>
      </trkpt>
      <trkpt lat="49.27008" lon="-1.38356">
        <ele>-1.3</ele>
        <time>2022-02-02T14:44:25Z</time>
      </trkpt>
      <trkpt lat="49.2701" lon="-1.38363">
        <ele>-1.3</ele>
        <time>2022-02-02T14:44:28Z</time>
      </trkpt>
      <trkpt lat="49.27012" lon="-1.3837">
        <ele>-1.4</ele>
        <time>2022-02-02T14:44:32Z</time>
      </trkpt>
      <trkpt lat="49.27014" lon="-1.38377">
        <ele>-1.6</ele>
        <time>2022-02-02T14:44:37Z</time>
      </trkpt>
      <trkpt lat="49.27015" lon="-1.38384">
        <ele>-1.5</ele>
        <time>2022-02-02T14:44:40Z</time>
      </trkpt>
      <trkpt lat="49.27017" lon="-1.38393">
        <ele>-1.3</ele>
        <time>2022-02-02T14:44:44Z</time>
      </trkpt>
      <trkpt lat="49.27017" lon="-1.384">
        <ele>-1.2</ele>
        <time>2022-02-02T14:44:48Z</time>
      </trkpt>
      <trkpt lat="49.27019" lon="-1.38406">
        <ele>-1.3</ele>
        <time>2022-02-02T14:44:52Z</time>
      </trkpt>
      <trkpt lat="49.27021" lon="-1.38414">
        <ele>-1.1</ele>
        <time>2022-02-02T14:44:56Z</time>
      </trkpt>
      <trkpt lat="49.27023" lon="-1.3842">
        <ele>-1.2</ele>
        <time>2022-02-02T14:45:00Z</time>
      </trkpt>
      <trkpt lat="49.27025" lon="-1.38428">
        <ele>-1.1</ele>
        <time>2022-02-02T14:45:03Z</time>
      </trkpt>
      <trkpt lat="49.27026" lon="-1.38435">
        <ele>-1.4</ele>
        <time>2022-02-02T14:45:07Z</time>
      </trkpt>
      <trkpt lat="49.27028" lon="-1.38442">
        <ele>-1.6</ele>
        <time>2022-02-02T14:45:10Z</time>
      </trkpt>
      <trkpt lat="49.2703" lon="-1.3845">
        <ele>-1.6</ele>
        <time>2022-02-02T14:45:14Z</time>
      </trkpt>
      <trkpt lat="49.27031" lon="-1.38458">
        <ele>-1.7</ele>
        <time>2022-02-02T14:45:18Z</time>
      </trkpt>
      <trkpt lat="49.27033" lon="-1.38465">
        <ele>-1.9</ele>
        <time>2022-02-02T14:45:22Z</time>
      </trkpt>
      <trkpt lat="49.27035" lon="-1.38473">
        <ele>-2.2</ele>
        <time>2022-02-02T14:45:27Z</time>
      </trkpt>
      <trkpt lat="49.27037" lon="-1.38479">
        <ele>-2.3</ele>
        <time>2022-02-02T14:45:31Z</time>
      </trkpt>
      <trkpt lat="49.2704" lon="-1.38486">
        <ele>-2.3</ele>
        <time>2022-02-02T14:45:36Z</time>
      </trkpt>
      <trkpt lat="49.27042" lon="-1.38493">
        <ele>-2.2</ele>
        <time>2022-02-02T14:45:39Z</time>
      </trkpt>
      <trkpt lat="49.27044" lon="-1.38502">
        <ele>-1.7</ele>
        <time>2022-02-02T14:45:43Z</time>
      </trkpt>
      <trkpt lat="49.27045" lon="-1.38509">
        <ele>-1.5</ele>
        <time>2022-02-02T14:45:47Z</time>
      </trkpt>
      <trkpt lat="49.27047" lon="-1.38516">
        <ele>-1.4</ele>
        <time>2022-02-02T14:45:50Z</time>
      </trkpt>
      <trkpt lat="49.27049" lon="-1.38524">
        <ele>-2</ele>
        <time>2022-02-02T14:45:54Z</time>
      </trkpt>
      <trkpt lat="49.2705" lon="-1.38532">
        <ele>-2.4</ele>
        <time>2022-02-02T14:45:59Z</time>
      </trkpt>
      <trkpt lat="49.27051" lon="-1.3854">
        <ele>-2.3</ele>
        <time>2022-02-02T14:46:03Z</time>
      </trkpt>
      <trkpt lat="49.27052" lon="-1.38548">
        <ele>-1.8</ele>
        <time>2022-02-02T14:46:08Z</time>
      </trkpt>
      <trkpt lat="49.27054" lon="-1.38556">
        <ele>-1.7</ele>
        <time>2022-02-02T14:46:12Z</time>
      </trkpt>
      <trkpt lat="49.27056" lon="-1.38565">
        <ele>-2.2</ele>
        <time>2022-02-02T14:46:17Z</time>
      </trkpt>
      <trkpt lat="49.27058" lon="-1.38573">
        <ele>-2.8</ele>
        <time>2022-02-02T14:46:22Z</time>
      </trkpt>
      <trkpt lat="49.27059" lon="-1.3858">
        <ele>-2.7</ele>
        <time>2022-02-02T14:46:26Z</time>
      </trkpt>
      <trkpt lat="49.27061" lon="-1.38587">
        <ele>-2.2</ele>
        <time>2022-02-02T14:46:56Z</time>
      </trkpt>
      <trkpt lat="49.27063" lon="-1.38593">
        <ele>-2.2</ele>
        <time>2022-02-02T14:47:00Z</time>
      </trkpt>
      <trkpt lat="49.27064" lon="-1.38601">
        <ele>-2.5</ele>
        <time>2022-02-02T14:47:03Z</time>
      </trkpt>
      <trkpt lat="49.27068" lon="-1.38608">
        <ele>-2.8</ele>
        <time>2022-02-02T14:47:07Z</time>
      </trkpt>
      <trkpt lat="49.27065" lon="-1.38615">
        <ele>-3</ele>
        <time>2022-02-02T14:47:14Z</time>
      </trkpt>
      <trkpt lat="49.27066" lon="-1.38622">
        <ele>-3.3</ele>
        <time>2022-02-02T14:47:45Z</time>
      </trkpt>
      <trkpt lat="49.27068" lon="-1.38629">
        <ele>-3.4</ele>
        <time>2022-02-02T14:47:49Z</time>
      </trkpt>
      <trkpt lat="49.27071" lon="-1.38635">
        <ele>-3.6</ele>
        <time>2022-02-02T14:47:53Z</time>
      </trkpt>
      <trkpt lat="49.27074" lon="-1.38643">
        <ele>-4</ele>
        <time>2022-02-02T14:47:56Z</time>
      </trkpt>
      <trkpt lat="49.27076" lon="-1.3865">
        <ele>-4.1</ele>
        <time>2022-02-02T14:48:00Z</time>
      </trkpt>
      <trkpt lat="49.27079" lon="-1.38656">
        <ele>-4.1</ele>
        <time>2022-02-02T14:48:04Z</time>
      </trkpt>
      <trkpt lat="49.27083" lon="-1.38661">
        <ele>-3.8</ele>
        <time>2022-02-02T14:48:08Z</time>
      </trkpt>
      <trkpt lat="49.27082" lon="-1.38668">
        <ele>-1.9</ele>
        <time>2022-02-02T14:48:21Z</time>
      </trkpt>
      <trkpt lat="49.27085" lon="-1.38675">
        <ele>-1.8</ele>
        <time>2022-02-02T14:48:30Z</time>
      </trkpt>
      <trkpt lat="49.27081" lon="-1.38679">
        <ele>-1.5</ele>
        <time>2022-02-02T14:48:42Z</time>
      </trkpt>
      <trkpt lat="49.27083" lon="-1.38686">
        <ele>-1.8</ele>
        <time>2022-02-02T14:49:02Z</time>
      </trkpt>
      <trkpt lat="49.27085" lon="-1.38692">
        <ele>-1.6</ele>
        <time>2022-02-02T14:49:06Z</time>
      </trkpt>
      <trkpt lat="49.27088" lon="-1.38699">
        <ele>-1.5</ele>
        <time>2022-02-02T14:49:11Z</time>
      </trkpt>
      <trkpt lat="49.2709" lon="-1.38707">
        <ele>-1.4</ele>
        <time>2022-02-02T14:49:16Z</time>
      </trkpt>
      <trkpt lat="49.27092" lon="-1.38714">
        <ele>-1.4</ele>
        <time>2022-02-02T14:49:20Z</time>
      </trkpt>
      <trkpt lat="49.27093" lon="-1.38722">
        <ele>-1.3</ele>
        <time>2022-02-02T14:49:25Z</time>
      </trkpt>
      <trkpt lat="49.27093" lon="-1.3873">
        <ele>-1.2</ele>
        <time>2022-02-02T14:49:29Z</time>
      </trkpt>
      <trkpt lat="49.27096" lon="-1.38736">
        <ele>-1.1</ele>
        <time>2022-02-02T14:49:33Z</time>
      </trkpt>
      <trkpt lat="49.27099" lon="-1.38743">
        <ele>-1.2</ele>
        <time>2022-02-02T14:49:38Z</time>
      </trkpt>
      <trkpt lat="49.27099" lon="-1.38751">
        <ele>-1.4</ele>
        <time>2022-02-02T14:49:43Z</time>
      </trkpt>
      <trkpt lat="49.27101" lon="-1.38762">
        <ele>-1.4</ele>
        <time>2022-02-02T14:49:49Z</time>
      </trkpt>
      <trkpt lat="49.27105" lon="-1.38769">
        <ele>-1.2</ele>
        <time>2022-02-02T14:49:54Z</time>
      </trkpt>
      <trkpt lat="49.27109" lon="-1.38779">
        <ele>-1.2</ele>
        <time>2022-02-02T14:49:59Z</time>
      </trkpt>
      <trkpt lat="49.27109" lon="-1.38786">
        <ele>-1.3</ele>
        <time>2022-02-02T14:50:02Z</time>
      </trkpt>
      <trkpt lat="49.27111" lon="-1.38793">
        <ele>-1.2</ele>
        <time>2022-02-02T14:50:06Z</time>
      </trkpt>
      <trkpt lat="49.27112" lon="-1.388">
        <ele>-1.3</ele>
        <time>2022-02-02T14:50:08Z</time>
      </trkpt>
      <trkpt lat="49.27112" lon="-1.38808">
        <ele>-1.2</ele>
        <time>2022-02-02T14:50:13Z</time>
      </trkpt>
      <trkpt lat="49.27114" lon="-1.38815">
        <ele>-1</ele>
        <time>2022-02-02T14:50:17Z</time>
      </trkpt>
      <trkpt lat="49.27116" lon="-1.38822">
        <ele>-0.8</ele>
        <time>2022-02-02T14:50:20Z</time>
      </trkpt>
      <trkpt lat="49.27119" lon="-1.38828">
        <ele>-0.8</ele>
        <time>2022-02-02T14:50:23Z</time>
      </trkpt>
      <trkpt lat="49.27119" lon="-1.38837">
        <ele>-0.9</ele>
        <time>2022-02-02T14:50:28Z</time>
      </trkpt>
      <trkpt lat="49.2712" lon="-1.38845">
        <ele>-0.9</ele>
        <time>2022-02-02T14:50:32Z</time>
      </trkpt>
      <trkpt lat="49.27123" lon="-1.38852">
        <ele>-1</ele>
        <time>2022-02-02T14:50:36Z</time>
      </trkpt>
      <trkpt lat="49.27126" lon="-1.38858">
        <ele>-1.5</ele>
        <time>2022-02-02T14:50:41Z</time>
      </trkpt>
      <trkpt lat="49.27127" lon="-1.38865">
        <ele>-1.2</ele>
        <time>2022-02-02T14:50:44Z</time>
      </trkpt>
      <trkpt lat="49.27128" lon="-1.38873">
        <ele>-0.8</ele>
        <time>2022-02-02T14:50:48Z</time>
      </trkpt>
      <trkpt lat="49.27128" lon="-1.3888">
        <ele>-0.7</ele>
        <time>2022-02-02T14:50:52Z</time>
      </trkpt>
      <trkpt lat="49.27131" lon="-1.38886">
        <ele>-1.3</ele>
        <time>2022-02-02T14:50:56Z</time>
      </trkpt>
      <trkpt lat="49.27134" lon="-1.38893">
        <ele>-1.3</ele>
        <time>2022-02-02T14:50:59Z</time>
      </trkpt>
      <trkpt lat="49.27133" lon="-1.389">
        <ele>-1.4</ele>
        <time>2022-02-02T14:51:03Z</time>
      </trkpt>
      <trkpt lat="49.27135" lon="-1.38908">
        <ele>-1.6</ele>
        <time>2022-02-02T14:51:07Z</time>
      </trkpt>
      <trkpt lat="49.27137" lon="-1.38914">
        <ele>-1.9</ele>
        <time>2022-02-02T14:51:11Z</time>
      </trkpt>
      <trkpt lat="49.2714" lon="-1.38919">
        <ele>-2.4</ele>
        <time>2022-02-02T14:51:15Z</time>
      </trkpt>
      <trkpt lat="49.27142" lon="-1.38927">
        <ele>-2.9</ele>
        <time>2022-02-02T14:51:26Z</time>
      </trkpt>
      <trkpt lat="49.27142" lon="-1.38935">
        <ele>-2.8</ele>
        <time>2022-02-02T14:51:29Z</time>
      </trkpt>
      <trkpt lat="49.27144" lon="-1.38942">
        <ele>-2.6</ele>
        <time>2022-02-02T14:51:32Z</time>
      </trkpt>
      <trkpt lat="49.27145" lon="-1.38949">
        <ele>-2.4</ele>
        <time>2022-02-02T14:51:35Z</time>
      </trkpt>
      <trkpt lat="49.27146" lon="-1.38958">
        <ele>-2.2</ele>
        <time>2022-02-02T14:51:39Z</time>
      </trkpt>
      <trkpt lat="49.27147" lon="-1.38967">
        <ele>-2.1</ele>
        <time>2022-02-02T14:51:44Z</time>
      </trkpt>
      <trkpt lat="49.27148" lon="-1.38974">
        <ele>-1.9</ele>
        <time>2022-02-02T14:51:47Z</time>
      </trkpt>
      <trkpt lat="49.2715" lon="-1.38981">
        <ele>-1.8</ele>
        <time>2022-02-02T14:51:51Z</time>
      </trkpt>
      <trkpt lat="49.27152" lon="-1.38987">
        <ele>-1.8</ele>
        <time>2022-02-02T14:51:54Z</time>
      </trkpt>
      <trkpt lat="49.27154" lon="-1.38994">
        <ele>-2.1</ele>
        <time>2022-02-02T14:51:59Z</time>
      </trkpt>
      <trkpt lat="49.27155" lon="-1.39001">
        <ele>-2.4</ele>
        <time>2022-02-02T14:52:04Z</time>
      </trkpt>
      <trkpt lat="49.27159" lon="-1.39006">
        <ele>-2.4</ele>
        <time>2022-02-02T14:52:08Z</time>
      </trkpt>
      <trkpt lat="49.27161" lon="-1.39014">
        <ele>-2.4</ele>
        <time>2022-02-02T14:52:12Z</time>
      </trkpt>
      <trkpt lat="49.27163" lon="-1.39022">
        <ele>-2.3</ele>
        <time>2022-02-02T14:52:16Z</time>
      </trkpt>
      <trkpt lat="49.27165" lon="-1.39032">
        <ele>-2.2</ele>
        <time>2022-02-02T14:52:21Z</time>
      </trkpt>
      <trkpt lat="49.27167" lon="-1.39039">
        <ele>-1.9</ele>
        <time>2022-02-02T14:52:25Z</time>
      </trkpt>
      <trkpt lat="49.27168" lon="-1.39047">
        <ele>-1.8</ele>
        <time>2022-02-02T14:52:30Z</time>
      </trkpt>
      <trkpt lat="49.2717" lon="-1.39054">
        <ele>-1.8</ele>
        <time>2022-02-02T14:52:33Z</time>
      </trkpt>
      <trkpt lat="49.27171" lon="-1.39061">
        <ele>-1.9</ele>
        <time>2022-02-02T14:52:37Z</time>
      </trkpt>
      <trkpt lat="49.27173" lon="-1.39069">
        <ele>-1.9</ele>
        <time>2022-02-02T14:52:41Z</time>
      </trkpt>
      <trkpt lat="49.27175" lon="-1.39075">
        <ele>-1.7</ele>
        <time>2022-02-02T14:52:45Z</time>
      </trkpt>
      <trkpt lat="49.27175" lon="-1.39084">
        <ele>-1</ele>
        <time>2022-02-02T14:53:05Z</time>
      </trkpt>
      <trkpt lat="49.27178" lon="-1.39094">
        <ele>-1.1</ele>
        <time>2022-02-02T14:53:11Z</time>
      </trkpt>
      <trkpt lat="49.2718" lon="-1.39101">
        <ele>-1</ele>
        <time>2022-02-02T14:53:15Z</time>
      </trkpt>
      <trkpt lat="49.27181" lon="-1.39109">
        <ele>-1</ele>
        <time>2022-02-02T14:53:19Z</time>
      </trkpt>
      <trkpt lat="49.27184" lon="-1.39116">
        <ele>-1</ele>
        <time>2022-02-02T14:53:24Z</time>
      </trkpt>
      <trkpt lat="49.27185" lon="-1.39124">
        <ele>-1.1</ele>
        <time>2022-02-02T14:53:27Z</time>
      </trkpt>
      <trkpt lat="49.27186" lon="-1.39132">
        <ele>-1.3</ele>
        <time>2022-02-02T14:53:31Z</time>
      </trkpt>
      <trkpt lat="49.27189" lon="-1.39142">
        <ele>-1.6</ele>
        <time>2022-02-02T14:53:36Z</time>
      </trkpt>
      <trkpt lat="49.2719" lon="-1.39149">
        <ele>-1.9</ele>
        <time>2022-02-02T14:53:40Z</time>
      </trkpt>
      <trkpt lat="49.27192" lon="-1.39156">
        <ele>-2</ele>
        <time>2022-02-02T14:53:43Z</time>
      </trkpt>
      <trkpt lat="49.27193" lon="-1.39164">
        <ele>-2.1</ele>
        <time>2022-02-02T14:53:47Z</time>
      </trkpt>
      <trkpt lat="49.27195" lon="-1.39173">
        <ele>-2</ele>
        <time>2022-02-02T14:53:51Z</time>
      </trkpt>
      <trkpt lat="49.27197" lon="-1.39182">
        <ele>-2.2</ele>
        <time>2022-02-02T14:53:56Z</time>
      </trkpt>
      <trkpt lat="49.272" lon="-1.39189">
        <ele>-2.4</ele>
        <time>2022-02-02T14:54:00Z</time>
      </trkpt>
      <trkpt lat="49.27201" lon="-1.39197">
        <ele>-2.4</ele>
        <time>2022-02-02T14:54:03Z</time>
      </trkpt>
      <trkpt lat="49.27203" lon="-1.39204">
        <ele>-2.2</ele>
        <time>2022-02-02T14:54:06Z</time>
      </trkpt>
      <trkpt lat="49.27205" lon="-1.39211">
        <ele>-2.3</ele>
        <time>2022-02-02T14:54:09Z</time>
      </trkpt>
      <trkpt lat="49.27207" lon="-1.39219">
        <ele>-2.2</ele>
        <time>2022-02-02T14:54:13Z</time>
      </trkpt>
      <trkpt lat="49.27209" lon="-1.39226">
        <ele>-2.2</ele>
        <time>2022-02-02T14:54:16Z</time>
      </trkpt>
      <trkpt lat="49.2721" lon="-1.39233">
        <ele>-2.3</ele>
        <time>2022-02-02T14:54:20Z</time>
      </trkpt>
      <trkpt lat="49.27211" lon="-1.3924">
        <ele>-2.6</ele>
        <time>2022-02-02T14:54:25Z</time>
      </trkpt>
      <trkpt lat="49.27211" lon="-1.39248">
        <ele>-2.8</ele>
        <time>2022-02-02T14:54:28Z</time>
      </trkpt>
      <trkpt lat="49.27213" lon="-1.39255">
        <ele>-2.9</ele>
        <time>2022-02-02T14:54:32Z</time>
      </trkpt>
      <trkpt lat="49.27216" lon="-1.39261">
        <ele>-3.1</ele>
        <time>2022-02-02T14:54:35Z</time>
      </trkpt>
      <trkpt lat="49.27218" lon="-1.39269">
        <ele>-3.5</ele>
        <time>2022-02-02T14:54:39Z</time>
      </trkpt>
      <trkpt lat="49.2722" lon="-1.39278">
        <ele>-4</ele>
        <time>2022-02-02T14:54:44Z</time>
      </trkpt>
      <trkpt lat="49.27222" lon="-1.39286">
        <ele>-4.2</ele>
        <time>2022-02-02T14:54:48Z</time>
      </trkpt>
      <trkpt lat="49.27223" lon="-1.39294">
        <ele>-4.2</ele>
        <time>2022-02-02T14:54:52Z</time>
      </trkpt>
      <trkpt lat="49.27225" lon="-1.39301">
        <ele>-4.2</ele>
        <time>2022-02-02T14:54:56Z</time>
      </trkpt>
      <trkpt lat="49.27227" lon="-1.39309">
        <ele>-4</ele>
        <time>2022-02-02T14:54:59Z</time>
      </trkpt>
      <trkpt lat="49.27229" lon="-1.39316">
        <ele>-3.8</ele>
        <time>2022-02-02T14:55:03Z</time>
      </trkpt>
      <trkpt lat="49.27231" lon="-1.39322">
        <ele>-3.8</ele>
        <time>2022-02-02T14:55:06Z</time>
      </trkpt>
      <trkpt lat="49.27234" lon="-1.3933">
        <ele>-3.8</ele>
        <time>2022-02-02T14:55:10Z</time>
      </trkpt>
      <trkpt lat="49.27234" lon="-1.39337">
        <ele>-4</ele>
        <time>2022-02-02T14:55:19Z</time>
      </trkpt>
      <trkpt lat="49.27237" lon="-1.39331">
        <ele>-4.6</ele>
        <time>2022-02-02T14:55:54Z</time>
      </trkpt>
      <trkpt lat="49.27239" lon="-1.39324">
        <ele>-4.2</ele>
        <time>2022-02-02T14:56:01Z</time>
      </trkpt>
      <trkpt lat="49.27234" lon="-1.3933">
        <ele>-3.5</ele>
        <time>2022-02-02T14:56:07Z</time>
      </trkpt>
      <trkpt lat="49.27229" lon="-1.39338">
        <ele>-3.4</ele>
        <time>2022-02-02T14:56:09Z</time>
      </trkpt>
      <trkpt lat="49.27227" lon="-1.39346">
        <ele>-3.3</ele>
        <time>2022-02-02T14:56:13Z</time>
      </trkpt>
      <trkpt lat="49.27228" lon="-1.39355">
        <ele>-3.2</ele>
        <time>2022-02-02T14:56:17Z</time>
      </trkpt>
      <trkpt lat="49.27227" lon="-1.39362">
        <ele>-3.2</ele>
        <time>2022-02-02T14:56:20Z</time>
      </trkpt>
      <trkpt lat="49.27224" lon="-1.3937">
        <ele>-3.1</ele>
        <time>2022-02-02T14:56:23Z</time>
      </trkpt>
      <trkpt lat="49.27223" lon="-1.39378">
        <ele>-3</ele>
        <time>2022-02-02T14:56:27Z</time>
      </trkpt>
      <trkpt lat="49.27219" lon="-1.39384">
        <ele>-2.9</ele>
        <time>2022-02-02T14:56:31Z</time>
      </trkpt>
      <trkpt lat="49.27218" lon="-1.39392">
        <ele>-3</ele>
        <time>2022-02-02T14:56:35Z</time>
      </trkpt>
      <trkpt lat="49.27216" lon="-1.39399">
        <ele>-3</ele>
        <time>2022-02-02T14:56:39Z</time>
      </trkpt>
      <trkpt lat="49.27214" lon="-1.39405">
        <ele>-3</ele>
        <time>2022-02-02T14:56:44Z</time>
      </trkpt>
      <trkpt lat="49.2721" lon="-1.39407">
        <ele>-3.1</ele>
        <time>2022-02-02T14:57:06Z</time>
      </trkpt>
      <trkpt lat="49.27205" lon="-1.39409">
        <ele>-3.1</ele>
        <time>2022-02-02T14:57:10Z</time>
      </trkpt>
      <trkpt lat="49.272" lon="-1.39412">
        <ele>-2.4</ele>
        <time>2022-02-02T14:57:25Z</time>
      </trkpt>
      <trkpt lat="49.27198" lon="-1.39419">
        <ele>-2.3</ele>
        <time>2022-02-02T14:57:49Z</time>
      </trkpt>
      <trkpt lat="49.27195" lon="-1.39425">
        <ele>-2.2</ele>
        <time>2022-02-02T14:57:55Z</time>
      </trkpt>
      <trkpt lat="49.27192" lon="-1.3943">
        <ele>-1.8</ele>
        <time>2022-02-02T14:58:01Z</time>
      </trkpt>
      <trkpt lat="49.27189" lon="-1.39437">
        <ele>-1.7</ele>
        <time>2022-02-02T14:58:05Z</time>
      </trkpt>
      <trkpt lat="49.27185" lon="-1.39442">
        <ele>-1.6</ele>
        <time>2022-02-02T14:58:09Z</time>
      </trkpt>
      <trkpt lat="49.27181" lon="-1.39446">
        <ele>-1.5</ele>
        <time>2022-02-02T14:58:31Z</time>
      </trkpt>
      <trkpt lat="49.27178" lon="-1.39453">
        <ele>-1.5</ele>
        <time>2022-02-02T14:58:34Z</time>
      </trkpt>
      <trkpt lat="49.27176" lon="-1.39463">
        <ele>-1</ele>
        <time>2022-02-02T14:58:38Z</time>
      </trkpt>
      <trkpt lat="49.27174" lon="-1.39471">
        <ele>-0.9</ele>
        <time>2022-02-02T14:58:43Z</time>
      </trkpt>
      <trkpt lat="49.27171" lon="-1.39478">
        <ele>-1.3</ele>
        <time>2022-02-02T14:58:48Z</time>
      </trkpt>
      <trkpt lat="49.27165" lon="-1.39481">
        <ele>-1.5</ele>
        <time>2022-02-02T14:58:52Z</time>
      </trkpt>
      <trkpt lat="49.27161" lon="-1.39488">
        <ele>-1.8</ele>
        <time>2022-02-02T14:58:57Z</time>
      </trkpt>
      <trkpt lat="49.27158" lon="-1.39495">
        <ele>-2.4</ele>
        <time>2022-02-02T14:59:02Z</time>
      </trkpt>
      <trkpt lat="49.27156" lon="-1.39503">
        <ele>-2.8</ele>
        <time>2022-02-02T14:59:06Z</time>
      </trkpt>
      <trkpt lat="49.27153" lon="-1.39508">
        <ele>-2.9</ele>
        <time>2022-02-02T14:59:09Z</time>
      </trkpt>
      <trkpt lat="49.27147" lon="-1.39512">
        <ele>-3.4</ele>
        <time>2022-02-02T14:59:15Z</time>
      </trkpt>
      <trkpt lat="49.27143" lon="-1.3952">
        <ele>-4.2</ele>
        <time>2022-02-02T14:59:19Z</time>
      </trkpt>
      <trkpt lat="49.27139" lon="-1.39528">
        <ele>-4.4</ele>
        <time>2022-02-02T14:59:24Z</time>
      </trkpt>
      <trkpt lat="49.27135" lon="-1.39535">
        <ele>-4.4</ele>
        <time>2022-02-02T14:59:29Z</time>
      </trkpt>
      <trkpt lat="49.27131" lon="-1.3954">
        <ele>-4.4</ele>
        <time>2022-02-02T14:59:34Z</time>
      </trkpt>
      <trkpt lat="49.27127" lon="-1.39544">
        <ele>-4.4</ele>
        <time>2022-02-02T14:59:38Z</time>
      </trkpt>
      <trkpt lat="49.27125" lon="-1.39551">
        <ele>-4.3</ele>
        <time>2022-02-02T14:59:41Z</time>
      </trkpt>
      <trkpt lat="49.27123" lon="-1.39558">
        <ele>-4.3</ele>
        <time>2022-02-02T14:59:44Z</time>
      </trkpt>
      <trkpt lat="49.2712" lon="-1.39567">
        <ele>-4.2</ele>
        <time>2022-02-02T14:59:49Z</time>
      </trkpt>
      <trkpt lat="49.27116" lon="-1.39574">
        <ele>-4.1</ele>
        <time>2022-02-02T14:59:54Z</time>
      </trkpt>
      <trkpt lat="49.27113" lon="-1.3958">
        <ele>-4.1</ele>
        <time>2022-02-02T14:59:59Z</time>
      </trkpt>
      <trkpt lat="49.27109" lon="-1.39585">
        <ele>-4.1</ele>
        <time>2022-02-02T15:00:03Z</time>
      </trkpt>
      <trkpt lat="49.27106" lon="-1.39578">
        <ele>-3.9</ele>
        <time>2022-02-02T15:00:18Z</time>
      </trkpt>
      <trkpt lat="49.27099" lon="-1.39573">
        <ele>-4.5</ele>
        <time>2022-02-02T15:00:25Z</time>
      </trkpt>
      <trkpt lat="49.27095" lon="-1.39578">
        <ele>-4.8</ele>
        <time>2022-02-02T15:00:28Z</time>
      </trkpt>
      <trkpt lat="49.27095" lon="-1.39586">
        <ele>-4.9</ele>
        <time>2022-02-02T15:00:32Z</time>
      </trkpt>
      <trkpt lat="49.27094" lon="-1.39593">
        <ele>-4.7</ele>
        <time>2022-02-02T15:00:35Z</time>
      </trkpt>
      <trkpt lat="49.27091" lon="-1.39605">
        <ele>-3.2</ele>
        <time>2022-02-02T15:00:39Z</time>
      </trkpt>
      <trkpt lat="49.27089" lon="-1.39611">
        <ele>-2.2</ele>
        <time>2022-02-02T15:00:41Z</time>
      </trkpt>
      <trkpt lat="49.27085" lon="-1.39618">
        <ele>-1.3</ele>
        <time>2022-02-02T15:00:45Z</time>
      </trkpt>
      <trkpt lat="49.27082" lon="-1.39624">
        <ele>-1.4</ele>
        <time>2022-02-02T15:00:48Z</time>
      </trkpt>
      <trkpt lat="49.27079" lon="-1.39631">
        <ele>-1.9</ele>
        <time>2022-02-02T15:00:52Z</time>
      </trkpt>
      <trkpt lat="49.27075" lon="-1.39638">
        <ele>-1.8</ele>
        <time>2022-02-02T15:00:57Z</time>
      </trkpt>
      <trkpt lat="49.27072" lon="-1.39644">
        <ele>-1.7</ele>
        <time>2022-02-02T15:01:01Z</time>
      </trkpt>
      <trkpt lat="49.2707" lon="-1.39651">
        <ele>-1.8</ele>
        <time>2022-02-02T15:01:05Z</time>
      </trkpt>
      <trkpt lat="49.27067" lon="-1.39658">
        <ele>-2</ele>
        <time>2022-02-02T15:01:08Z</time>
      </trkpt>
      <trkpt lat="49.27063" lon="-1.39664">
        <ele>-2.5</ele>
        <time>2022-02-02T15:01:12Z</time>
      </trkpt>
      <trkpt lat="49.2706" lon="-1.39669">
        <ele>-2.8</ele>
        <time>2022-02-02T15:01:16Z</time>
      </trkpt>
      <trkpt lat="49.27056" lon="-1.39675">
        <ele>-2.9</ele>
        <time>2022-02-02T15:01:20Z</time>
      </trkpt>
      <trkpt lat="49.27052" lon="-1.39681">
        <ele>-3</ele>
        <time>2022-02-02T15:01:24Z</time>
      </trkpt>
      <trkpt lat="49.27049" lon="-1.39689">
        <ele>-3.1</ele>
        <time>2022-02-02T15:01:29Z</time>
      </trkpt>
      <trkpt lat="49.27046" lon="-1.39697">
        <ele>-3.1</ele>
        <time>2022-02-02T15:01:34Z</time>
      </trkpt>
      <trkpt lat="49.27041" lon="-1.39704">
        <ele>-3.2</ele>
        <time>2022-02-02T15:01:39Z</time>
      </trkpt>
      <trkpt lat="49.27037" lon="-1.3971">
        <ele>-3.5</ele>
        <time>2022-02-02T15:01:43Z</time>
      </trkpt>
      <trkpt lat="49.27034" lon="-1.39715">
        <ele>-3.6</ele>
        <time>2022-02-02T15:01:47Z</time>
      </trkpt>
      <trkpt lat="49.2703" lon="-1.39721">
        <ele>-3.5</ele>
        <time>2022-02-02T15:01:51Z</time>
      </trkpt>
      <trkpt lat="49.27026" lon="-1.39727">
        <ele>-3</ele>
        <time>2022-02-02T15:01:56Z</time>
      </trkpt>
      <trkpt lat="49.27023" lon="-1.39733">
        <ele>-2.7</ele>
        <time>2022-02-02T15:01:59Z</time>
      </trkpt>
      <trkpt lat="49.2702" lon="-1.39739">
        <ele>-2.7</ele>
        <time>2022-02-02T15:02:03Z</time>
      </trkpt>
      <trkpt lat="49.27016" lon="-1.39745">
        <ele>-2.9</ele>
        <time>2022-02-02T15:02:06Z</time>
      </trkpt>
      <trkpt lat="49.27013" lon="-1.3975">
        <ele>-3</ele>
        <time>2022-02-02T15:02:10Z</time>
      </trkpt>
      <trkpt lat="49.27009" lon="-1.39759">
        <ele>-2.8</ele>
        <time>2022-02-02T15:02:15Z</time>
      </trkpt>
      <trkpt lat="49.27005" lon="-1.39764">
        <ele>-2.7</ele>
        <time>2022-02-02T15:02:19Z</time>
      </trkpt>
      <trkpt lat="49.27002" lon="-1.39769">
        <ele>-2.8</ele>
        <time>2022-02-02T15:02:23Z</time>
      </trkpt>
      <trkpt lat="49.27" lon="-1.39775">
        <ele>-2.7</ele>
        <time>2022-02-02T15:02:26Z</time>
      </trkpt>
      <trkpt lat="49.26996" lon="-1.3978">
        <ele>-2.6</ele>
        <time>2022-02-02T15:02:30Z</time>
      </trkpt>
      <trkpt lat="49.26993" lon="-1.39787">
        <ele>-2.2</ele>
        <time>2022-02-02T15:02:34Z</time>
      </trkpt>
      <trkpt lat="49.26988" lon="-1.39793">
        <ele>-1.8</ele>
        <time>2022-02-02T15:02:39Z</time>
      </trkpt>
      <trkpt lat="49.26985" lon="-1.39799">
        <ele>-1.4</ele>
        <time>2022-02-02T15:02:43Z</time>
      </trkpt>
      <trkpt lat="49.26982" lon="-1.39805">
        <ele>-1.3</ele>
        <time>2022-02-02T15:02:47Z</time>
      </trkpt>
      <trkpt lat="49.26979" lon="-1.39811">
        <ele>-1.5</ele>
        <time>2022-02-02T15:02:51Z</time>
      </trkpt>
      <trkpt lat="49.26976" lon="-1.39817">
        <ele>-1.5</ele>
        <time>2022-02-02T15:02:54Z</time>
      </trkpt>
      <trkpt lat="49.26971" lon="-1.39823">
        <ele>-1.3</ele>
        <time>2022-02-02T15:02:59Z</time>
      </trkpt>
      <trkpt lat="49.26967" lon="-1.39829">
        <ele>-1.4</ele>
        <time>2022-02-02T15:03:04Z</time>
      </trkpt>
      <trkpt lat="49.26965" lon="-1.39836">
        <ele>-1.5</ele>
        <time>2022-02-02T15:03:09Z</time>
      </trkpt>
      <trkpt lat="49.26963" lon="-1.39844">
        <ele>-1.2</ele>
        <time>2022-02-02T15:03:14Z</time>
      </trkpt>
      <trkpt lat="49.26959" lon="-1.39851">
        <ele>-0.9</ele>
        <time>2022-02-02T15:03:18Z</time>
      </trkpt>
      <trkpt lat="49.26956" lon="-1.39856">
        <ele>-1</ele>
        <time>2022-02-02T15:03:22Z</time>
      </trkpt>
      <trkpt lat="49.26952" lon="-1.39862">
        <ele>-1</ele>
        <time>2022-02-02T15:03:26Z</time>
      </trkpt>
      <trkpt lat="49.26948" lon="-1.39867">
        <ele>-1.1</ele>
        <time>2022-02-02T15:03:29Z</time>
      </trkpt>
      <trkpt lat="49.26945" lon="-1.39873">
        <ele>-1.1</ele>
        <time>2022-02-02T15:03:33Z</time>
      </trkpt>
      <trkpt lat="49.26941" lon="-1.39878">
        <ele>-1.1</ele>
        <time>2022-02-02T15:03:37Z</time>
      </trkpt>
      <trkpt lat="49.26937" lon="-1.39884">
        <ele>-1</ele>
        <time>2022-02-02T15:03:41Z</time>
      </trkpt>
      <trkpt lat="49.26934" lon="-1.3989">
        <ele>-1.1</ele>
        <time>2022-02-02T15:03:45Z</time>
      </trkpt>
      <trkpt lat="49.26931" lon="-1.39897">
        <ele>-1.2</ele>
        <time>2022-02-02T15:03:50Z</time>
      </trkpt>
      <trkpt lat="49.26927" lon="-1.39905">
        <ele>-1.5</ele>
        <time>2022-02-02T15:03:55Z</time>
      </trkpt>
      <trkpt lat="49.26925" lon="-1.39913">
        <ele>-1.7</ele>
        <time>2022-02-02T15:04:00Z</time>
      </trkpt>
      <trkpt lat="49.26921" lon="-1.39918">
        <ele>-1.7</ele>
        <time>2022-02-02T15:04:04Z</time>
      </trkpt>
      <trkpt lat="49.26917" lon="-1.39924">
        <ele>-1.7</ele>
        <time>2022-02-02T15:04:09Z</time>
      </trkpt>
      <trkpt lat="49.26913" lon="-1.39929">
        <ele>-1.6</ele>
        <time>2022-02-02T15:04:13Z</time>
      </trkpt>
      <trkpt lat="49.2691" lon="-1.39935">
        <ele>-1.5</ele>
        <time>2022-02-02T15:04:17Z</time>
      </trkpt>
      <trkpt lat="49.26906" lon="-1.39941">
        <ele>-1.4</ele>
        <time>2022-02-02T15:04:22Z</time>
      </trkpt>
      <trkpt lat="49.26903" lon="-1.39947">
        <ele>-1.4</ele>
        <time>2022-02-02T15:04:26Z</time>
      </trkpt>
      <trkpt lat="49.269" lon="-1.39955">
        <ele>-1.3</ele>
        <time>2022-02-02T15:04:31Z</time>
      </trkpt>
      <trkpt lat="49.26897" lon="-1.3996">
        <ele>-1.2</ele>
        <time>2022-02-02T15:04:34Z</time>
      </trkpt>
      <trkpt lat="49.26893" lon="-1.39967">
        <ele>-1.1</ele>
        <time>2022-02-02T15:04:39Z</time>
      </trkpt>
      <trkpt lat="49.26889" lon="-1.39973">
        <ele>-1.2</ele>
        <time>2022-02-02T15:04:44Z</time>
      </trkpt>
      <trkpt lat="49.26886" lon="-1.3998">
        <ele>-1.3</ele>
        <time>2022-02-02T15:04:48Z</time>
      </trkpt>
      <trkpt lat="49.26883" lon="-1.39986">
        <ele>-1.3</ele>
        <time>2022-02-02T15:04:52Z</time>
      </trkpt>
      <trkpt lat="49.26878" lon="-1.39993">
        <ele>-1.4</ele>
        <time>2022-02-02T15:04:57Z</time>
      </trkpt>
      <trkpt lat="49.26875" lon="-1.4">
        <ele>-1.5</ele>
        <time>2022-02-02T15:05:03Z</time>
      </trkpt>
      <trkpt lat="49.2687" lon="-1.40005">
        <ele>-1.6</ele>
        <time>2022-02-02T15:05:09Z</time>
      </trkpt>
      <trkpt lat="49.26869" lon="-1.40013">
        <ele>-1.5</ele>
        <time>2022-02-02T15:05:13Z</time>
      </trkpt>
      <trkpt lat="49.26868" lon="-1.40021">
        <ele>-1.5</ele>
        <time>2022-02-02T15:05:18Z</time>
      </trkpt>
      <trkpt lat="49.26869" lon="-1.4003">
        <ele>-1.3</ele>
        <time>2022-02-02T15:05:23Z</time>
      </trkpt>
      <trkpt lat="49.26872" lon="-1.40038">
        <ele>-1.1</ele>
        <time>2022-02-02T15:05:28Z</time>
      </trkpt>
      <trkpt lat="49.26875" lon="-1.40046">
        <ele>-1.1</ele>
        <time>2022-02-02T15:05:33Z</time>
      </trkpt>
      <trkpt lat="49.26878" lon="-1.40051">
        <ele>-1.1</ele>
        <time>2022-02-02T15:05:37Z</time>
      </trkpt>
      <trkpt lat="49.26883" lon="-1.40051">
        <ele>-1.1</ele>
        <time>2022-02-02T15:05:43Z</time>
      </trkpt>
      <trkpt lat="49.26887" lon="-1.40057">
        <ele>-1.3</ele>
        <time>2022-02-02T15:05:51Z</time>
      </trkpt>
      <trkpt lat="49.2689" lon="-1.40064">
        <ele>-1.5</ele>
        <time>2022-02-02T15:05:54Z</time>
      </trkpt>
      <trkpt lat="49.26894" lon="-1.4007">
        <ele>-1.6</ele>
        <time>2022-02-02T15:05:57Z</time>
      </trkpt>
      <trkpt lat="49.26899" lon="-1.40077">
        <ele>-1.7</ele>
        <time>2022-02-02T15:06:01Z</time>
      </trkpt>
      <trkpt lat="49.26903" lon="-1.4008">
        <ele>-1.9</ele>
        <time>2022-02-02T15:06:05Z</time>
      </trkpt>
      <trkpt lat="49.26906" lon="-1.40086">
        <ele>-2.2</ele>
        <time>2022-02-02T15:06:13Z</time>
      </trkpt>
      <trkpt lat="49.2691" lon="-1.40092">
        <ele>-2.4</ele>
        <time>2022-02-02T15:06:17Z</time>
      </trkpt>
      <trkpt lat="49.26914" lon="-1.40098">
        <ele>-2.6</ele>
        <time>2022-02-02T15:06:21Z</time>
      </trkpt>
      <trkpt lat="49.26919" lon="-1.40103">
        <ele>-2.6</ele>
        <time>2022-02-02T15:06:25Z</time>
      </trkpt>
      <trkpt lat="49.26923" lon="-1.40106">
        <ele>-2.6</ele>
        <time>2022-02-02T15:06:28Z</time>
      </trkpt>
      <trkpt lat="49.26927" lon="-1.40111">
        <ele>-2.6</ele>
        <time>2022-02-02T15:06:32Z</time>
      </trkpt>
      <trkpt lat="49.26931" lon="-1.40117">
        <ele>-2.4</ele>
        <time>2022-02-02T15:06:36Z</time>
      </trkpt>
      <trkpt lat="49.26935" lon="-1.40122">
        <ele>-2.2</ele>
        <time>2022-02-02T15:06:40Z</time>
      </trkpt>
      <trkpt lat="49.26935" lon="-1.40129">
        <ele>-2</ele>
        <time>2022-02-02T15:06:50Z</time>
      </trkpt>
      <trkpt lat="49.26939" lon="-1.40135">
        <ele>-2.2</ele>
        <time>2022-02-02T15:06:59Z</time>
      </trkpt>
      <trkpt lat="49.26944" lon="-1.40136">
        <ele>-2.1</ele>
        <time>2022-02-02T15:07:03Z</time>
      </trkpt>
      <trkpt lat="49.26949" lon="-1.4014">
        <ele>-2.1</ele>
        <time>2022-02-02T15:07:07Z</time>
      </trkpt>
      <trkpt lat="49.26953" lon="-1.40148">
        <ele>-2.2</ele>
        <time>2022-02-02T15:07:12Z</time>
      </trkpt>
      <trkpt lat="49.26958" lon="-1.40152">
        <ele>-2.2</ele>
        <time>2022-02-02T15:07:17Z</time>
      </trkpt>
      <trkpt lat="49.26963" lon="-1.40159">
        <ele>-2</ele>
        <time>2022-02-02T15:07:21Z</time>
      </trkpt>
      <trkpt lat="49.26966" lon="-1.40164">
        <ele>-1.9</ele>
        <time>2022-02-02T15:07:24Z</time>
      </trkpt>
      <trkpt lat="49.2697" lon="-1.4017">
        <ele>-1.9</ele>
        <time>2022-02-02T15:07:28Z</time>
      </trkpt>
      <trkpt lat="49.26974" lon="-1.40177">
        <ele>-2</ele>
        <time>2022-02-02T15:07:32Z</time>
      </trkpt>
      <trkpt lat="49.26978" lon="-1.40182">
        <ele>-2.1</ele>
        <time>2022-02-02T15:07:36Z</time>
      </trkpt>
      <trkpt lat="49.26982" lon="-1.40186">
        <ele>-2.1</ele>
        <time>2022-02-02T15:07:40Z</time>
      </trkpt>
      <trkpt lat="49.26986" lon="-1.40193">
        <ele>-2</ele>
        <time>2022-02-02T15:07:44Z</time>
      </trkpt>
      <trkpt lat="49.2699" lon="-1.40199">
        <ele>-1.7</ele>
        <time>2022-02-02T15:07:50Z</time>
      </trkpt>
      <trkpt lat="49.26994" lon="-1.40204">
        <ele>-1.5</ele>
        <time>2022-02-02T15:07:53Z</time>
      </trkpt>
      <trkpt lat="49.26994" lon="-1.40211">
        <ele>-1.4</ele>
        <time>2022-02-02T15:07:57Z</time>
      </trkpt>
      <trkpt lat="49.26994" lon="-1.40219">
        <ele>-1.5</ele>
        <time>2022-02-02T15:08:02Z</time>
      </trkpt>
      <trkpt lat="49.26997" lon="-1.40226">
        <ele>-1</ele>
        <time>2022-02-02T15:08:07Z</time>
      </trkpt>
      <trkpt lat="49.27001" lon="-1.40223">
        <ele>-0.7</ele>
        <time>2022-02-02T15:08:15Z</time>
      </trkpt>
      <trkpt lat="49.26996" lon="-1.40223">
        <ele>-0.3</ele>
        <time>2022-02-02T15:08:26Z</time>
      </trkpt>
      <trkpt lat="49.26991" lon="-1.40229">
        <ele>-0.4</ele>
        <time>2022-02-02T15:08:29Z</time>
      </trkpt>
      <trkpt lat="49.26987" lon="-1.40235">
        <ele>-0.5</ele>
        <time>2022-02-02T15:08:32Z</time>
      </trkpt>
      <trkpt lat="49.26983" lon="-1.40239">
        <ele>-0.7</ele>
        <time>2022-02-02T15:08:35Z</time>
      </trkpt>
      <trkpt lat="49.26981" lon="-1.40245">
        <ele>-0.9</ele>
        <time>2022-02-02T15:08:39Z</time>
      </trkpt>
      <trkpt lat="49.26986" lon="-1.40248">
        <ele>-1.1</ele>
        <time>2022-02-02T15:08:43Z</time>
      </trkpt>
      <trkpt lat="49.2699" lon="-1.40256">
        <ele>-0.8</ele>
        <time>2022-02-02T15:08:47Z</time>
      </trkpt>
      <trkpt lat="49.26985" lon="-1.40252">
        <ele>-1.3</ele>
        <time>2022-02-02T15:09:35Z</time>
      </trkpt>
      <trkpt lat="49.2698" lon="-1.40254">
        <ele>-1.3</ele>
        <time>2022-02-02T15:09:38Z</time>
      </trkpt>
      <trkpt lat="49.26974" lon="-1.40258">
        <ele>-1.2</ele>
        <time>2022-02-02T15:09:41Z</time>
      </trkpt>
      <trkpt lat="49.26969" lon="-1.40261">
        <ele>-1.2</ele>
        <time>2022-02-02T15:09:44Z</time>
      </trkpt>
      <trkpt lat="49.26964" lon="-1.40266">
        <ele>-1.3</ele>
        <time>2022-02-02T15:09:47Z</time>
      </trkpt>
      <trkpt lat="49.26961" lon="-1.40273">
        <ele>-1.5</ele>
        <time>2022-02-02T15:09:51Z</time>
      </trkpt>
      <trkpt lat="49.26957" lon="-1.40279">
        <ele>-1.6</ele>
        <time>2022-02-02T15:09:55Z</time>
      </trkpt>
      <trkpt lat="49.26953" lon="-1.40284">
        <ele>-1.7</ele>
        <time>2022-02-02T15:09:58Z</time>
      </trkpt>
      <trkpt lat="49.2695" lon="-1.4029">
        <ele>-1.6</ele>
        <time>2022-02-02T15:10:03Z</time>
      </trkpt>
      <trkpt lat="49.26946" lon="-1.40294">
        <ele>-1.5</ele>
        <time>2022-02-02T15:10:06Z</time>
      </trkpt>
      <trkpt lat="49.26942" lon="-1.40298">
        <ele>-1.4</ele>
        <time>2022-02-02T15:10:09Z</time>
      </trkpt>
      <trkpt lat="49.26938" lon="-1.40302">
        <ele>-1.4</ele>
        <time>2022-02-02T15:10:12Z</time>
      </trkpt>
      <trkpt lat="49.26935" lon="-1.40306">
        <ele>-1.4</ele>
        <time>2022-02-02T15:10:16Z</time>
      </trkpt>
      <trkpt lat="49.26929" lon="-1.4031">
        <ele>-1.5</ele>
        <time>2022-02-02T15:10:20Z</time>
      </trkpt>
      <trkpt lat="49.26926" lon="-1.40315">
        <ele>-1.5</ele>
        <time>2022-02-02T15:10:23Z</time>
      </trkpt>
      <trkpt lat="49.26921" lon="-1.40319">
        <ele>-1.5</ele>
        <time>2022-02-02T15:10:27Z</time>
      </trkpt>
      <trkpt lat="49.26919" lon="-1.40325">
        <ele>-1.3</ele>
        <time>2022-02-02T15:10:31Z</time>
      </trkpt>
      <trkpt lat="49.26921" lon="-1.40332">
        <ele>-1</ele>
        <time>2022-02-02T15:10:36Z</time>
      </trkpt>
      <trkpt lat="49.26916" lon="-1.40331">
        <ele>-1.6</ele>
        <time>2022-02-02T15:11:14Z</time>
      </trkpt>
      <trkpt lat="49.26912" lon="-1.40334">
        <ele>-1.5</ele>
        <time>2022-02-02T15:11:17Z</time>
      </trkpt>
      <trkpt lat="49.2691" lon="-1.40341">
        <ele>-1.5</ele>
        <time>2022-02-02T15:11:22Z</time>
      </trkpt>
      <trkpt lat="49.26913" lon="-1.40346">
        <ele>0.6</ele>
        <time>2022-02-02T15:11:53Z</time>
      </trkpt>
      <trkpt lat="49.26908" lon="-1.40344">
        <ele>-0.3</ele>
        <time>2022-02-02T15:12:24Z</time>
      </trkpt>
      <trkpt lat="49.26901" lon="-1.40345">
        <ele>-0.3</ele>
        <time>2022-02-02T15:12:27Z</time>
      </trkpt>
      <trkpt lat="49.26896" lon="-1.40348">
        <ele>-0.2</ele>
        <time>2022-02-02T15:12:31Z</time>
      </trkpt>
      <trkpt lat="49.2689" lon="-1.40351">
        <ele>4.6</ele>
        <time>2022-02-02T15:12:35Z</time>
      </trkpt>
      <trkpt lat="49.26885" lon="-1.40356">
        <ele>0.4</ele>
        <time>2022-02-02T15:12:39Z</time>
      </trkpt>
      <trkpt lat="49.2688" lon="-1.4036">
        <ele>0.7</ele>
        <time>2022-02-02T15:12:43Z</time>
      </trkpt>
      <trkpt lat="49.26876" lon="-1.40363">
        <ele>0.8</ele>
        <time>2022-02-02T15:12:46Z</time>
      </trkpt>
      <trkpt lat="49.26872" lon="-1.40368">
        <ele>1.2</ele>
        <time>2022-02-02T15:12:50Z</time>
      </trkpt>
      <trkpt lat="49.26868" lon="-1.40371">
        <ele>1.3</ele>
        <time>2022-02-02T15:12:54Z</time>
      </trkpt>
      <trkpt lat="49.26863" lon="-1.40375">
        <ele>1.2</ele>
        <time>2022-02-02T15:12:58Z</time>
      </trkpt>
      <trkpt lat="49.2686" lon="-1.40381">
        <ele>1</ele>
        <time>2022-02-02T15:13:02Z</time>
      </trkpt>
      <trkpt lat="49.26856" lon="-1.40385">
        <ele>0.8</ele>
        <time>2022-02-02T15:13:09Z</time>
      </trkpt>
      <trkpt lat="49.26853" lon="-1.40392">
        <ele>0.7</ele>
        <time>2022-02-02T15:13:15Z</time>
      </trkpt>
      <trkpt lat="49.26853" lon="-1.40399">
        <ele>0.3</ele>
        <time>2022-02-02T15:13:45Z</time>
      </trkpt>
      <trkpt lat="49.26849" lon="-1.40393">
        <ele>-1.1</ele>
        <time>2022-02-02T15:15:17Z</time>
      </trkpt>
      <trkpt lat="49.26845" lon="-1.40396">
        <ele>-1.2</ele>
        <time>2022-02-02T15:15:19Z</time>
      </trkpt>
      <trkpt lat="49.2684" lon="-1.40399">
        <ele>-1.3</ele>
        <time>2022-02-02T15:15:22Z</time>
      </trkpt>
      <trkpt lat="49.26835" lon="-1.40401">
        <ele>-1.3</ele>
        <time>2022-02-02T15:15:25Z</time>
      </trkpt>
      <trkpt lat="49.26831" lon="-1.40406">
        <ele>-1.3</ele>
        <time>2022-02-02T15:15:29Z</time>
      </trkpt>
      <trkpt lat="49.26826" lon="-1.40407">
        <ele>-1.4</ele>
        <time>2022-02-02T15:15:32Z</time>
      </trkpt>
      <trkpt lat="49.26822" lon="-1.40409">
        <ele>-1.6</ele>
        <time>2022-02-02T15:15:35Z</time>
      </trkpt>
      <trkpt lat="49.26817" lon="-1.40412">
        <ele>-1.6</ele>
        <time>2022-02-02T15:15:39Z</time>
      </trkpt>
      <trkpt lat="49.26813" lon="-1.4041">
        <ele>-1.7</ele>
        <time>2022-02-02T15:15:42Z</time>
      </trkpt>
      <trkpt lat="49.26808" lon="-1.4041">
        <ele>-1.5</ele>
        <time>2022-02-02T15:15:45Z</time>
      </trkpt>
      <trkpt lat="49.26804" lon="-1.40412">
        <ele>-1.3</ele>
        <time>2022-02-02T15:15:48Z</time>
      </trkpt>
      <trkpt lat="49.26798" lon="-1.40412">
        <ele>-0.5</ele>
        <time>2022-02-02T15:15:52Z</time>
      </trkpt>
      <trkpt lat="49.26793" lon="-1.40413">
        <ele>5</ele>
        <time>2022-02-02T15:15:55Z</time>
      </trkpt>
      <trkpt lat="49.26789" lon="-1.40415">
        <ele>0.2</ele>
        <time>2022-02-02T15:15:58Z</time>
      </trkpt>
      <trkpt lat="49.26783" lon="-1.40417">
        <ele>-0.3</ele>
        <time>2022-02-02T15:16:02Z</time>
      </trkpt>
      <trkpt lat="49.26781" lon="-1.40423">
        <ele>-1.1</ele>
        <time>2022-02-02T15:16:19Z</time>
      </trkpt>
      <trkpt lat="49.26783" lon="-1.40429">
        <ele>4.6</ele>
        <time>2022-02-02T15:16:48Z</time>
      </trkpt>
      <trkpt lat="49.26781" lon="-1.40423">
        <ele>2</ele>
        <time>2022-02-02T15:18:06Z</time>
      </trkpt>
      <trkpt lat="49.26778" lon="-1.40417">
        <ele>2.1</ele>
        <time>2022-02-02T15:18:23Z</time>
      </trkpt>
      <trkpt lat="49.26772" lon="-1.40417">
        <ele>2.1</ele>
        <time>2022-02-02T15:18:28Z</time>
      </trkpt>
      <trkpt lat="49.26766" lon="-1.40416">
        <ele>2.2</ele>
        <time>2022-02-02T15:18:31Z</time>
      </trkpt>
      <trkpt lat="49.26761" lon="-1.40418">
        <ele>2.2</ele>
        <time>2022-02-02T15:18:35Z</time>
      </trkpt>
      <trkpt lat="49.26755" lon="-1.4042">
        <ele>1.6</ele>
        <time>2022-02-02T15:18:39Z</time>
      </trkpt>
      <trkpt lat="49.2675" lon="-1.40422">
        <ele>0.7</ele>
        <time>2022-02-02T15:18:43Z</time>
      </trkpt>
      <trkpt lat="49.26745" lon="-1.40424">
        <ele>0.4</ele>
        <time>2022-02-02T15:18:46Z</time>
      </trkpt>
      <trkpt lat="49.2674" lon="-1.40425">
        <ele>0.4</ele>
        <time>2022-02-02T15:18:50Z</time>
      </trkpt>
      <trkpt lat="49.26735" lon="-1.40425">
        <ele>0.2</ele>
        <time>2022-02-02T15:18:53Z</time>
      </trkpt>
      <trkpt lat="49.26731" lon="-1.40426">
        <ele>0.1</ele>
        <time>2022-02-02T15:18:57Z</time>
      </trkpt>
      <trkpt lat="49.26726" lon="-1.40428">
        <ele>-0.2</ele>
        <time>2022-02-02T15:19:00Z</time>
      </trkpt>
      <trkpt lat="49.2672" lon="-1.40427">
        <ele>-0.4</ele>
        <time>2022-02-02T15:19:05Z</time>
      </trkpt>
      <trkpt lat="49.26713" lon="-1.40432">
        <ele>-0.3</ele>
        <time>2022-02-02T15:19:10Z</time>
      </trkpt>
      <trkpt lat="49.26707" lon="-1.40435">
        <ele>-0.1</ele>
        <time>2022-02-02T15:19:15Z</time>
      </trkpt>
      <trkpt lat="49.26702" lon="-1.40437">
        <ele>0.3</ele>
        <time>2022-02-02T15:19:18Z</time>
      </trkpt>
      <trkpt lat="49.26697" lon="-1.40439">
        <ele>0.6</ele>
        <time>2022-02-02T15:19:22Z</time>
      </trkpt>
      <trkpt lat="49.26692" lon="-1.40439">
        <ele>0.8</ele>
        <time>2022-02-02T15:19:25Z</time>
      </trkpt>
      <trkpt lat="49.26688" lon="-1.40441">
        <ele>0.9</ele>
        <time>2022-02-02T15:19:29Z</time>
      </trkpt>
      <trkpt lat="49.26683" lon="-1.40443">
        <ele>0.9</ele>
        <time>2022-02-02T15:19:33Z</time>
      </trkpt>
      <trkpt lat="49.26677" lon="-1.40445">
        <ele>0.8</ele>
        <time>2022-02-02T15:19:37Z</time>
      </trkpt>
      <trkpt lat="49.26671" lon="-1.40447">
        <ele>0.6</ele>
        <time>2022-02-02T15:19:42Z</time>
      </trkpt>
      <trkpt lat="49.26666" lon="-1.40451">
        <ele>4.2</ele>
        <time>2022-02-02T15:19:55Z</time>
      </trkpt>
      <trkpt lat="49.26661" lon="-1.40454">
        <ele>-0.1</ele>
        <time>2022-02-02T15:19:57Z</time>
      </trkpt>
      <trkpt lat="49.26656" lon="-1.40454">
        <ele>-0.4</ele>
        <time>2022-02-02T15:20:01Z</time>
      </trkpt>
      <trkpt lat="49.2665" lon="-1.40456">
        <ele>-0.5</ele>
        <time>2022-02-02T15:20:04Z</time>
      </trkpt>
      <trkpt lat="49.26645" lon="-1.40457">
        <ele>-0.5</ele>
        <time>2022-02-02T15:20:07Z</time>
      </trkpt>
      <trkpt lat="49.26639" lon="-1.40458">
        <ele>-0.5</ele>
        <time>2022-02-02T15:20:10Z</time>
      </trkpt>
      <trkpt lat="49.26635" lon="-1.40459">
        <ele>-0.6</ele>
        <time>2022-02-02T15:20:13Z</time>
      </trkpt>
      <trkpt lat="49.26629" lon="-1.40459">
        <ele>-0.6</ele>
        <time>2022-02-02T15:20:18Z</time>
      </trkpt>
      <trkpt lat="49.26623" lon="-1.4046">
        <ele>-0.5</ele>
        <time>2022-02-02T15:20:22Z</time>
      </trkpt>
      <trkpt lat="49.26618" lon="-1.40459">
        <ele>-0.4</ele>
        <time>2022-02-02T15:20:25Z</time>
      </trkpt>
      <trkpt lat="49.26613" lon="-1.40462">
        <ele>-0.3</ele>
        <time>2022-02-02T15:20:29Z</time>
      </trkpt>
      <trkpt lat="49.26608" lon="-1.40465">
        <ele>-0.1</ele>
        <time>2022-02-02T15:20:33Z</time>
      </trkpt>
      <trkpt lat="49.26603" lon="-1.40466">
        <ele>0.1</ele>
        <time>2022-02-02T15:20:36Z</time>
      </trkpt>
      <trkpt lat="49.26598" lon="-1.40467">
        <ele>0.2</ele>
        <time>2022-02-02T15:20:40Z</time>
      </trkpt>
      <trkpt lat="49.26593" lon="-1.40468">
        <ele>0.5</ele>
        <time>2022-02-02T15:20:54Z</time>
      </trkpt>
      <trkpt lat="49.26588" lon="-1.40468">
        <ele>0.5</ele>
        <time>2022-02-02T15:20:57Z</time>
      </trkpt>
      <trkpt lat="49.26583" lon="-1.40468">
        <ele>0.3</ele>
        <time>2022-02-02T15:21:02Z</time>
      </trkpt>
      <trkpt lat="49.26579" lon="-1.40471">
        <ele>4</ele>
        <time>2022-02-02T15:21:05Z</time>
      </trkpt>
      <trkpt lat="49.26574" lon="-1.4047">
        <ele>-0.1</ele>
        <time>2022-02-02T15:21:15Z</time>
      </trkpt>
      <trkpt lat="49.26569" lon="-1.40471">
        <ele>4</ele>
        <time>2022-02-02T15:21:21Z</time>
      </trkpt>
      <trkpt lat="49.26563" lon="-1.40472">
        <ele>-0.1</ele>
        <time>2022-02-02T15:21:25Z</time>
      </trkpt>
      <trkpt lat="49.26559" lon="-1.40476">
        <ele>4.1</ele>
        <time>2022-02-02T15:21:29Z</time>
      </trkpt>
      <trkpt lat="49.26555" lon="-1.40483">
        <ele>0.3</ele>
        <time>2022-02-02T15:21:34Z</time>
      </trkpt>
      <trkpt lat="49.2655" lon="-1.40484">
        <ele>-0.4</ele>
        <time>2022-02-02T15:21:58Z</time>
      </trkpt>
      <trkpt lat="49.26555" lon="-1.40487">
        <ele>5.2</ele>
        <time>2022-02-02T15:22:22Z</time>
      </trkpt>
      <trkpt lat="49.26558" lon="-1.40491">
        <ele>4.4</ele>
        <time>2022-02-02T15:22:38Z</time>
      </trkpt>
      <trkpt lat="49.26556" lon="-1.40497">
        <ele>4.3</ele>
        <time>2022-02-02T15:22:46Z</time>
      </trkpt>
      <trkpt lat="49.26555" lon="-1.40505">
        <ele>4.3</ele>
        <time>2022-02-02T15:22:49Z</time>
      </trkpt>
      <trkpt lat="49.26555" lon="-1.40512">
        <ele>4.5</ele>
        <time>2022-02-02T15:22:52Z</time>
      </trkpt>
      <trkpt lat="49.26555" lon="-1.40522">
        <ele>4.4</ele>
        <time>2022-02-02T15:22:56Z</time>
      </trkpt>
      <trkpt lat="49.26555" lon="-1.40529">
        <ele>4.4</ele>
        <time>2022-02-02T15:23:00Z</time>
      </trkpt>
      <trkpt lat="49.26554" lon="-1.40536">
        <ele>4.2</ele>
        <time>2022-02-02T15:23:03Z</time>
      </trkpt>
      <trkpt lat="49.26555" lon="-1.40544">
        <ele>4.2</ele>
        <time>2022-02-02T15:23:07Z</time>
      </trkpt>
      <trkpt lat="49.26555" lon="-1.40552">
        <ele>4.2</ele>
        <time>2022-02-02T15:23:11Z</time>
      </trkpt>
      <trkpt lat="49.26553" lon="-1.40559">
        <ele>4.5</ele>
        <time>2022-02-02T15:23:16Z</time>
      </trkpt>
      <trkpt lat="49.26551" lon="-1.40566">
        <ele>4.7</ele>
        <time>2022-02-02T15:23:20Z</time>
      </trkpt>
      <trkpt lat="49.26547" lon="-1.40571">
        <ele>4.9</ele>
        <time>2022-02-02T15:23:25Z</time>
      </trkpt>
      <trkpt lat="49.26543" lon="-1.40566">
        <ele>5.4</ele>
        <time>2022-02-02T15:23:34Z</time>
      </trkpt>
      <trkpt lat="49.26541" lon="-1.40559">
        <ele>5.3</ele>
        <time>2022-02-02T15:23:37Z</time>
      </trkpt>
      <trkpt lat="49.26539" lon="-1.40553">
        <ele>5.2</ele>
        <time>2022-02-02T15:23:40Z</time>
      </trkpt>
      <trkpt lat="49.26537" lon="-1.40546">
        <ele>4.9</ele>
        <time>2022-02-02T15:23:43Z</time>
      </trkpt>
      <trkpt lat="49.26534" lon="-1.40539">
        <ele>4.5</ele>
        <time>2022-02-02T15:23:47Z</time>
      </trkpt>
      <trkpt lat="49.26529" lon="-1.40534">
        <ele>4.3</ele>
        <time>2022-02-02T15:23:50Z</time>
      </trkpt>
      <trkpt lat="49.26526" lon="-1.40529">
        <ele>4.1</ele>
        <time>2022-02-02T15:23:54Z</time>
      </trkpt>
      <trkpt lat="49.26522" lon="-1.40525">
        <ele>4</ele>
        <time>2022-02-02T15:23:58Z</time>
      </trkpt>
      <trkpt lat="49.26518" lon="-1.40523">
        <ele>3.9</ele>
        <time>2022-02-02T15:24:01Z</time>
      </trkpt>
      <trkpt lat="49.26512" lon="-1.40525">
        <ele>3.7</ele>
        <time>2022-02-02T15:24:04Z</time>
      </trkpt>
      <trkpt lat="49.26507" lon="-1.40523">
        <ele>3.3</ele>
        <time>2022-02-02T15:24:08Z</time>
      </trkpt>
      <trkpt lat="49.26503" lon="-1.4052">
        <ele>3.1</ele>
        <time>2022-02-02T15:24:11Z</time>
      </trkpt>
      <trkpt lat="49.26497" lon="-1.4052">
        <ele>2.4</ele>
        <time>2022-02-02T15:24:15Z</time>
      </trkpt>
      <trkpt lat="49.26492" lon="-1.4052">
        <ele>1.9</ele>
        <time>2022-02-02T15:24:19Z</time>
      </trkpt>
      <trkpt lat="49.26487" lon="-1.4052">
        <ele>1.5</ele>
        <time>2022-02-02T15:24:22Z</time>
      </trkpt>
      <trkpt lat="49.26482" lon="-1.40519">
        <ele>1.1</ele>
        <time>2022-02-02T15:24:26Z</time>
      </trkpt>
      <trkpt lat="49.26476" lon="-1.40517">
        <ele>1.1</ele>
        <time>2022-02-02T15:24:30Z</time>
      </trkpt>
      <trkpt lat="49.2647" lon="-1.40516">
        <ele>1.2</ele>
        <time>2022-02-02T15:24:33Z</time>
      </trkpt>
      <trkpt lat="49.26465" lon="-1.40514">
        <ele>1.5</ele>
        <time>2022-02-02T15:24:38Z</time>
      </trkpt>
      <trkpt lat="49.2646" lon="-1.40512">
        <ele>1.5</ele>
        <time>2022-02-02T15:24:41Z</time>
      </trkpt>
      <trkpt lat="49.26455" lon="-1.40509">
        <ele>1.2</ele>
        <time>2022-02-02T15:24:44Z</time>
      </trkpt>
      <trkpt lat="49.26451" lon="-1.40507">
        <ele>0.8</ele>
        <time>2022-02-02T15:24:48Z</time>
      </trkpt>
      <trkpt lat="49.26445" lon="-1.40505">
        <ele>0.4</ele>
        <time>2022-02-02T15:24:52Z</time>
      </trkpt>
      <trkpt lat="49.2644" lon="-1.40502">
        <ele>0.3</ele>
        <time>2022-02-02T15:24:56Z</time>
      </trkpt>
      <trkpt lat="49.26434" lon="-1.40499">
        <ele>0.1</ele>
        <time>2022-02-02T15:25:00Z</time>
      </trkpt>
      <trkpt lat="49.2643" lon="-1.40497">
        <ele>-0.1</ele>
        <time>2022-02-02T15:25:03Z</time>
      </trkpt>
      <trkpt lat="49.26425" lon="-1.40495">
        <ele>-0.2</ele>
        <time>2022-02-02T15:25:06Z</time>
      </trkpt>
      <trkpt lat="49.26419" lon="-1.40495">
        <ele>-0.2</ele>
        <time>2022-02-02T15:25:11Z</time>
      </trkpt>
      <trkpt lat="49.26415" lon="-1.40494">
        <ele>5</ele>
        <time>2022-02-02T15:25:14Z</time>
      </trkpt>
      <trkpt lat="49.26409" lon="-1.40493">
        <ele>0.3</ele>
        <time>2022-02-02T15:25:19Z</time>
      </trkpt>
      <trkpt lat="49.26404" lon="-1.40491">
        <ele>0.6</ele>
        <time>2022-02-02T15:25:22Z</time>
      </trkpt>
      <trkpt lat="49.26399" lon="-1.4049">
        <ele>0.5</ele>
        <time>2022-02-02T15:25:25Z</time>
      </trkpt>
      <trkpt lat="49.26394" lon="-1.40488">
        <ele>0.2</ele>
        <time>2022-02-02T15:25:29Z</time>
      </trkpt>
      <trkpt lat="49.26389" lon="-1.40487">
        <ele>-0.1</ele>
        <time>2022-02-02T15:25:33Z</time>
      </trkpt>
      <trkpt lat="49.26384" lon="-1.40484">
        <ele>-0.1</ele>
        <time>2022-02-02T15:25:37Z</time>
      </trkpt>
      <trkpt lat="49.26379" lon="-1.4048">
        <ele>-0.2</ele>
        <time>2022-02-02T15:26:05Z</time>
      </trkpt>
      <trkpt lat="49.26375" lon="-1.40477">
        <ele>-0.3</ele>
        <time>2022-02-02T15:26:09Z</time>
      </trkpt>
      <trkpt lat="49.2637" lon="-1.40474">
        <ele>-0.3</ele>
        <time>2022-02-02T15:26:12Z</time>
      </trkpt>
      <trkpt lat="49.26365" lon="-1.40471">
        <ele>-0.2</ele>
        <time>2022-02-02T15:26:15Z</time>
      </trkpt>
      <trkpt lat="49.26361" lon="-1.40467">
        <ele>-0.2</ele>
        <time>2022-02-02T15:26:18Z</time>
      </trkpt>
      <trkpt lat="49.26355" lon="-1.40463">
        <ele>6</ele>
        <time>2022-02-02T15:26:21Z</time>
      </trkpt>
      <trkpt lat="49.26351" lon="-1.4046">
        <ele>6.5</ele>
        <time>2022-02-02T15:26:24Z</time>
      </trkpt>
      <trkpt lat="49.26346" lon="-1.40458">
        <ele>-0.1</ele>
        <time>2022-02-02T15:26:29Z</time>
      </trkpt>
      <trkpt lat="49.26342" lon="-1.40455">
        <ele>-0.1</ele>
        <time>2022-02-02T15:26:32Z</time>
      </trkpt>
      <trkpt lat="49.26338" lon="-1.40451">
        <ele>7.6</ele>
        <time>2022-02-02T15:26:36Z</time>
      </trkpt>
      <trkpt lat="49.26333" lon="-1.40448">
        <ele>0.1</ele>
        <time>2022-02-02T15:26:39Z</time>
      </trkpt>
      <trkpt lat="49.26328" lon="-1.40444">
        <ele>-0.2</ele>
        <time>2022-02-02T15:26:43Z</time>
      </trkpt>
      <trkpt lat="49.26325" lon="-1.40438">
        <ele>-0.6</ele>
        <time>2022-02-02T15:26:47Z</time>
      </trkpt>
      <trkpt lat="49.26322" lon="-1.40432">
        <ele>-0.9</ele>
        <time>2022-02-02T15:26:51Z</time>
      </trkpt>
      <trkpt lat="49.26318" lon="-1.40426">
        <ele>0.8</ele>
        <time>2022-02-02T15:27:05Z</time>
      </trkpt>
      <trkpt lat="49.26316" lon="-1.40417">
        <ele>1.1</ele>
        <time>2022-02-02T15:27:09Z</time>
      </trkpt>
      <trkpt lat="49.26314" lon="-1.4041">
        <ele>1.3</ele>
        <time>2022-02-02T15:27:12Z</time>
      </trkpt>
      <trkpt lat="49.26308" lon="-1.40415">
        <ele>2.3</ele>
        <time>2022-02-02T15:27:29Z</time>
      </trkpt>
      <trkpt lat="49.26304" lon="-1.40421">
        <ele>2.5</ele>
        <time>2022-02-02T15:27:34Z</time>
      </trkpt>
      <trkpt lat="49.26297" lon="-1.40426">
        <ele>3.2</ele>
        <time>2022-02-02T15:27:45Z</time>
      </trkpt>
      <trkpt lat="49.26292" lon="-1.40427">
        <ele>3.3</ele>
        <time>2022-02-02T15:27:48Z</time>
      </trkpt>
      <trkpt lat="49.26287" lon="-1.40431">
        <ele>3.6</ele>
        <time>2022-02-02T15:27:52Z</time>
      </trkpt>
      <trkpt lat="49.26283" lon="-1.40435">
        <ele>3.8</ele>
        <time>2022-02-02T15:27:56Z</time>
      </trkpt>
      <trkpt lat="49.26278" lon="-1.40437">
        <ele>4.1</ele>
        <time>2022-02-02T15:28:00Z</time>
      </trkpt>
      <trkpt lat="49.26273" lon="-1.40439">
        <ele>4.2</ele>
        <time>2022-02-02T15:28:04Z</time>
      </trkpt>
      <trkpt lat="49.26268" lon="-1.40443">
        <ele>4.4</ele>
        <time>2022-02-02T15:28:08Z</time>
      </trkpt>
      <trkpt lat="49.26262" lon="-1.40445">
        <ele>4.6</ele>
        <time>2022-02-02T15:28:13Z</time>
      </trkpt>
      <trkpt lat="49.26257" lon="-1.40447">
        <ele>5</ele>
        <time>2022-02-02T15:28:17Z</time>
      </trkpt>
      <trkpt lat="49.26253" lon="-1.4045">
        <ele>5.1</ele>
        <time>2022-02-02T15:28:21Z</time>
      </trkpt>
      <trkpt lat="49.26248" lon="-1.40455">
        <ele>4.9</ele>
        <time>2022-02-02T15:28:24Z</time>
      </trkpt>
      <trkpt lat="49.26244" lon="-1.40462">
        <ele>4.7</ele>
        <time>2022-02-02T15:28:28Z</time>
      </trkpt>
      <trkpt lat="49.26239" lon="-1.40467">
        <ele>4.6</ele>
        <time>2022-02-02T15:28:33Z</time>
      </trkpt>
      <trkpt lat="49.26235" lon="-1.40473">
        <ele>4.7</ele>
        <time>2022-02-02T15:28:38Z</time>
      </trkpt>
      <trkpt lat="49.26229" lon="-1.40475">
        <ele>4.5</ele>
        <time>2022-02-02T15:28:42Z</time>
      </trkpt>
      <trkpt lat="49.26225" lon="-1.40478">
        <ele>4.5</ele>
        <time>2022-02-02T15:28:45Z</time>
      </trkpt>
      <trkpt lat="49.2622" lon="-1.40478">
        <ele>4.6</ele>
        <time>2022-02-02T15:28:49Z</time>
      </trkpt>
      <trkpt lat="49.26215" lon="-1.40481">
        <ele>4.7</ele>
        <time>2022-02-02T15:28:52Z</time>
      </trkpt>
      <trkpt lat="49.26211" lon="-1.40485">
        <ele>4.8</ele>
        <time>2022-02-02T15:28:55Z</time>
      </trkpt>
      <trkpt lat="49.26205" lon="-1.40489">
        <ele>4.9</ele>
        <time>2022-02-02T15:28:59Z</time>
      </trkpt>
      <trkpt lat="49.262" lon="-1.40492">
        <ele>4.8</ele>
        <time>2022-02-02T15:29:02Z</time>
      </trkpt>
      <trkpt lat="49.2619" lon="-1.40495">
        <ele>4.4</ele>
        <time>2022-02-02T15:29:12Z</time>
      </trkpt>
      <trkpt lat="49.26185" lon="-1.40493">
        <ele>4.8</ele>
        <time>2022-02-02T15:29:16Z</time>
      </trkpt>
      <trkpt lat="49.26181" lon="-1.40495">
        <ele>4.8</ele>
        <time>2022-02-02T15:29:19Z</time>
      </trkpt>
      <trkpt lat="49.26176" lon="-1.40498">
        <ele>4.7</ele>
        <time>2022-02-02T15:29:22Z</time>
      </trkpt>
      <trkpt lat="49.26172" lon="-1.40504">
        <ele>4.4</ele>
        <time>2022-02-02T15:29:25Z</time>
      </trkpt>
      <trkpt lat="49.26167" lon="-1.40506">
        <ele>4.3</ele>
        <time>2022-02-02T15:29:29Z</time>
      </trkpt>
      <trkpt lat="49.26162" lon="-1.4051">
        <ele>4.2</ele>
        <time>2022-02-02T15:29:33Z</time>
      </trkpt>
      <trkpt lat="49.26159" lon="-1.40516">
        <ele>4.1</ele>
        <time>2022-02-02T15:29:37Z</time>
      </trkpt>
      <trkpt lat="49.26154" lon="-1.40514">
        <ele>4.2</ele>
        <time>2022-02-02T15:29:42Z</time>
      </trkpt>
      <trkpt lat="49.26149" lon="-1.40516">
        <ele>4.4</ele>
        <time>2022-02-02T15:29:45Z</time>
      </trkpt>
      <trkpt lat="49.26145" lon="-1.40519">
        <ele>4.6</ele>
        <time>2022-02-02T15:29:48Z</time>
      </trkpt>
      <trkpt lat="49.26127" lon="-1.40534">
        <ele>4.8</ele>
        <time>2022-02-02T15:30:01Z</time>
      </trkpt>
      <trkpt lat="49.26123" lon="-1.40538">
        <ele>5.2</ele>
        <time>2022-02-02T15:30:04Z</time>
      </trkpt>
      <trkpt lat="49.26118" lon="-1.40542">
        <ele>5.6</ele>
        <time>2022-02-02T15:30:09Z</time>
      </trkpt>
      <trkpt lat="49.26113" lon="-1.40544">
        <ele>5.5</ele>
        <time>2022-02-02T15:30:13Z</time>
      </trkpt>
      <trkpt lat="49.26107" lon="-1.40546">
        <ele>4.8</ele>
        <time>2022-02-02T15:30:18Z</time>
      </trkpt>
      <trkpt lat="49.261" lon="-1.40547">
        <ele>3.9</ele>
        <time>2022-02-02T15:30:22Z</time>
      </trkpt>
      <trkpt lat="49.26095" lon="-1.4055">
        <ele>3.2</ele>
        <time>2022-02-02T15:30:27Z</time>
      </trkpt>
      <trkpt lat="49.26089" lon="-1.40551">
        <ele>3.4</ele>
        <time>2022-02-02T15:30:31Z</time>
      </trkpt>
      <trkpt lat="49.26085" lon="-1.40549">
        <ele>3.6</ele>
        <time>2022-02-02T15:30:34Z</time>
      </trkpt>
      <trkpt lat="49.26079" lon="-1.40546">
        <ele>4.1</ele>
        <time>2022-02-02T15:30:38Z</time>
      </trkpt>
      <trkpt lat="49.26075" lon="-1.40543">
        <ele>4.4</ele>
        <time>2022-02-02T15:30:42Z</time>
      </trkpt>
      <trkpt lat="49.2607" lon="-1.40543">
        <ele>4.4</ele>
        <time>2022-02-02T15:30:46Z</time>
      </trkpt>
      <trkpt lat="49.26065" lon="-1.40546">
        <ele>4.3</ele>
        <time>2022-02-02T15:30:51Z</time>
      </trkpt>
      <trkpt lat="49.26063" lon="-1.4054">
        <ele>4.8</ele>
        <time>2022-02-02T15:31:14Z</time>
      </trkpt>
      <trkpt lat="49.26058" lon="-1.40537">
        <ele>5</ele>
        <time>2022-02-02T15:31:17Z</time>
      </trkpt>
      <trkpt lat="49.26054" lon="-1.40539">
        <ele>5.2</ele>
        <time>2022-02-02T15:31:21Z</time>
      </trkpt>
      <trkpt lat="49.26049" lon="-1.40538">
        <ele>5.4</ele>
        <time>2022-02-02T15:31:24Z</time>
      </trkpt>
      <trkpt lat="49.26043" lon="-1.40536">
        <ele>5.5</ele>
        <time>2022-02-02T15:31:28Z</time>
      </trkpt>
      <trkpt lat="49.26038" lon="-1.40535">
        <ele>5.7</ele>
        <time>2022-02-02T15:31:32Z</time>
      </trkpt>
      <trkpt lat="49.26033" lon="-1.40531">
        <ele>5.9</ele>
        <time>2022-02-02T15:31:37Z</time>
      </trkpt>
      <trkpt lat="49.26029" lon="-1.40528">
        <ele>6.1</ele>
        <time>2022-02-02T15:31:41Z</time>
      </trkpt>
      <trkpt lat="49.26024" lon="-1.40528">
        <ele>6.4</ele>
        <time>2022-02-02T15:31:44Z</time>
      </trkpt>
      <trkpt lat="49.2602" lon="-1.40534">
        <ele>6.6</ele>
        <time>2022-02-02T15:31:47Z</time>
      </trkpt>
      <trkpt lat="49.26015" lon="-1.40531">
        <ele>6.8</ele>
        <time>2022-02-02T15:31:51Z</time>
      </trkpt>
      <trkpt lat="49.26011" lon="-1.40528">
        <ele>7.1</ele>
        <time>2022-02-02T15:31:54Z</time>
      </trkpt>
      <trkpt lat="49.26006" lon="-1.40529">
        <ele>7.3</ele>
        <time>2022-02-02T15:31:58Z</time>
      </trkpt>
      <trkpt lat="49.26007" lon="-1.40536">
        <ele>8.3</ele>
        <time>2022-02-02T15:32:15Z</time>
      </trkpt>
      <trkpt lat="49.26003" lon="-1.40531">
        <ele>8.8</ele>
        <time>2022-02-02T15:32:49Z</time>
      </trkpt>
      <trkpt lat="49.25997" lon="-1.40529">
        <ele>9</ele>
        <time>2022-02-02T15:32:52Z</time>
      </trkpt>
      <trkpt lat="49.25992" lon="-1.4053">
        <ele>9.2</ele>
        <time>2022-02-02T15:32:55Z</time>
      </trkpt>
      <trkpt lat="49.25987" lon="-1.4053">
        <ele>9.1</ele>
        <time>2022-02-02T15:32:58Z</time>
      </trkpt>
      <trkpt lat="49.25983" lon="-1.40526">
        <ele>8.6</ele>
        <time>2022-02-02T15:33:02Z</time>
      </trkpt>
      <trkpt lat="49.25978" lon="-1.40527">
        <ele>8</ele>
        <time>2022-02-02T15:33:05Z</time>
      </trkpt>
      <trkpt lat="49.25975" lon="-1.40531">
        <ele>7.6</ele>
        <time>2022-02-02T15:33:09Z</time>
      </trkpt>
      <trkpt lat="49.2597" lon="-1.40525">
        <ele>6.8</ele>
        <time>2022-02-02T15:33:19Z</time>
      </trkpt>
      <trkpt lat="49.25965" lon="-1.40522">
        <ele>6.3</ele>
        <time>2022-02-02T15:33:23Z</time>
      </trkpt>
      <trkpt lat="49.2596" lon="-1.40519">
        <ele>6</ele>
        <time>2022-02-02T15:33:26Z</time>
      </trkpt>
      <trkpt lat="49.25955" lon="-1.40518">
        <ele>6</ele>
        <time>2022-02-02T15:33:29Z</time>
      </trkpt>
      <trkpt lat="49.2595" lon="-1.40517">
        <ele>6</ele>
        <time>2022-02-02T15:33:32Z</time>
      </trkpt>
      <trkpt lat="49.25945" lon="-1.40516">
        <ele>6.1</ele>
        <time>2022-02-02T15:33:36Z</time>
      </trkpt>
      <trkpt lat="49.2594" lon="-1.40517">
        <ele>6.2</ele>
        <time>2022-02-02T15:33:39Z</time>
      </trkpt>
      <trkpt lat="49.25935" lon="-1.40519">
        <ele>6.4</ele>
        <time>2022-02-02T15:33:43Z</time>
      </trkpt>
      <trkpt lat="49.25931" lon="-1.40522">
        <ele>6.7</ele>
        <time>2022-02-02T15:33:47Z</time>
      </trkpt>
      <trkpt lat="49.25927" lon="-1.40527">
        <ele>6.9</ele>
        <time>2022-02-02T15:33:51Z</time>
      </trkpt>
      <trkpt lat="49.25923" lon="-1.40534">
        <ele>7.1</ele>
        <time>2022-02-02T15:33:55Z</time>
      </trkpt>
      <trkpt lat="49.25919" lon="-1.4054">
        <ele>7.1</ele>
        <time>2022-02-02T15:33:59Z</time>
      </trkpt>
      <trkpt lat="49.25915" lon="-1.40545">
        <ele>6.9</ele>
        <time>2022-02-02T15:34:03Z</time>
      </trkpt>
      <trkpt lat="49.25911" lon="-1.40549">
        <ele>6.9</ele>
        <time>2022-02-02T15:34:07Z</time>
      </trkpt>
      <trkpt lat="49.25906" lon="-1.40553">
        <ele>6.7</ele>
        <time>2022-02-02T15:34:12Z</time>
      </trkpt>
      <trkpt lat="49.25901" lon="-1.40559">
        <ele>6.6</ele>
        <time>2022-02-02T15:34:15Z</time>
      </trkpt>
      <trkpt lat="49.25898" lon="-1.40565">
        <ele>6.6</ele>
        <time>2022-02-02T15:34:18Z</time>
      </trkpt>
      <trkpt lat="49.25893" lon="-1.40568">
        <ele>6.7</ele>
        <time>2022-02-02T15:34:23Z</time>
      </trkpt>
      <trkpt lat="49.25887" lon="-1.40568">
        <ele>6.5</ele>
        <time>2022-02-02T15:34:27Z</time>
      </trkpt>
      <trkpt lat="49.25882" lon="-1.40572">
        <ele>6.3</ele>
        <time>2022-02-02T15:34:31Z</time>
      </trkpt>
      <trkpt lat="49.25877" lon="-1.4057">
        <ele>6.1</ele>
        <time>2022-02-02T15:34:35Z</time>
      </trkpt>
      <trkpt lat="49.25872" lon="-1.40564">
        <ele>7.2</ele>
        <time>2022-02-02T15:34:47Z</time>
      </trkpt>
      <trkpt lat="49.25868" lon="-1.4056">
        <ele>7.5</ele>
        <time>2022-02-02T15:34:51Z</time>
      </trkpt>
      <trkpt lat="49.25863" lon="-1.40556">
        <ele>7.8</ele>
        <time>2022-02-02T15:34:54Z</time>
      </trkpt>
      <trkpt lat="49.25859" lon="-1.40551">
        <ele>8.1</ele>
        <time>2022-02-02T15:34:58Z</time>
      </trkpt>
      <trkpt lat="49.25854" lon="-1.40546">
        <ele>8.5</ele>
        <time>2022-02-02T15:35:02Z</time>
      </trkpt>
      <trkpt lat="49.25849" lon="-1.40543">
        <ele>8.8</ele>
        <time>2022-02-02T15:35:06Z</time>
      </trkpt>
      <trkpt lat="49.25843" lon="-1.4054">
        <ele>9</ele>
        <time>2022-02-02T15:35:10Z</time>
      </trkpt>
      <trkpt lat="49.25839" lon="-1.40537">
        <ele>9.1</ele>
        <time>2022-02-02T15:35:13Z</time>
      </trkpt>
      <trkpt lat="49.25834" lon="-1.40533">
        <ele>9.5</ele>
        <time>2022-02-02T15:35:16Z</time>
      </trkpt>
      <trkpt lat="49.25829" lon="-1.4053">
        <ele>9.8</ele>
        <time>2022-02-02T15:35:20Z</time>
      </trkpt>
      <trkpt lat="49.25824" lon="-1.40527">
        <ele>10</ele>
        <time>2022-02-02T15:35:24Z</time>
      </trkpt>
      <trkpt lat="49.25818" lon="-1.40526">
        <ele>9.9</ele>
        <time>2022-02-02T15:35:28Z</time>
      </trkpt>
      <trkpt lat="49.25814" lon="-1.40531">
        <ele>9.7</ele>
        <time>2022-02-02T15:35:31Z</time>
      </trkpt>
      <trkpt lat="49.2581" lon="-1.40533">
        <ele>9.5</ele>
        <time>2022-02-02T15:35:34Z</time>
      </trkpt>
      <trkpt lat="49.25805" lon="-1.40537">
        <ele>9.3</ele>
        <time>2022-02-02T15:35:39Z</time>
      </trkpt>
      <trkpt lat="49.258" lon="-1.40536">
        <ele>8.8</ele>
        <time>2022-02-02T15:35:44Z</time>
      </trkpt>
      <trkpt lat="49.25795" lon="-1.40541">
        <ele>9.6</ele>
        <time>2022-02-02T15:35:54Z</time>
      </trkpt>
      <trkpt lat="49.25792" lon="-1.40549">
        <ele>9.6</ele>
        <time>2022-02-02T15:35:57Z</time>
      </trkpt>
      <trkpt lat="49.2579" lon="-1.40557">
        <ele>9.4</ele>
        <time>2022-02-02T15:36:01Z</time>
      </trkpt>
      <trkpt lat="49.25786" lon="-1.40563">
        <ele>9.3</ele>
        <time>2022-02-02T15:36:05Z</time>
      </trkpt>
      <trkpt lat="49.25783" lon="-1.40569">
        <ele>9.4</ele>
        <time>2022-02-02T15:36:09Z</time>
      </trkpt>
      <trkpt lat="49.25779" lon="-1.40574">
        <ele>9.3</ele>
        <time>2022-02-02T15:36:12Z</time>
      </trkpt>
      <trkpt lat="49.25775" lon="-1.40581">
        <ele>9.3</ele>
        <time>2022-02-02T15:36:17Z</time>
      </trkpt>
      <trkpt lat="49.25771" lon="-1.40586">
        <ele>9.1</ele>
        <time>2022-02-02T15:36:20Z</time>
      </trkpt>
      <trkpt lat="49.25767" lon="-1.40592">
        <ele>9</ele>
        <time>2022-02-02T15:36:24Z</time>
      </trkpt>
      <trkpt lat="49.25762" lon="-1.40597">
        <ele>9.1</ele>
        <time>2022-02-02T15:36:29Z</time>
      </trkpt>
      <trkpt lat="49.25759" lon="-1.40603">
        <ele>8.9</ele>
        <time>2022-02-02T15:36:33Z</time>
      </trkpt>
      <trkpt lat="49.25756" lon="-1.4061">
        <ele>8.1</ele>
        <time>2022-02-02T15:36:38Z</time>
      </trkpt>
      <trkpt lat="49.25752" lon="-1.40616">
        <ele>7.5</ele>
        <time>2022-02-02T15:36:42Z</time>
      </trkpt>
      <trkpt lat="49.25747" lon="-1.4062">
        <ele>6.9</ele>
        <time>2022-02-02T15:36:47Z</time>
      </trkpt>
      <trkpt lat="49.25744" lon="-1.40625">
        <ele>7</ele>
        <time>2022-02-02T15:36:50Z</time>
      </trkpt>
      <trkpt lat="49.25741" lon="-1.40632">
        <ele>7</ele>
        <time>2022-02-02T15:36:54Z</time>
      </trkpt>
      <trkpt lat="49.2574" lon="-1.40641">
        <ele>7</ele>
        <time>2022-02-02T15:36:57Z</time>
      </trkpt>
      <trkpt lat="49.25739" lon="-1.40647">
        <ele>6.7</ele>
        <time>2022-02-02T15:37:01Z</time>
      </trkpt>
      <trkpt lat="49.25736" lon="-1.40654">
        <ele>6.5</ele>
        <time>2022-02-02T15:37:04Z</time>
      </trkpt>
      <trkpt lat="49.25732" lon="-1.40661">
        <ele>7</ele>
        <time>2022-02-02T15:37:09Z</time>
      </trkpt>
      <trkpt lat="49.2573" lon="-1.40667">
        <ele>8.1</ele>
        <time>2022-02-02T15:37:13Z</time>
      </trkpt>
      <trkpt lat="49.25726" lon="-1.40673">
        <ele>8.4</ele>
        <time>2022-02-02T15:37:18Z</time>
      </trkpt>
      <trkpt lat="49.25723" lon="-1.4068">
        <ele>8.3</ele>
        <time>2022-02-02T15:37:22Z</time>
      </trkpt>
      <trkpt lat="49.25719" lon="-1.40685">
        <ele>8.1</ele>
        <time>2022-02-02T15:37:26Z</time>
      </trkpt>
      <trkpt lat="49.25716" lon="-1.40691">
        <ele>8.2</ele>
        <time>2022-02-02T15:37:29Z</time>
      </trkpt>
      <trkpt lat="49.25713" lon="-1.40697">
        <ele>8.5</ele>
        <time>2022-02-02T15:37:33Z</time>
      </trkpt>
      <trkpt lat="49.25708" lon="-1.40699">
        <ele>9</ele>
        <time>2022-02-02T15:37:38Z</time>
      </trkpt>
      <trkpt lat="49.25704" lon="-1.40706">
        <ele>9.3</ele>
        <time>2022-02-02T15:37:43Z</time>
      </trkpt>
      <trkpt lat="49.25702" lon="-1.40713">
        <ele>8.8</ele>
        <time>2022-02-02T15:37:48Z</time>
      </trkpt>
      <trkpt lat="49.25699" lon="-1.40719">
        <ele>8.6</ele>
        <time>2022-02-02T15:37:53Z</time>
      </trkpt>
      <trkpt lat="49.25693" lon="-1.40729">
        <ele>8.7</ele>
        <time>2022-02-02T15:38:05Z</time>
      </trkpt>
      <trkpt lat="49.25687" lon="-1.40727">
        <ele>11.5</ele>
        <time>2022-02-02T15:38:15Z</time>
      </trkpt>
      <trkpt lat="49.25682" lon="-1.40722">
        <ele>11.5</ele>
        <time>2022-02-02T15:38:19Z</time>
      </trkpt>
      <trkpt lat="49.25678" lon="-1.40717">
        <ele>11.5</ele>
        <time>2022-02-02T15:38:21Z</time>
      </trkpt>
      <trkpt lat="49.25675" lon="-1.40711">
        <ele>11.5</ele>
        <time>2022-02-02T15:38:23Z</time>
      </trkpt>
      <trkpt lat="49.25671" lon="-1.40704">
        <ele>11.7</ele>
        <time>2022-02-02T15:38:27Z</time>
      </trkpt>
      <trkpt lat="49.25667" lon="-1.40698">
        <ele>11.8</ele>
        <time>2022-02-02T15:38:30Z</time>
      </trkpt>
      <trkpt lat="49.25667" lon="-1.4069">
        <ele>11.9</ele>
        <time>2022-02-02T15:38:34Z</time>
      </trkpt>
      <trkpt lat="49.25666" lon="-1.40683">
        <ele>11.7</ele>
        <time>2022-02-02T15:38:39Z</time>
      </trkpt>
      <trkpt lat="49.25662" lon="-1.40681">
        <ele>11</ele>
        <time>2022-02-02T15:38:49Z</time>
      </trkpt>
      <trkpt lat="49.25658" lon="-1.40687">
        <ele>11</ele>
        <time>2022-02-02T15:38:54Z</time>
      </trkpt>
      <trkpt lat="49.25654" lon="-1.40691">
        <ele>11.2</ele>
        <time>2022-02-02T15:38:57Z</time>
      </trkpt>
      <trkpt lat="49.2565" lon="-1.40694">
        <ele>11.4</ele>
        <time>2022-02-02T15:39:01Z</time>
      </trkpt>
      <trkpt lat="49.25645" lon="-1.4069">
        <ele>11.5</ele>
        <time>2022-02-02T15:39:05Z</time>
      </trkpt>
      <trkpt lat="49.2565" lon="-1.40693">
        <ele>12.2</ele>
        <time>2022-02-02T15:39:33Z</time>
      </trkpt>
      <trkpt lat="49.25656" lon="-1.40691">
        <ele>12.1</ele>
        <time>2022-02-02T15:39:36Z</time>
      </trkpt>
      <trkpt lat="49.25661" lon="-1.40687">
        <ele>12</ele>
        <time>2022-02-02T15:39:40Z</time>
      </trkpt>
      <trkpt lat="49.25665" lon="-1.4068">
        <ele>11.9</ele>
        <time>2022-02-02T15:39:44Z</time>
      </trkpt>
      <trkpt lat="49.25668" lon="-1.40673">
        <ele>11.9</ele>
        <time>2022-02-02T15:39:48Z</time>
      </trkpt>
      <trkpt lat="49.25669" lon="-1.40664">
        <ele>11.8</ele>
        <time>2022-02-02T15:39:51Z</time>
      </trkpt>
      <trkpt lat="49.25671" lon="-1.40656">
        <ele>11.6</ele>
        <time>2022-02-02T15:39:54Z</time>
      </trkpt>
      <trkpt lat="49.25673" lon="-1.40648">
        <ele>11.4</ele>
        <time>2022-02-02T15:39:58Z</time>
      </trkpt>
      <trkpt lat="49.25675" lon="-1.40641">
        <ele>11.1</ele>
        <time>2022-02-02T15:40:02Z</time>
      </trkpt>
      <trkpt lat="49.25678" lon="-1.40635">
        <ele>10.6</ele>
        <time>2022-02-02T15:40:06Z</time>
      </trkpt>
      <trkpt lat="49.25683" lon="-1.4063">
        <ele>10</ele>
        <time>2022-02-02T15:40:11Z</time>
      </trkpt>
      <trkpt lat="49.25688" lon="-1.40629">
        <ele>9</ele>
        <time>2022-02-02T15:40:16Z</time>
      </trkpt>
      <trkpt lat="49.25692" lon="-1.40625">
        <ele>8.4</ele>
        <time>2022-02-02T15:40:20Z</time>
      </trkpt>
      <trkpt lat="49.25696" lon="-1.40621">
        <ele>8</ele>
        <time>2022-02-02T15:40:23Z</time>
      </trkpt>
      <trkpt lat="49.25699" lon="-1.40616">
        <ele>7.7</ele>
        <time>2022-02-02T15:40:26Z</time>
      </trkpt>
      <trkpt lat="49.25702" lon="-1.40607">
        <ele>7.5</ele>
        <time>2022-02-02T15:40:29Z</time>
      </trkpt>
      <trkpt lat="49.25705" lon="-1.40602">
        <ele>7.5</ele>
        <time>2022-02-02T15:40:32Z</time>
      </trkpt>
      <trkpt lat="49.25708" lon="-1.40596">
        <ele>7.7</ele>
        <time>2022-02-02T15:40:36Z</time>
      </trkpt>
      <trkpt lat="49.25712" lon="-1.40589">
        <ele>7.7</ele>
        <time>2022-02-02T15:40:39Z</time>
      </trkpt>
      <trkpt lat="49.25714" lon="-1.40583">
        <ele>7.8</ele>
        <time>2022-02-02T15:40:42Z</time>
      </trkpt>
      <trkpt lat="49.25718" lon="-1.40578">
        <ele>7.9</ele>
        <time>2022-02-02T15:40:46Z</time>
      </trkpt>
      <trkpt lat="49.25722" lon="-1.40572">
        <ele>8.3</ele>
        <time>2022-02-02T15:40:50Z</time>
      </trkpt>
      <trkpt lat="49.25725" lon="-1.40567">
        <ele>8.4</ele>
        <time>2022-02-02T15:40:54Z</time>
      </trkpt>
      <trkpt lat="49.25729" lon="-1.40561">
        <ele>8.4</ele>
        <time>2022-02-02T15:40:58Z</time>
      </trkpt>
      <trkpt lat="49.25733" lon="-1.40557">
        <ele>8.6</ele>
        <time>2022-02-02T15:41:01Z</time>
      </trkpt>
      <trkpt lat="49.25737" lon="-1.40551">
        <ele>9.1</ele>
        <time>2022-02-02T15:41:04Z</time>
      </trkpt>
      <trkpt lat="49.2574" lon="-1.40545">
        <ele>9.6</ele>
        <time>2022-02-02T15:41:08Z</time>
      </trkpt>
      <trkpt lat="49.25745" lon="-1.40539">
        <ele>9.8</ele>
        <time>2022-02-02T15:41:11Z</time>
      </trkpt>
      <trkpt lat="49.25748" lon="-1.40534">
        <ele>10.1</ele>
        <time>2022-02-02T15:41:14Z</time>
      </trkpt>
      <trkpt lat="49.25751" lon="-1.40528">
        <ele>10.3</ele>
        <time>2022-02-02T15:41:17Z</time>
      </trkpt>
      <trkpt lat="49.25755" lon="-1.40522">
        <ele>10.6</ele>
        <time>2022-02-02T15:41:21Z</time>
      </trkpt>
      <trkpt lat="49.25757" lon="-1.40515">
        <ele>10.7</ele>
        <time>2022-02-02T15:41:24Z</time>
      </trkpt>
      <trkpt lat="49.25761" lon="-1.4051">
        <ele>10.5</ele>
        <time>2022-02-02T15:41:43Z</time>
      </trkpt>
      <trkpt lat="49.25755" lon="-1.40513">
        <ele>10.3</ele>
        <time>2022-02-02T15:41:53Z</time>
      </trkpt>
      <trkpt lat="49.2575" lon="-1.4051">
        <ele>10.2</ele>
        <time>2022-02-02T15:41:56Z</time>
      </trkpt>
      <trkpt lat="49.25745" lon="-1.40507">
        <ele>10.2</ele>
        <time>2022-02-02T15:42:01Z</time>
      </trkpt>
      <trkpt lat="49.25742" lon="-1.40501">
        <ele>10.2</ele>
        <time>2022-02-02T15:42:04Z</time>
      </trkpt>
      <trkpt lat="49.25739" lon="-1.40492">
        <ele>10.3</ele>
        <time>2022-02-02T15:42:08Z</time>
      </trkpt>
      <trkpt lat="49.25737" lon="-1.40485">
        <ele>10.5</ele>
        <time>2022-02-02T15:42:12Z</time>
      </trkpt>
      <trkpt lat="49.25732" lon="-1.40484">
        <ele>10.7</ele>
        <time>2022-02-02T15:42:16Z</time>
      </trkpt>
      <trkpt lat="49.25727" lon="-1.40479">
        <ele>10.9</ele>
        <time>2022-02-02T15:42:20Z</time>
      </trkpt>
      <trkpt lat="49.25724" lon="-1.40473">
        <ele>11</ele>
        <time>2022-02-02T15:42:24Z</time>
      </trkpt>
      <trkpt lat="49.25721" lon="-1.40467">
        <ele>11.3</ele>
        <time>2022-02-02T15:42:27Z</time>
      </trkpt>
      <trkpt lat="49.25719" lon="-1.4046">
        <ele>11.6</ele>
        <time>2022-02-02T15:42:31Z</time>
      </trkpt>
      <trkpt lat="49.25715" lon="-1.40454">
        <ele>12.2</ele>
        <time>2022-02-02T15:42:38Z</time>
      </trkpt>
      <trkpt lat="49.2571" lon="-1.40455">
        <ele>12.3</ele>
        <time>2022-02-02T15:42:41Z</time>
      </trkpt>
      <trkpt lat="49.25705" lon="-1.40452">
        <ele>12</ele>
        <time>2022-02-02T15:42:46Z</time>
      </trkpt>
      <trkpt lat="49.25702" lon="-1.40444">
        <ele>11.7</ele>
        <time>2022-02-02T15:42:49Z</time>
      </trkpt>
      <trkpt lat="49.257" lon="-1.40436">
        <ele>11.2</ele>
        <time>2022-02-02T15:42:53Z</time>
      </trkpt>
      <trkpt lat="49.25696" lon="-1.40432">
        <ele>10.8</ele>
        <time>2022-02-02T15:42:56Z</time>
      </trkpt>
      <trkpt lat="49.25692" lon="-1.40429">
        <ele>10.6</ele>
        <time>2022-02-02T15:43:00Z</time>
      </trkpt>
      <trkpt lat="49.25687" lon="-1.40423">
        <ele>10.7</ele>
        <time>2022-02-02T15:43:04Z</time>
      </trkpt>
      <trkpt lat="49.25684" lon="-1.40417">
        <ele>10.8</ele>
        <time>2022-02-02T15:43:09Z</time>
      </trkpt>
      <trkpt lat="49.2568" lon="-1.40413">
        <ele>10.7</ele>
        <time>2022-02-02T15:43:13Z</time>
      </trkpt>
      <trkpt lat="49.25676" lon="-1.40407">
        <ele>10.7</ele>
        <time>2022-02-02T15:43:17Z</time>
      </trkpt>
      <trkpt lat="49.25673" lon="-1.40402">
        <ele>10.8</ele>
        <time>2022-02-02T15:43:21Z</time>
      </trkpt>
      <trkpt lat="49.25669" lon="-1.40397">
        <ele>10.5</ele>
        <time>2022-02-02T15:43:26Z</time>
      </trkpt>
      <trkpt lat="49.25665" lon="-1.40393">
        <ele>10.1</ele>
        <time>2022-02-02T15:43:29Z</time>
      </trkpt>
      <trkpt lat="49.25661" lon="-1.40389">
        <ele>9.8</ele>
        <time>2022-02-02T15:43:34Z</time>
      </trkpt>
      <trkpt lat="49.25657" lon="-1.40383">
        <ele>9.8</ele>
        <time>2022-02-02T15:43:38Z</time>
      </trkpt>
      <trkpt lat="49.25653" lon="-1.4038">
        <ele>10.6</ele>
        <time>2022-02-02T15:43:48Z</time>
      </trkpt>
      <trkpt lat="49.25651" lon="-1.40374">
        <ele>10.1</ele>
        <time>2022-02-02T15:43:53Z</time>
      </trkpt>
      <trkpt lat="49.25646" lon="-1.40368">
        <ele>9.4</ele>
        <time>2022-02-02T15:43:56Z</time>
      </trkpt>
      <trkpt lat="49.25641" lon="-1.40357">
        <ele>9.1</ele>
        <time>2022-02-02T15:44:00Z</time>
      </trkpt>
      <trkpt lat="49.25639" lon="-1.4035">
        <ele>9.1</ele>
        <time>2022-02-02T15:44:04Z</time>
      </trkpt>
      <trkpt lat="49.25639" lon="-1.40343">
        <ele>8.8</ele>
        <time>2022-02-02T15:44:20Z</time>
      </trkpt>
      <trkpt lat="49.2564" lon="-1.40334">
        <ele>9</ele>
        <time>2022-02-02T15:44:24Z</time>
      </trkpt>
      <trkpt lat="49.25645" lon="-1.40327">
        <ele>9.4</ele>
        <time>2022-02-02T15:44:28Z</time>
      </trkpt>
      <trkpt lat="49.25651" lon="-1.40325">
        <ele>9.8</ele>
        <time>2022-02-02T15:44:32Z</time>
      </trkpt>
      <trkpt lat="49.25667" lon="-1.40314">
        <ele>9.9</ele>
        <time>2022-02-02T15:44:44Z</time>
      </trkpt>
      <trkpt lat="49.25672" lon="-1.40313">
        <ele>10.3</ele>
        <time>2022-02-02T15:44:57Z</time>
      </trkpt>
      <trkpt lat="49.25676" lon="-1.4031">
        <ele>10</ele>
        <time>2022-02-02T15:45:00Z</time>
      </trkpt>
      <trkpt lat="49.25678" lon="-1.40303">
        <ele>9.7</ele>
        <time>2022-02-02T15:45:03Z</time>
      </trkpt>
      <trkpt lat="49.25679" lon="-1.40296">
        <ele>9.1</ele>
        <time>2022-02-02T15:45:07Z</time>
      </trkpt>
      <trkpt lat="49.25682" lon="-1.40289">
        <ele>8.6</ele>
        <time>2022-02-02T15:45:11Z</time>
      </trkpt>
      <trkpt lat="49.25684" lon="-1.40282">
        <ele>8.5</ele>
        <time>2022-02-02T15:45:14Z</time>
      </trkpt>
      <trkpt lat="49.25686" lon="-1.40274">
        <ele>8.8</ele>
        <time>2022-02-02T15:45:17Z</time>
      </trkpt>
      <trkpt lat="49.25686" lon="-1.40262">
        <ele>9.3</ele>
        <time>2022-02-02T15:45:21Z</time>
      </trkpt>
      <trkpt lat="49.25684" lon="-1.40255">
        <ele>9.5</ele>
        <time>2022-02-02T15:45:25Z</time>
      </trkpt>
      <trkpt lat="49.2568" lon="-1.4025">
        <ele>9.8</ele>
        <time>2022-02-02T15:45:28Z</time>
      </trkpt>
      <trkpt lat="49.25679" lon="-1.40242">
        <ele>10.4</ele>
        <time>2022-02-02T15:45:33Z</time>
      </trkpt>
      <trkpt lat="49.25677" lon="-1.40236">
        <ele>11.3</ele>
        <time>2022-02-02T15:45:44Z</time>
      </trkpt>
      <trkpt lat="49.25673" lon="-1.40231">
        <ele>12.4</ele>
        <time>2022-02-02T15:46:16Z</time>
      </trkpt>
      <trkpt lat="49.25669" lon="-1.40224">
        <ele>12.3</ele>
        <time>2022-02-02T15:46:19Z</time>
      </trkpt>
      <trkpt lat="49.25656" lon="-1.40209">
        <ele>12</ele>
        <time>2022-02-02T15:46:28Z</time>
      </trkpt>
      <trkpt lat="49.25653" lon="-1.40203">
        <ele>12</ele>
        <time>2022-02-02T15:46:31Z</time>
      </trkpt>
      <trkpt lat="49.25646" lon="-1.40193">
        <ele>11.5</ele>
        <time>2022-02-02T15:46:36Z</time>
      </trkpt>
      <trkpt lat="49.25633" lon="-1.40173">
        <ele>10.7</ele>
        <time>2022-02-02T15:46:47Z</time>
      </trkpt>
      <trkpt lat="49.25619" lon="-1.40144">
        <ele>10.2</ele>
        <time>2022-02-02T15:47:01Z</time>
      </trkpt>
      <trkpt lat="49.25623" lon="-1.40114">
        <ele>10.1</ele>
        <time>2022-02-02T15:47:16Z</time>
      </trkpt>
      <trkpt lat="49.25623" lon="-1.40106">
        <ele>10.3</ele>
        <time>2022-02-02T15:47:21Z</time>
      </trkpt>
      <trkpt lat="49.25623" lon="-1.40098">
        <ele>10.6</ele>
        <time>2022-02-02T15:47:24Z</time>
      </trkpt>
      <trkpt lat="49.25622" lon="-1.4009">
        <ele>10.9</ele>
        <time>2022-02-02T15:47:32Z</time>
      </trkpt>
      <trkpt lat="49.25621" lon="-1.40082">
        <ele>10.7</ele>
        <time>2022-02-02T15:47:35Z</time>
      </trkpt>
      <trkpt lat="49.2562" lon="-1.40074">
        <ele>10.6</ele>
        <time>2022-02-02T15:47:39Z</time>
      </trkpt>
      <trkpt lat="49.25622" lon="-1.40067">
        <ele>10.7</ele>
        <time>2022-02-02T15:47:43Z</time>
      </trkpt>
      <trkpt lat="49.25621" lon="-1.40059">
        <ele>11.5</ele>
        <time>2022-02-02T15:47:53Z</time>
      </trkpt>
      <trkpt lat="49.2562" lon="-1.40051">
        <ele>11.6</ele>
        <time>2022-02-02T15:47:56Z</time>
      </trkpt>
      <trkpt lat="49.25619" lon="-1.40043">
        <ele>11.7</ele>
        <time>2022-02-02T15:48:00Z</time>
      </trkpt>
      <trkpt lat="49.25612" lon="-1.3999">
        <ele>11.5</ele>
        <time>2022-02-02T15:48:22Z</time>
      </trkpt>
      <trkpt lat="49.25606" lon="-1.39954">
        <ele>10.6</ele>
        <time>2022-02-02T15:48:38Z</time>
      </trkpt>
      <trkpt lat="49.25604" lon="-1.39948">
        <ele>9.8</ele>
        <time>2022-02-02T15:48:41Z</time>
      </trkpt>
      <trkpt lat="49.25601" lon="-1.3993">
        <ele>8.8</ele>
        <time>2022-02-02T15:48:48Z</time>
      </trkpt>
      <trkpt lat="49.25601" lon="-1.39922">
        <ele>8.8</ele>
        <time>2022-02-02T15:48:51Z</time>
      </trkpt>
      <trkpt lat="49.256" lon="-1.39913">
        <ele>9.2</ele>
        <time>2022-02-02T15:48:54Z</time>
      </trkpt>
      <trkpt lat="49.256" lon="-1.39906">
        <ele>9.4</ele>
        <time>2022-02-02T15:48:58Z</time>
      </trkpt>
      <trkpt lat="49.25598" lon="-1.39897">
        <ele>9.4</ele>
        <time>2022-02-02T15:49:02Z</time>
      </trkpt>
      <trkpt lat="49.25597" lon="-1.3989">
        <ele>9.4</ele>
        <time>2022-02-02T15:49:06Z</time>
      </trkpt>
      <trkpt lat="49.25599" lon="-1.39882">
        <ele>9.2</ele>
        <time>2022-02-02T15:49:10Z</time>
      </trkpt>
      <trkpt lat="49.25597" lon="-1.39873">
        <ele>9</ele>
        <time>2022-02-02T15:49:14Z</time>
      </trkpt>
      <trkpt lat="49.25594" lon="-1.3985">
        <ele>9.1</ele>
        <time>2022-02-02T15:49:23Z</time>
      </trkpt>
      <trkpt lat="49.25594" lon="-1.39843">
        <ele>9.2</ele>
        <time>2022-02-02T15:49:27Z</time>
      </trkpt>
      <trkpt lat="49.25594" lon="-1.39835">
        <ele>9.7</ele>
        <time>2022-02-02T15:49:37Z</time>
      </trkpt>
      <trkpt lat="49.25593" lon="-1.39828">
        <ele>9.5</ele>
        <time>2022-02-02T15:49:54Z</time>
      </trkpt>
      <trkpt lat="49.25593" lon="-1.3982">
        <ele>9.2</ele>
        <time>2022-02-02T15:50:08Z</time>
      </trkpt>
      <trkpt lat="49.2559" lon="-1.39812">
        <ele>9</ele>
        <time>2022-02-02T15:50:12Z</time>
      </trkpt>
      <trkpt lat="49.25588" lon="-1.39805">
        <ele>8.8</ele>
        <time>2022-02-02T15:50:15Z</time>
      </trkpt>
      <trkpt lat="49.25587" lon="-1.39797">
        <ele>8.7</ele>
        <time>2022-02-02T15:50:18Z</time>
      </trkpt>
      <trkpt lat="49.25582" lon="-1.3978">
        <ele>8.7</ele>
        <time>2022-02-02T15:50:28Z</time>
      </trkpt>
      <trkpt lat="49.25587" lon="-1.39778">
        <ele>8.6</ele>
        <time>2022-02-02T15:50:50Z</time>
      </trkpt>
      <trkpt lat="49.25585" lon="-1.3977">
        <ele>8.4</ele>
        <time>2022-02-02T15:50:53Z</time>
      </trkpt>
      <trkpt lat="49.25582" lon="-1.39763">
        <ele>8.4</ele>
        <time>2022-02-02T15:50:55Z</time>
      </trkpt>
      <trkpt lat="49.25582" lon="-1.39756">
        <ele>8.4</ele>
        <time>2022-02-02T15:50:58Z</time>
      </trkpt>
      <trkpt lat="49.25583" lon="-1.39746">
        <ele>8.7</ele>
        <time>2022-02-02T15:51:01Z</time>
      </trkpt>
      <trkpt lat="49.25583" lon="-1.39738">
        <ele>9.2</ele>
        <time>2022-02-02T15:51:04Z</time>
      </trkpt>
      <trkpt lat="49.25583" lon="-1.39731">
        <ele>9.3</ele>
        <time>2022-02-02T15:51:08Z</time>
      </trkpt>
      <trkpt lat="49.25581" lon="-1.39723">
        <ele>9.1</ele>
        <time>2022-02-02T15:51:14Z</time>
      </trkpt>
      <trkpt lat="49.25576" lon="-1.39723">
        <ele>9</ele>
        <time>2022-02-02T15:51:20Z</time>
      </trkpt>
      <trkpt lat="49.25577" lon="-1.39713">
        <ele>9.2</ele>
        <time>2022-02-02T15:51:45Z</time>
      </trkpt>
      <trkpt lat="49.25577" lon="-1.39704">
        <ele>9</ele>
        <time>2022-02-02T15:51:48Z</time>
      </trkpt>
      <trkpt lat="49.25578" lon="-1.39697">
        <ele>8.7</ele>
        <time>2022-02-02T15:51:57Z</time>
      </trkpt>
      <trkpt lat="49.25579" lon="-1.39689">
        <ele>9.2</ele>
        <time>2022-02-02T15:52:00Z</time>
      </trkpt>
      <trkpt lat="49.25578" lon="-1.3968">
        <ele>9.8</ele>
        <time>2022-02-02T15:52:03Z</time>
      </trkpt>
      <trkpt lat="49.25578" lon="-1.39672">
        <ele>10.3</ele>
        <time>2022-02-02T15:52:06Z</time>
      </trkpt>
      <trkpt lat="49.25576" lon="-1.39666">
        <ele>10.2</ele>
        <time>2022-02-02T15:52:09Z</time>
      </trkpt>
      <trkpt lat="49.25573" lon="-1.39658">
        <ele>10.2</ele>
        <time>2022-02-02T15:52:12Z</time>
      </trkpt>
      <trkpt lat="49.2557" lon="-1.39651">
        <ele>10.2</ele>
        <time>2022-02-02T15:52:16Z</time>
      </trkpt>
      <trkpt lat="49.25569" lon="-1.3963">
        <ele>9.4</ele>
        <time>2022-02-02T15:52:25Z</time>
      </trkpt>
      <trkpt lat="49.25571" lon="-1.39617">
        <ele>8.5</ele>
        <time>2022-02-02T15:52:31Z</time>
      </trkpt>
      <trkpt lat="49.25571" lon="-1.39609">
        <ele>7.9</ele>
        <time>2022-02-02T15:52:35Z</time>
      </trkpt>
      <trkpt lat="49.25569" lon="-1.39601">
        <ele>7.7</ele>
        <time>2022-02-02T15:52:39Z</time>
      </trkpt>
      <trkpt lat="49.25568" lon="-1.39593">
        <ele>7.9</ele>
        <time>2022-02-02T15:52:43Z</time>
      </trkpt>
      <trkpt lat="49.25568" lon="-1.39585">
        <ele>8.2</ele>
        <time>2022-02-02T15:52:46Z</time>
      </trkpt>
      <trkpt lat="49.25566" lon="-1.39578">
        <ele>8.4</ele>
        <time>2022-02-02T15:52:50Z</time>
      </trkpt>
      <trkpt lat="49.25565" lon="-1.3957">
        <ele>8.1</ele>
        <time>2022-02-02T15:52:53Z</time>
      </trkpt>
      <trkpt lat="49.25563" lon="-1.39563">
        <ele>7.4</ele>
        <time>2022-02-02T15:52:57Z</time>
      </trkpt>
      <trkpt lat="49.2556" lon="-1.39555">
        <ele>6.8</ele>
        <time>2022-02-02T15:53:01Z</time>
      </trkpt>
      <trkpt lat="49.25557" lon="-1.39549">
        <ele>6.4</ele>
        <time>2022-02-02T15:53:05Z</time>
      </trkpt>
      <trkpt lat="49.25557" lon="-1.3954">
        <ele>5.9</ele>
        <time>2022-02-02T15:53:10Z</time>
      </trkpt>
      <trkpt lat="49.25554" lon="-1.39532">
        <ele>5.5</ele>
        <time>2022-02-02T15:53:14Z</time>
      </trkpt>
      <trkpt lat="49.25551" lon="-1.39524">
        <ele>5.5</ele>
        <time>2022-02-02T15:53:18Z</time>
      </trkpt>
      <trkpt lat="49.25556" lon="-1.39519">
        <ele>8</ele>
        <time>2022-02-02T15:53:48Z</time>
      </trkpt>
      <trkpt lat="49.25555" lon="-1.39511">
        <ele>8.3</ele>
        <time>2022-02-02T15:53:51Z</time>
      </trkpt>
      <trkpt lat="49.25553" lon="-1.39499">
        <ele>7.9</ele>
        <time>2022-02-02T15:53:58Z</time>
      </trkpt>
      <trkpt lat="49.25554" lon="-1.39491">
        <ele>7.1</ele>
        <time>2022-02-02T15:54:02Z</time>
      </trkpt>
      <trkpt lat="49.25553" lon="-1.39483">
        <ele>6.3</ele>
        <time>2022-02-02T15:54:05Z</time>
      </trkpt>
      <trkpt lat="49.2555" lon="-1.39476">
        <ele>5.8</ele>
        <time>2022-02-02T15:54:08Z</time>
      </trkpt>
      <trkpt lat="49.25546" lon="-1.39462">
        <ele>4.4</ele>
        <time>2022-02-02T15:54:15Z</time>
      </trkpt>
      <trkpt lat="49.25544" lon="-1.39454">
        <ele>3.7</ele>
        <time>2022-02-02T15:54:18Z</time>
      </trkpt>
      <trkpt lat="49.25542" lon="-1.39446">
        <ele>3.6</ele>
        <time>2022-02-02T15:54:21Z</time>
      </trkpt>
      <trkpt lat="49.25541" lon="-1.39438">
        <ele>4.1</ele>
        <time>2022-02-02T15:54:24Z</time>
      </trkpt>
      <trkpt lat="49.2554" lon="-1.39431">
        <ele>4.8</ele>
        <time>2022-02-02T15:54:28Z</time>
      </trkpt>
      <trkpt lat="49.25538" lon="-1.39424">
        <ele>5.1</ele>
        <time>2022-02-02T15:54:31Z</time>
      </trkpt>
      <trkpt lat="49.25536" lon="-1.39415">
        <ele>5.2</ele>
        <time>2022-02-02T15:54:34Z</time>
      </trkpt>
      <trkpt lat="49.25534" lon="-1.39407">
        <ele>5.3</ele>
        <time>2022-02-02T15:54:37Z</time>
      </trkpt>
      <trkpt lat="49.25531" lon="-1.39399">
        <ele>5.7</ele>
        <time>2022-02-02T15:54:41Z</time>
      </trkpt>
      <trkpt lat="49.25529" lon="-1.39392">
        <ele>6.2</ele>
        <time>2022-02-02T15:54:44Z</time>
      </trkpt>
      <trkpt lat="49.25528" lon="-1.39384">
        <ele>6.7</ele>
        <time>2022-02-02T15:54:48Z</time>
      </trkpt>
      <trkpt lat="49.25523" lon="-1.39379">
        <ele>7.4</ele>
        <time>2022-02-02T15:54:54Z</time>
      </trkpt>
      <trkpt lat="49.25521" lon="-1.3937">
        <ele>7.7</ele>
        <time>2022-02-02T15:54:59Z</time>
      </trkpt>
      <trkpt lat="49.25519" lon="-1.39363">
        <ele>7.7</ele>
        <time>2022-02-02T15:55:02Z</time>
      </trkpt>
      <trkpt lat="49.25517" lon="-1.39357">
        <ele>7.7</ele>
        <time>2022-02-02T15:55:05Z</time>
      </trkpt>
      <trkpt lat="49.25515" lon="-1.3935">
        <ele>7.6</ele>
        <time>2022-02-02T15:55:09Z</time>
      </trkpt>
      <trkpt lat="49.25511" lon="-1.39345">
        <ele>8.8</ele>
        <time>2022-02-02T15:56:23Z</time>
      </trkpt>
      <trkpt lat="49.25508" lon="-1.39339">
        <ele>8.7</ele>
        <time>2022-02-02T15:56:26Z</time>
      </trkpt>
      <trkpt lat="49.25506" lon="-1.39332">
        <ele>8.6</ele>
        <time>2022-02-02T15:56:30Z</time>
      </trkpt>
      <trkpt lat="49.25502" lon="-1.39325">
        <ele>8.6</ele>
        <time>2022-02-02T15:56:34Z</time>
      </trkpt>
      <trkpt lat="49.25499" lon="-1.39318">
        <ele>8.5</ele>
        <time>2022-02-02T15:56:38Z</time>
      </trkpt>
      <trkpt lat="49.25496" lon="-1.39311">
        <ele>8.6</ele>
        <time>2022-02-02T15:56:41Z</time>
      </trkpt>
      <trkpt lat="49.25493" lon="-1.39304">
        <ele>8.8</ele>
        <time>2022-02-02T15:56:44Z</time>
      </trkpt>
      <trkpt lat="49.25489" lon="-1.39298">
        <ele>9.2</ele>
        <time>2022-02-02T15:56:47Z</time>
      </trkpt>
      <trkpt lat="49.25486" lon="-1.39292">
        <ele>9.5</ele>
        <time>2022-02-02T15:56:50Z</time>
      </trkpt>
      <trkpt lat="49.25483" lon="-1.39285">
        <ele>9.8</ele>
        <time>2022-02-02T15:56:53Z</time>
      </trkpt>
      <trkpt lat="49.2548" lon="-1.39278">
        <ele>10.2</ele>
        <time>2022-02-02T15:56:56Z</time>
      </trkpt>
      <trkpt lat="49.25477" lon="-1.39272">
        <ele>10.5</ele>
        <time>2022-02-02T15:56:59Z</time>
      </trkpt>
      <trkpt lat="49.25473" lon="-1.39267">
        <ele>10.5</ele>
        <time>2022-02-02T15:57:03Z</time>
      </trkpt>
      <trkpt lat="49.2547" lon="-1.39261">
        <ele>10.6</ele>
        <time>2022-02-02T15:57:06Z</time>
      </trkpt>
      <trkpt lat="49.25467" lon="-1.39254">
        <ele>10.1</ele>
        <time>2022-02-02T15:57:09Z</time>
      </trkpt>
      <trkpt lat="49.25465" lon="-1.39248">
        <ele>9.8</ele>
        <time>2022-02-02T15:57:12Z</time>
      </trkpt>
      <trkpt lat="49.25462" lon="-1.39241">
        <ele>9.4</ele>
        <time>2022-02-02T15:57:15Z</time>
      </trkpt>
      <trkpt lat="49.25459" lon="-1.39234">
        <ele>9.6</ele>
        <time>2022-02-02T15:57:20Z</time>
      </trkpt>
      <trkpt lat="49.25455" lon="-1.39228">
        <ele>9.7</ele>
        <time>2022-02-02T15:57:23Z</time>
      </trkpt>
      <trkpt lat="49.25451" lon="-1.39222">
        <ele>9.9</ele>
        <time>2022-02-02T15:57:27Z</time>
      </trkpt>
      <trkpt lat="49.2545" lon="-1.39216">
        <ele>10</ele>
        <time>2022-02-02T15:57:48Z</time>
      </trkpt>
      <trkpt lat="49.25447" lon="-1.39208">
        <ele>10.2</ele>
        <time>2022-02-02T15:57:53Z</time>
      </trkpt>
      <trkpt lat="49.25444" lon="-1.39201">
        <ele>10.4</ele>
        <time>2022-02-02T15:57:58Z</time>
      </trkpt>
      <trkpt lat="49.25443" lon="-1.39193">
        <ele>10.8</ele>
        <time>2022-02-02T15:58:01Z</time>
      </trkpt>
      <trkpt lat="49.25442" lon="-1.39184">
        <ele>11.1</ele>
        <time>2022-02-02T15:58:05Z</time>
      </trkpt>
      <trkpt lat="49.2544" lon="-1.39177">
        <ele>11.2</ele>
        <time>2022-02-02T15:58:09Z</time>
      </trkpt>
      <trkpt lat="49.25438" lon="-1.3917">
        <ele>10.6</ele>
        <time>2022-02-02T15:58:15Z</time>
      </trkpt>
      <trkpt lat="49.25437" lon="-1.39162">
        <ele>12.6</ele>
        <time>2022-02-02T15:58:24Z</time>
      </trkpt>
      <trkpt lat="49.25436" lon="-1.39152">
        <ele>12.6</ele>
        <time>2022-02-02T15:58:28Z</time>
      </trkpt>
      <trkpt lat="49.25435" lon="-1.39144">
        <ele>12.3</ele>
        <time>2022-02-02T15:58:31Z</time>
      </trkpt>
      <trkpt lat="49.25433" lon="-1.39137">
        <ele>12.3</ele>
        <time>2022-02-02T15:58:34Z</time>
      </trkpt>
      <trkpt lat="49.25432" lon="-1.39129">
        <ele>12.4</ele>
        <time>2022-02-02T15:58:37Z</time>
      </trkpt>
      <trkpt lat="49.25431" lon="-1.39122">
        <ele>12.4</ele>
        <time>2022-02-02T15:58:40Z</time>
      </trkpt>
      <trkpt lat="49.25429" lon="-1.39114">
        <ele>12.4</ele>
        <time>2022-02-02T15:58:43Z</time>
      </trkpt>
      <trkpt lat="49.25426" lon="-1.39107">
        <ele>12.3</ele>
        <time>2022-02-02T15:58:47Z</time>
      </trkpt>
      <trkpt lat="49.25424" lon="-1.39101">
        <ele>12.1</ele>
        <time>2022-02-02T15:58:51Z</time>
      </trkpt>
      <trkpt lat="49.25423" lon="-1.39094">
        <ele>11.9</ele>
        <time>2022-02-02T15:58:54Z</time>
      </trkpt>
      <trkpt lat="49.25421" lon="-1.39087">
        <ele>11.6</ele>
        <time>2022-02-02T15:59:00Z</time>
      </trkpt>
      <trkpt lat="49.25419" lon="-1.39081">
        <ele>12.4</ele>
        <time>2022-02-02T15:59:25Z</time>
      </trkpt>
      <trkpt lat="49.25417" lon="-1.39072">
        <ele>12.6</ele>
        <time>2022-02-02T15:59:29Z</time>
      </trkpt>
      <trkpt lat="49.25415" lon="-1.39066">
        <ele>12.8</ele>
        <time>2022-02-02T15:59:34Z</time>
      </trkpt>
      <trkpt lat="49.25414" lon="-1.39059">
        <ele>12.3</ele>
        <time>2022-02-02T15:59:51Z</time>
      </trkpt>
      <trkpt lat="49.2541" lon="-1.39051">
        <ele>12</ele>
        <time>2022-02-02T15:59:53Z</time>
      </trkpt>
      <trkpt lat="49.25408" lon="-1.39042">
        <ele>12</ele>
        <time>2022-02-02T15:59:56Z</time>
      </trkpt>
      <trkpt lat="49.25407" lon="-1.39033">
        <ele>11.9</ele>
        <time>2022-02-02T15:59:59Z</time>
      </trkpt>
      <trkpt lat="49.25403" lon="-1.39019">
        <ele>11.6</ele>
        <time>2022-02-02T16:00:09Z</time>
      </trkpt>
      <trkpt lat="49.254" lon="-1.39013">
        <ele>11.1</ele>
        <time>2022-02-02T16:00:20Z</time>
      </trkpt>
      <trkpt lat="49.254" lon="-1.39006">
        <ele>10.5</ele>
        <time>2022-02-02T16:00:27Z</time>
      </trkpt>
      <trkpt lat="49.25403" lon="-1.38998">
        <ele>9.7</ele>
        <time>2022-02-02T16:00:32Z</time>
      </trkpt>
      <trkpt lat="49.254" lon="-1.38992">
        <ele>7.9</ele>
        <time>2022-02-02T16:00:59Z</time>
      </trkpt>
      <trkpt lat="49.25398" lon="-1.38984">
        <ele>7.9</ele>
        <time>2022-02-02T16:01:01Z</time>
      </trkpt>
      <trkpt lat="49.254" lon="-1.38976">
        <ele>8.1</ele>
        <time>2022-02-02T16:01:04Z</time>
      </trkpt>
      <trkpt lat="49.25404" lon="-1.38963">
        <ele>8.2</ele>
        <time>2022-02-02T16:01:07Z</time>
      </trkpt>
      <trkpt lat="49.25406" lon="-1.38956">
        <ele>8.4</ele>
        <time>2022-02-02T16:01:09Z</time>
      </trkpt>
      <trkpt lat="49.25407" lon="-1.38948">
        <ele>8.1</ele>
        <time>2022-02-02T16:01:13Z</time>
      </trkpt>
      <trkpt lat="49.25409" lon="-1.38941">
        <ele>7.8</ele>
        <time>2022-02-02T16:01:17Z</time>
      </trkpt>
      <trkpt lat="49.25413" lon="-1.38936">
        <ele>7.5</ele>
        <time>2022-02-02T16:01:20Z</time>
      </trkpt>
      <trkpt lat="49.25417" lon="-1.38928">
        <ele>7.2</ele>
        <time>2022-02-02T16:01:29Z</time>
      </trkpt>
      <trkpt lat="49.25418" lon="-1.38919">
        <ele>7.1</ele>
        <time>2022-02-02T16:01:33Z</time>
      </trkpt>
      <trkpt lat="49.25414" lon="-1.38915">
        <ele>6.2</ele>
        <time>2022-02-02T16:01:45Z</time>
      </trkpt>
      <trkpt lat="49.25416" lon="-1.38908">
        <ele>5.7</ele>
        <time>2022-02-02T16:01:49Z</time>
      </trkpt>
    </trkseg>
  </trk>
</gpx>